Darstellungsparameter: Aktuell verwendete Einstellungen:
Skalierung der Graphiken ... ?
xyx+y,   Skalierungsfaktor:      Skalierung: Modus: x, Faktor: 1
Darstellungszeitraum ... ?
Vom - - bis: - -   Zeitraum: 16.02.2004 - 15.08.2004
Min/Max/Avg-Anzeige ... ?
Zeige MMA aktuell
Zeige MMA Monat
Zeige MMA alles
Zeige --A aktuell
Zeige --A Monat
Zeige --A alles
Keine MMA-Anzeige
MMA:
Minimum Maximum Average (ber die Originaldaten)
MMA-Basis: 16.02.2004 - 15.08.2004
Quicknavigation für Darstellung... ?
Tage:      1T, 2T, 3T, 5T -1T -2T -3T -5T +1T +2T +3T +5T
Wochen: 1W, 2W, 3W -1W -2W -3W +1W +2W +3W
Monate: 1M, 3M, 6M -1M -3M -6M +1M +3M +6M
Jahre:    1J, 3J, 5J, 10J -1J -3J -5J -10J +1J +3J +5J +10J
Nutze für die Darstellung ... ?
Originaldaten oder Mittelwerte auf ...
Stundenbasis Tagesbasis Wochenbasis
Monatsbasis Jahresbasis      Datenbasis: Original-Daten
Darstellen als:
Statistik (Auto) Statistik J:M      Darstellung:
Zur Graphik,    zurück zur Übersicht aller Sensoren.
 
Tabellarische Datenbersicht: ?
 
Sensor: Nr:Datum:Temp:Feuchte:Taupunkt:
Aussen-T/F 1 16-02-2004 00:03:00 5.7 C 77 % 1.99 C
2 16-02-2004 00:15:59 5.6 C 78 % 2.07 C
3 16-02-2004 00:27:59 5.5 C 78 % 1.98 C
4 16-02-2004 00:39:58 5.5 C 78 % 1.98 C
5 16-02-2004 00:51:01 5.5 C 79 % 2.16 C
6 16-02-2004 01:03:00 5.5 C 79 % 2.16 C
7 16-02-2004 01:15:00 5.5 C 79 % 2.16 C
8 16-02-2004 01:27:00 5.6 C 79 % 2.25 C
9 16-02-2004 01:39:00 5.4 C 78 % 1.88 C
10 16-02-2004 01:51:01 5.5 C 79 % 2.16 C
11 16-02-2004 02:03:01 5.2 C 78 % 1.69 C
12 16-02-2004 02:15:01 5.1 C 78 % 1.59 C
13 16-02-2004 02:27:01 4.9 C 79 % 1.57 C
14 16-02-2004 02:39:01 4.9 C 79 % 1.57 C
15 16-02-2004 02:52:03 4.9 C 80 % 1.75 C
16 16-02-2004 03:04:03 5 C 79 % 1.67 C
17 16-02-2004 03:16:03 5 C 79 % 1.67 C
18 16-02-2004 03:28:03 5.1 C 78 % 1.59 C
19 16-02-2004 03:40:00 4.9 C 78 % 1.39 C
20 16-02-2004 03:52:00 4.7 C 78 % 1.2 C
21 16-02-2004 04:04:00 4.7 C 78 % 1.2 C
22 16-02-2004 04:16:59 4.6 C 78 % 1.1 C
23 16-02-2004 04:28:59 4.5 C 77 % 0.83 C
24 16-02-2004 04:40:58 4.4 C 77 % 0.73 C
25 16-02-2004 04:52:01 4.3 C 77 % 0.63 C
Sensor: Nr:Datum:Temp:Feuchte:Taupunkt:
Aussen-T/F 26 16-02-2004 05:04:01 4.2 C 77 % 0.54 C
27 16-02-2004 05:16:00 4.2 C 77 % 0.54 C
28 16-02-2004 05:28:00 4.1 C 76 % 0.26 C
29 16-02-2004 05:40:00 3.9 C 77 % 0.25 C
30 16-02-2004 05:52:01 3.7 C 77 % 0.05 C
31 16-02-2004 06:04:01 3.6 C 77 % -0.05 C
32 16-02-2004 06:16:01 3.6 C 77 % -0.05 C
33 16-02-2004 06:28:01 3.4 C 77 % -0.24 C
34 16-02-2004 06:40:01 3.3 C 77 % -0.34 C
35 16-02-2004 06:52:01 3 C 77 % -0.63 C
36 16-02-2004 07:04:01 2.6 C 78 % -0.84 C
37 16-02-2004 07:16:01 2.3 C 79 % -0.96 C
38 16-02-2004 07:28:01 2 C 79 % -1.25 C
39 16-02-2004 07:40:01 1.7 C 81 % -1.2 C
40 16-02-2004 07:52:00 1.6 C 81 % -1.3 C
41 16-02-2004 08:04:00 1.6 C 81 % -1.3 C
42 16-02-2004 08:16:59 1.6 C 82 % -1.13 C
43 16-02-2004 08:28:59 1.5 C 81 % -1.4 C
44 16-02-2004 08:40:57 1.6 C 82 % -1.13 C
45 16-02-2004 08:52:01 1.6 C 82 % -1.13 C
46 16-02-2004 09:04:01 1.6 C 82 % -1.13 C
47 16-02-2004 09:16:01 1.7 C 82 % -1.03 C
48 16-02-2004 09:28:01 1.9 C 83 % -0.67 C
49 16-02-2004 09:40:01 2.5 C 83 % -0.09 C
50 16-02-2004 09:52:00 3 C 83 % 0.4 C
Sensor: Nr:Datum:Temp:Feuchte:Taupunkt:
Aussen-T/F 51 16-02-2004 10:03:59 3.3 C 79 % 0.02 C
52 16-02-2004 10:16:58 3.9 C 77 % 0.25 C
53 16-02-2004 10:28:58 4 C 75 % -0.02 C
54 16-02-2004 10:40:57 4.4 C 74 % 0.18 C
55 16-02-2004 10:52:01 5.1 C 71 % 0.29 C
56 16-02-2004 11:04:01 5.2 C 69 % -0.01 C
57 16-02-2004 11:16:01 5.2 C 69 % -0.01 C
58 16-02-2004 11:28:01 5.5 C 68 % 0.08 C
59 16-02-2004 11:40:01 6.2 C 65 % 0.12 C
60 16-02-2004 11:52:01 6.5 C 62 % -0.24 C
61 16-02-2004 12:04:01 6.7 C 63 % 0.17 C
62 16-02-2004 12:16:01 7 C 61 % 0.01 C
63 16-02-2004 12:28:01 7.4 C 60 % 0.16 C
64 16-02-2004 12:40:01 7.6 C 59 % 0.11 C
65 16-02-2004 12:52:00 7.9 C 58 % 0.16 C
66 16-02-2004 13:04:00 8.6 C 55 % 0.08 C
67 16-02-2004 13:16:58 9 C 54 % 0.2 C
68 16-02-2004 13:28:58 9.1 C 51 % -0.49 C
69 16-02-2004 13:40:57 9.5 C 51 % -0.12 C
70 16-02-2004 13:52:01 9.2 C 50 % -0.67 C
71 16-02-2004 14:04:01 10.1 C 49 % -0.11 C
72 16-02-2004 14:16:01 10.1 C 49 % -0.11 C
73 16-02-2004 14:28:01 10 C 49 % -0.21 C
74 16-02-2004 14:40:01 10.2 C 48 % -0.31 C
75 16-02-2004 14:52:00 10.3 C 48 % -0.21 C
Sensor: Nr:Datum:Temp:Feuchte:Taupunkt:
Aussen-T/F 76 16-02-2004 15:04:59 10.2 C 48 % -0.31 C
77 16-02-2004 15:16:58 9.8 C 48 % -0.67 C
78 16-02-2004 15:28:58 9.3 C 49 % -0.85 C
79 16-02-2004 15:40:57 9.5 C 49 % -0.67 C
80 16-02-2004 15:52:01 8.7 C 50 % -1.13 C
81 16-02-2004 16:04:01 8.4 C 50 % -1.4 C
82 16-02-2004 16:16:01 8.3 C 52 % -0.96 C
83 16-02-2004 16:28:01 8 C 52 % -1.24 C
84 16-02-2004 16:40:00 8.3 C 52 % -0.96 C
85 16-02-2004 16:52:01 8.6 C 52 % -0.68 C
86 16-02-2004 17:04:01 8.1 C 53 % -0.89 C
87 16-02-2004 17:16:01 6.4 C 56 % -1.72 C
88 16-02-2004 17:28:01 6.5 C 59 % -0.92 C
89 16-02-2004 17:40:01 6.2 C 60 % -0.97 C
90 16-02-2004 17:52:00 5.7 C 62 % -1 C
91 16-02-2004 18:04:00 5.1 C 64 % -1.13 C
92 16-02-2004 18:16:58 4.7 C 67 % -0.89 C
93 16-02-2004 18:28:58 4.5 C 69 % -0.68 C
94 16-02-2004 18:40:57 4.3 C 70 % -0.68 C
95 16-02-2004 18:52:01 4.3 C 71 % -0.48 C
96 16-02-2004 19:04:01 4.2 C 71 % -0.58 C
97 16-02-2004 19:16:01 4.1 C 71 % -0.67 C
98 16-02-2004 19:28:01 4 C 72 % -0.58 C
99 16-02-2004 19:40:01 4.1 C 73 % -0.29 C
100 16-02-2004 19:52:01 4.3 C 72 % -0.29 C
Sensor: Nr:Datum:Temp:Feuchte:Taupunkt:
Aussen-T/F 101 16-02-2004 20:04:01 4.7 C 72 % 0.09 C
102 16-02-2004 20:16:01 4.9 C 71 % 0.09 C
103 16-02-2004 20:28:01 5.1 C 69 % -0.11 C
104 16-02-2004 20:40:02 5.1 C 69 % -0.11 C
105 16-02-2004 20:52:01 5.2 C 69 % -0.01 C
106 16-02-2004 21:04:01 5.1 C 69 % -0.11 C
107 16-02-2004 21:16:01 5.2 C 69 % -0.01 C
108 16-02-2004 21:28:01 5.1 C 69 % -0.11 C
109 16-02-2004 21:40:58 5.2 C 69 % -0.01 C
110 16-02-2004 21:52:00 5.1 C 70 % 0.09 C
111 16-02-2004 22:04:00 5.2 C 70 % 0.19 C
112 16-02-2004 22:16:00 5.1 C 70 % 0.09 C
113 16-02-2004 22:28:00 5 C 70 % 0 C
114 16-02-2004 22:40:01 5 C 70 % 0 C
115 16-02-2004 22:52:00 5 C 70 % 0 C
116 16-02-2004 23:04:00 5 C 70 % 0 C
117 16-02-2004 23:16:59 5 C 70 % 0 C
118 16-02-2004 23:28:59 4.9 C 70 % -0.1 C
119 16-02-2004 23:40:57 4.7 C 70 % -0.29 C
120 16-02-2004 23:52:01 4.6 C 70 % -0.39 C
121 17-02-2004 00:04:01 4.5 C 70 % -0.48 C
122 17-02-2004 00:16:01 4.5 C 71 % -0.29 C
123 17-02-2004 00:28:01 4.4 C 71 % -0.39 C
124 17-02-2004 00:40:01 4.4 C 71 % -0.39 C
125 17-02-2004 00:52:00 4.3 C 71 % -0.48 C
Sensor: Nr:Datum:Temp:Feuchte:Taupunkt:
Aussen-T/F 126 17-02-2004 01:04:00 4.3 C 71 % -0.48 C
127 17-02-2004 01:16:58 4.3 C 71 % -0.48 C
128 17-02-2004 01:28:58 4.1 C 71 % -0.67 C
129 17-02-2004 01:40:57 4.1 C 71 % -0.67 C
130 17-02-2004 01:52:01 4.1 C 71 % -0.67 C
131 17-02-2004 02:04:01 4 C 71 % -0.77 C
132 17-02-2004 02:16:01 4 C 71 % -0.77 C
133 17-02-2004 02:28:01 3.9 C 72 % -0.68 C
134 17-02-2004 02:40:01 4 C 71 % -0.77 C
135 17-02-2004 02:53:02 4 C 71 % -0.77 C
136 17-02-2004 03:05:02 3.8 C 72 % -0.77 C
137 17-02-2004 03:17:02 3.8 C 72 % -0.77 C
138 17-02-2004 03:29:02 3.7 C 72 % -0.87 C
139 17-02-2004 03:41:00 3.6 C 72 % -0.96 C
140 17-02-2004 03:53:00 3.6 C 72 % -0.96 C
141 17-02-2004 04:05:00 3.6 C 72 % -0.96 C
142 17-02-2004 04:17:59 3.6 C 72 % -0.96 C
143 17-02-2004 04:29:59 3.6 C 71 % -1.15 C
144 17-02-2004 04:41:57 3.5 C 71 % -1.25 C
145 17-02-2004 04:53:01 3.5 C 72 % -1.06 C
146 17-02-2004 05:05:01 3.4 C 71 % -1.35 C
147 17-02-2004 05:17:01 3.4 C 71 % -1.35 C
148 17-02-2004 05:29:01 3.3 C 71 % -1.44 C
149 17-02-2004 05:41:01 3.3 C 71 % -1.44 C
150 17-02-2004 05:53:00 3.3 C 71 % -1.44 C
Sensor: Nr:Datum:Temp:Feuchte:Taupunkt:
Aussen-T/F 151 17-02-2004 06:05:59 3.3 C 71 % -1.44 C
152 17-02-2004 06:17:58 3.3 C 70 % -1.64 C
153 17-02-2004 06:29:58 3 C 71 % -1.73 C
154 17-02-2004 06:41:57 2.9 C 72 % -1.64 C
155 17-02-2004 06:53:01 2.9 C 71 % -1.83 C
156 17-02-2004 07:05:01 2.8 C 71 % -1.92 C
157 17-02-2004 07:17:01 2.9 C 71 % -1.83 C
158 17-02-2004 07:29:01 2.8 C 71 % -1.92 C
159 17-02-2004 07:41:01 2.5 C 72 % -2.02 C
160 17-02-2004 07:53:01 2.5 C 72 % -2.02 C
161 17-02-2004 08:05:01 2.5 C 72 % -2.02 C
162 17-02-2004 08:17:01 2.5 C 72 % -2.02 C
163 17-02-2004 08:29:01 2.6 C 72 % -1.93 C
164 17-02-2004 08:41:01 2.4 C 72 % -2.12 C
165 17-02-2004 08:53:00 2.3 C 71 % -2.4 C
166 17-02-2004 09:05:00 2.4 C 71 % -2.31 C
167 17-02-2004 09:17:58 2.5 C 71 % -2.21 C
168 17-02-2004 09:29:58 2.5 C 71 % -2.21 C
169 17-02-2004 09:41:57 2.5 C 71 % -2.21 C
170 17-02-2004 09:53:01 2.6 C 71 % -2.12 C
171 17-02-2004 10:05:01 3 C 71 % -1.73 C
172 17-02-2004 10:17:01 2.8 C 71 % -1.92 C
173 17-02-2004 10:29:01 2.8 C 71 % -1.92 C
174 17-02-2004 10:41:01 3.2 C 70 % -1.73 C
175 17-02-2004 10:53:00 3.2 C 69 % -1.93 C
Sensor: Nr:Datum:Temp:Feuchte:Taupunkt:
Aussen-T/F 176 17-02-2004 11:05:45 3.1 C 68 % -2.22 C
177 17-02-2004 11:17:58 3 C 69 % -2.12 C
178 17-02-2004 11:29:58 3.2 C 68 % -2.12 C
179 17-02-2004 11:41:57 2.8 C 69 % -2.31 C
180 17-02-2004 11:53:01 2.9 C 69 % -2.21 C
181 17-02-2004 12:05:01 3 C 67 % -2.51 C
182 17-02-2004 12:17:01 3.1 C 67 % -2.42 C
183 17-02-2004 12:29:01 3.2 C 66 % -2.53 C
184 17-02-2004 12:41:00 3.2 C 66 % -2.53 C
185 17-02-2004 12:53:01 3.2 C 67 % -2.32 C
186 17-02-2004 13:05:01 3.2 C 67 % -2.32 C
187 17-02-2004 13:17:01 2.9 C 68 % -2.41 C
188 17-02-2004 13:29:01 3.1 C 68 % -2.22 C
189 17-02-2004 13:41:01 3.3 C 65 % -2.64 C
190 17-02-2004 13:53:00 3.2 C 65 % -2.73 C
191 17-02-2004 14:05:00 3.2 C 64 % -2.94 C
192 17-02-2004 14:17:58 3.2 C 64 % -2.94 C
193 17-02-2004 14:29:58 3.2 C 64 % -2.94 C
194 17-02-2004 14:41:57 3.2 C 64 % -2.94 C
195 17-02-2004 14:53:01 3.3 C 63 % -3.05 C
196 17-02-2004 15:05:01 3.5 C 63 % -2.86 C
197 17-02-2004 15:17:01 3.5 C 63 % -2.86 C
198 17-02-2004 15:29:01 3.5 C 64 % -2.65 C
199 17-02-2004 15:41:01 3.6 C 63 % -2.77 C
200 17-02-2004 15:53:00 3.6 C 63 % -2.77 C
Sensor: Nr:Datum:Temp:Feuchte:Taupunkt:
Aussen-T/F 201 17-02-2004 16:05:59 3.6 C 63 % -2.77 C
202 17-02-2004 16:17:58 3.6 C 63 % -2.77 C
203 17-02-2004 16:29:58 3.4 C 63 % -2.96 C
204 17-02-2004 16:41:57 3.4 C 64 % -2.75 C
205 17-02-2004 16:53:01 3.5 C 64 % -2.65 C
206 17-02-2004 17:05:01 3.6 C 65 % -2.35 C
207 17-02-2004 17:17:01 3.6 C 64 % -2.56 C
208 17-02-2004 17:29:01 3.5 C 65 % -2.44 C
209 17-02-2004 17:41:02 3.5 C 65 % -2.44 C
210 17-02-2004 17:53:04 3.4 C 65 % -2.54 C
211 17-02-2004 18:05:07 3.4 C 66 % -2.33 C
212 17-02-2004 18:17:07 3.4 C 66 % -2.33 C
213 17-02-2004 18:29:07 3.4 C 66 % -2.33 C
214 17-02-2004 18:41:14 3.5 C 66 % -2.24 C
215 17-02-2004 18:53:01 3.4 C 66 % -2.33 C
216 17-02-2004 19:05:01 3.4 C 66 % -2.33 C
217 17-02-2004 19:17:00 3.3 C 66 % -2.43 C
218 17-02-2004 19:29:00 3.3 C 67 % -2.23 C
219 17-02-2004 19:41:00 3.2 C 67 % -2.32 C
220 17-02-2004 19:53:01 3.3 C 67 % -2.23 C
221 17-02-2004 20:05:01 3.3 C 68 % -2.03 C
222 17-02-2004 20:17:01 3.3 C 68 % -2.03 C
223 17-02-2004 20:29:01 3.3 C 68 % -2.03 C
224 17-02-2004 20:41:01 3.3 C 68 % -2.03 C
225 17-02-2004 20:53:01 3.3 C 68 % -2.03 C
Sensor: Nr:Datum:Temp:Feuchte:Taupunkt:
Aussen-T/F 226 17-02-2004 21:05:01 3.3 C 68 % -2.03 C
227 17-02-2004 21:17:01 3.3 C 68 % -2.03 C
228 17-02-2004 21:29:01 3.3 C 68 % -2.03 C
229 17-02-2004 21:41:01 3.3 C 68 % -2.03 C
230 17-02-2004 21:53:00 3.3 C 68 % -2.03 C
231 17-02-2004 22:05:59 3.4 C 68 % -1.93 C
232 17-02-2004 22:17:56 3.4 C 69 % -1.73 C
233 17-02-2004 22:29:56 3.4 C 69 % -1.73 C
234 17-02-2004 22:41:55 3.3 C 70 % -1.64 C
235 17-02-2004 22:53:00 3.4 C 70 % -1.54 C
236 17-02-2004 23:05:00 3.3 C 70 % -1.64 C
237 17-02-2004 23:17:59 3.3 C 70 % -1.64 C
238 17-02-2004 23:29:59 3.4 C 70 % -1.54 C
239 17-02-2004 23:41:58 3.4 C 70 % -1.54 C
240 17-02-2004 23:53:01 3.3 C 70 % -1.64 C
241 18-02-2004 00:05:00 3.3 C 71 % -1.44 C
242 18-02-2004 00:17:00 3.3 C 71 % -1.44 C
243 18-02-2004 00:29:00 3.3 C 72 % -1.25 C
244 18-02-2004 00:41:00 3.3 C 72 % -1.25 C
245 18-02-2004 00:53:01 3.4 C 72 % -1.16 C
246 18-02-2004 01:05:01 3.4 C 72 % -1.16 C
247 18-02-2004 01:17:01 3.4 C 72 % -1.16 C
248 18-02-2004 01:29:01 3.5 C 72 % -1.06 C
249 18-02-2004 01:41:01 3.4 C 72 % -1.16 C
250 18-02-2004 01:53:01 3.5 C 72 % -1.06 C
Sensor: Nr:Datum:Temp:Feuchte:Taupunkt:
Aussen-T/F 251 18-02-2004 02:05:01 3.5 C 72 % -1.06 C
252 18-02-2004 02:17:01 3.5 C 72 % -1.06 C
253 18-02-2004 02:29:01 3.6 C 72 % -0.96 C
254 18-02-2004 02:41:01 3.5 C 74 % -0.69 C
255 18-02-2004 02:54:01 3.4 C 76 % -0.42 C
256 18-02-2004 03:06:01 3.4 C 77 % -0.24 C
257 18-02-2004 03:18:00 3.7 C 79 % 0.4 C
258 18-02-2004 03:30:00 3.8 C 79 % 0.5 C
259 18-02-2004 03:42:01 3.8 C 79 % 0.5 C
260 18-02-2004 03:54:01 3.8 C 79 % 0.5 C
261 18-02-2004 04:06:01 3.9 C 78 % 0.42 C
262 18-02-2004 04:18:00 3.8 C 78 % 0.33 C
263 18-02-2004 04:30:00 3.9 C 77 % 0.25 C
264 18-02-2004 04:42:00 3.8 C 77 % 0.15 C
265 18-02-2004 04:54:01 4 C 73 % -0.39 C
266 18-02-2004 05:06:01 3.9 C 73 % -0.49 C
267 18-02-2004 05:18:01 3.9 C 72 % -0.68 C
268 18-02-2004 05:30:01 3.6 C 73 % -0.78 C
269 18-02-2004 05:42:01 3.7 C 68 % -1.64 C
270 18-02-2004 05:54:01 3.7 C 65 % -2.25 C
271 18-02-2004 06:06:01 3.8 C 63 % -2.58 C
272 18-02-2004 06:18:01 3.8 C 65 % -2.16 C
273 18-02-2004 06:30:01 3.8 C 66 % -1.95 C
274 18-02-2004 06:42:01 3.8 C 66 % -1.95 C
275 18-02-2004 06:54:00 3.8 C 66 % -1.95 C
Sensor: Nr:Datum:Temp:Feuchte:Taupunkt:
Aussen-T/F 276 18-02-2004 07:06:00 3.7 C 67 % -1.85 C
277 18-02-2004 07:18:59 3.8 C 66 % -1.95 C
278 18-02-2004 07:30:57 3.7 C 67 % -1.85 C
279 18-02-2004 07:42:57 3.8 C 67 % -1.75 C
280 18-02-2004 07:54:01 3.8 C 66 % -1.95 C
281 18-02-2004 08:06:01 3.9 C 67 % -1.65 C
282 18-02-2004 08:18:01 3.9 C 67 % -1.65 C
283 18-02-2004 08:30:01 4 C 66 % -1.76 C
284 18-02-2004 08:42:01 4.1 C 66 % -1.67 C
285 18-02-2004 08:54:00 4.2 C 66 % -1.57 C
286 18-02-2004 09:05:59 4.3 C 65 % -1.68 C
287 18-02-2004 09:18:58 4.4 C 65 % -1.59 C
288 18-02-2004 09:30:57 4.5 C 64 % -1.7 C
289 18-02-2004 09:42:57 4.7 C 64 % -1.51 C
290 18-02-2004 09:54:01 4.7 C 64 % -1.51 C
291 18-02-2004 10:06:01 4.7 C 64 % -1.51 C
292 18-02-2004 10:18:01 4.6 C 63 % -1.82 C
293 18-02-2004 10:30:01 4.6 C 63 % -1.82 C
294 18-02-2004 10:42:01 5.3 C 57 % -2.51 C
295 18-02-2004 10:54:01 5.3 C 57 % -2.51 C
296 18-02-2004 11:06:01 5 C 59 % -2.33 C
297 18-02-2004 11:18:01 5 C 54 % -3.52 C
298 18-02-2004 11:30:01 5.6 C 46 % -5.09 C
299 18-02-2004 11:42:01 5.5 C 46 % -5.18 C
300 18-02-2004 11:54:00 5.6 C 45 % -5.38 C
Sensor: Nr:Datum:Temp:Feuchte:Taupunkt:
Aussen-T/F 301 18-02-2004 12:06:00 5.7 C 46 % -5 C
302 18-02-2004 12:18:59 5.7 C 48 % -4.43 C
303 18-02-2004 12:30:57 5.6 C 52 % -3.46 C
304 18-02-2004 12:42:57 5.5 C 53 % -3.3 C
305 18-02-2004 12:54:01 5.4 C 55 % -2.9 C
306 18-02-2004 13:06:01 5.5 C 57 % -2.33 C
307 18-02-2004 13:18:01 5.6 C 57 % -2.23 C
308 18-02-2004 13:30:01 5.6 C 57 % -2.23 C
309 18-02-2004 13:42:01 5.2 C 60 % -1.92 C
310 18-02-2004 13:54:00 4.8 C 66 % -1 C
311 18-02-2004 14:06:00 4.5 C 69 % -0.68 C
312 18-02-2004 14:18:58 4.7 C 69 % -0.49 C
313 18-02-2004 14:30:57 5.6 C 69 % 0.37 C
314 18-02-2004 14:42:57 5.8 C 63 % -0.69 C
315 18-02-2004 14:54:01 6.6 C 59 % -0.83 C
316 18-02-2004 15:06:01 6.9 C 51 % -2.52 C
317 18-02-2004 15:18:01 6.7 C 54 % -1.94 C
318 18-02-2004 15:30:01 6.3 C 51 % -3.08 C
319 18-02-2004 15:42:01 7 C 52 % -2.17 C
320 18-02-2004 15:54:01 7.8 C 46 % -3.08 C
321 18-02-2004 16:06:01 7.1 C 48 % -3.15 C
322 18-02-2004 16:18:01 6.6 C 48 % -3.61 C
323 18-02-2004 16:30:01 6.7 C 49 % -3.24 C
324 18-02-2004 16:42:01 7.2 C 46 % -3.63 C
325 18-02-2004 16:54:00 7 C 45 % -4.1 C
Sensor: Nr:Datum:Temp:Feuchte:Taupunkt:
Aussen-T/F 326 18-02-2004 17:06:00 7.2 C 45 % -3.92 C
327 18-02-2004 17:18:58 7.2 C 45 % -3.92 C
328 18-02-2004 17:30:57 6.5 C 46 % -4.27 C
329 18-02-2004 17:42:57 6 C 48 % -4.16 C
330 18-02-2004 17:54:01 5.6 C 50 % -3.99 C
331 18-02-2004 18:06:01 5.2 C 51 % -4.09 C
332 18-02-2004 18:18:01 4.9 C 53 % -3.86 C
333 18-02-2004 18:30:01 4.6 C 54 % -3.89 C
334 18-02-2004 18:42:01 4.3 C 56 % -3.69 C
335 18-02-2004 18:54:00 3.8 C 60 % -3.23 C
336 18-02-2004 19:06:59 3.9 C 60 % -3.14 C
337 18-02-2004 19:18:58 4.1 C 58 % -3.41 C
338 18-02-2004 19:30:57 4.1 C 58 % -3.41 C
339 18-02-2004 19:42:57 4.1 C 60 % -2.95 C
340 18-02-2004 19:54:01 3.7 C 61 % -3.11 C
341 18-02-2004 20:06:01 3.3 C 63 % -3.05 C
342 18-02-2004 20:18:01 2.7 C 65 % -3.21 C
343 18-02-2004 20:30:01 2.4 C 67 % -3.09 C
344 18-02-2004 20:42:01 2 C 67 % -3.47 C
345 18-02-2004 20:54:01 1.8 C 69 % -3.27 C
346 18-02-2004 21:06:01 1.6 C 70 % -3.27 C
347 18-02-2004 21:18:01 1.4 C 70 % -3.46 C
348 18-02-2004 21:30:01 1.2 C 71 % -3.46 C
349 18-02-2004 21:42:01 0.9 C 72 % -3.56 C
350 18-02-2004 21:54:00 0.7 C 72 % -3.76 C
Sensor: Nr:Datum:Temp:Feuchte:Taupunkt:
Aussen-T/F 351 18-02-2004 22:06:00 0.6 C 73 % -3.67 C
352 18-02-2004 22:18:58 0.5 C 74 % -3.58 C
353 18-02-2004 22:30:57 0.2 C 74 % -3.87 C
354 18-02-2004 22:42:57 0.1 C 74 % -3.97 C
355 18-02-2004 22:54:01 0.1 C 75 % -3.79 C
356 18-02-2004 23:06:01 0 C 76 % -3.71 C
357 18-02-2004 23:18:01 0.2 C 76 % -3.52 C
358 18-02-2004 23:30:01 0 C 75 % -3.89 C
359 18-02-2004 23:42:01 0.1 C 75 % -3.79 C
360 18-02-2004 23:54:00 0.4 C 75 % -3.5 C
361 19-02-2004 00:06:59 0.3 C 74 % -3.78 C
362 19-02-2004 00:18:58 0.1 C 74 % -3.97 C
363 19-02-2004 00:30:57 0.1 C 75 % -3.79 C
364 19-02-2004 00:42:57 0.2 C 75 % -3.69 C
365 19-02-2004 00:54:01 0.2 C 75 % -3.69 C
366 19-02-2004 01:06:01 0.3 C 75 % -3.6 C
367 19-02-2004 01:18:01 0.1 C 75 % -3.79 C
368 19-02-2004 01:30:01 -0.1 C 75 % -3.99 C
369 19-02-2004 01:42:01 -0.3 C 76 % -4.01 C
370 19-02-2004 01:54:01 -0.4 C 76 % -4.1 C
371 19-02-2004 02:06:01 -0.6 C 76 % -4.3 C
372 19-02-2004 02:18:01 -0.8 C 76 % -4.49 C
373 19-02-2004 02:30:01 -1 C 77 % -4.51 C
374 19-02-2004 02:42:01 -1 C 77 % -4.51 C
375 19-02-2004 02:55:01 -1.2 C 77 % -4.71 C
Sensor: Nr:Datum:Temp:Feuchte:Taupunkt:
Aussen-T/F 376 19-02-2004 03:07:01 -1.3 C 77 % -4.8 C
377 19-02-2004 03:19:00 -1.2 C 78 % -4.54 C
378 19-02-2004 03:31:01 -1.3 C 79 % -4.46 C
379 19-02-2004 03:43:01 -1.5 C 78 % -4.83 C
380 19-02-2004 03:55:01 -1.8 C 78 % -5.12 C
381 19-02-2004 04:07:01 -1.9 C 78 % -5.22 C
382 19-02-2004 04:19:00 -2 C 79 % -5.15 C
383 19-02-2004 04:31:00 -2.1 C 79 % -5.24 C
384 19-02-2004 04:43:00 -2 C 79 % -5.15 C
385 19-02-2004 04:55:01 -1.2 C 80 % -4.2 C
386 19-02-2004 05:07:01 -1.2 C 82 % -3.87 C
387 19-02-2004 05:19:01 -1.1 C 82 % -3.77 C
388 19-02-2004 05:31:01 -1 C 82 % -3.68 C
389 19-02-2004 05:43:01 -1 C 82 % -3.68 C
390 19-02-2004 05:55:01 -0.7 C 82 % -3.38 C
391 19-02-2004 06:07:01 -0.5 C 82 % -3.19 C
392 19-02-2004 06:19:01 -0.4 C 81 % -3.25 C
393 19-02-2004 06:31:01 -0.3 C 80 % -3.32 C
394 19-02-2004 06:43:01 -0.3 C 79 % -3.49 C
395 19-02-2004 06:55:00 -0.2 C 78 % -3.56 C
396 19-02-2004 07:07:00 -0.2 C 77 % -3.74 C
397 19-02-2004 07:19:59 0 C 77 % -3.54 C
398 19-02-2004 07:31:57 0 C 77 % -3.54 C
399 19-02-2004 07:43:57 0.2 C 76 % -3.52 C
400 19-02-2004 07:55:01 0.3 C 75 % -3.6 C
Sensor: Nr:Datum:Temp:Feuchte:Taupunkt:
Aussen-T/F 401 19-02-2004 08:07:01 0.4 C 74 % -3.68 C
402 19-02-2004 08:19:01 0.5 C 74 % -3.58 C
403 19-02-2004 08:31:01 0.8 C 75 % -3.11 C
404 19-02-2004 08:43:01 1.1 C 73 % -3.19 C
405 19-02-2004 08:55:00 1.3 C 73 % -2.99 C
406 19-02-2004 09:06:59 1.7 C 72 % -2.79 C
407 19-02-2004 09:19:58 1.9 C 70 % -2.98 C
408 19-02-2004 09:31:57 2.2 C 68 % -3.08 C
409 19-02-2004 09:43:57 2.4 C 64 % -3.7 C
410 19-02-2004 09:55:01 2.7 C 60 % -4.27 C
411 19-02-2004 10:07:01 2.8 C 58 % -4.63 C
412 19-02-2004 10:19:01 2.5 C 58 % -4.91 C
413 19-02-2004 10:31:01 2.9 C 57 % -4.76 C
414 19-02-2004 10:43:01 3.2 C 51 % -5.94 C
415 19-02-2004 10:55:01 3.1 C 46 % -7.37 C
416 19-02-2004 11:07:01 3.1 C 45 % -7.66 C
417 19-02-2004 11:19:01 3.7 C 45 % -7.11 C
418 19-02-2004 11:31:01 3.7 C 45 % -7.11 C
419 19-02-2004 11:43:01 3.4 C 46 % -7.1 C
420 19-02-2004 11:55:00 3.7 C 43 % -7.7 C
421 19-02-2004 12:07:00 4.1 C 41 % -7.95 C
422 19-02-2004 12:19:58 4.5 C 39 % -8.23 C
423 19-02-2004 12:31:57 4.6 C 38 % -8.47 C
424 19-02-2004 12:43:57 4.7 C 39 % -8.05 C
425 19-02-2004 12:55:01 4.4 C 38 % -8.65 C
Sensor: Nr:Datum:Temp:Feuchte:Taupunkt:
Aussen-T/F 426 19-02-2004 13:07:01 4.2 C 37 % -9.17 C
427 19-02-2004 13:19:01 4.1 C 37 % -9.26 C
428 19-02-2004 13:31:01 3.8 C 39 % -8.86 C
429 19-02-2004 13:43:01 3.5 C 39 % -9.12 C
430 19-02-2004 13:55:00 3.5 C 39 % -9.12 C
431 19-02-2004 14:07:00 3.6 C 40 % -8.71 C
432 19-02-2004 14:19:58 3.4 C 42 % -8.27 C
433 19-02-2004 14:31:57 3.4 C 44 % -7.67 C
434 19-02-2004 14:43:57 3.3 C 45 % -7.47 C
435 19-02-2004 14:55:01 3.1 C 45 % -7.66 C
436 19-02-2004 15:07:01 3 C 45 % -7.75 C
437 19-02-2004 15:19:01 2.9 C 46 % -7.56 C
438 19-02-2004 15:31:02 2.8 C 46 % -7.65 C
439 19-02-2004 15:43:02 2.7 C 47 % -7.46 C
440 19-02-2004 15:55:00 2.6 C 47 % -7.55 C
441 19-02-2004 16:07:00 2.4 C 46 % -8.01 C
442 19-02-2004 16:19:59 2.4 C 46 % -8.01 C
443 19-02-2004 16:31:59 2.5 C 46 % -7.92 C
444 19-02-2004 16:43:59 2.3 C 45 % -8.39 C
445 19-02-2004 16:55:01 2.3 C 45 % -8.39 C
446 19-02-2004 17:07:01 2.2 C 45 % -8.48 C
447 19-02-2004 17:19:01 2 C 45 % -8.66 C
448 19-02-2004 17:31:02 1.8 C 46 % -8.56 C
449 19-02-2004 17:43:02 1.7 C 46 % -8.65 C
450 19-02-2004 17:55:01 1.6 C 46 % -8.75 C
Sensor: Nr:Datum:Temp:Feuchte:Taupunkt:
Aussen-T/F 451 19-02-2004 18:07:01 1.5 C 45 % -9.12 C
452 19-02-2004 18:19:01 1.4 C 46 % -8.93 C
453 19-02-2004 18:31:01 1.4 C 46 % -8.93 C
454 19-02-2004 18:43:01 1.3 C 46 % -9.02 C
455 19-02-2004 18:55:00 1.2 C 46 % -9.11 C
456 19-02-2004 19:07:00 1.2 C 46 % -9.11 C
457 19-02-2004 19:19:59 1.2 C 46 % -9.11 C
458 19-02-2004 19:31:57 1.2 C 46 % -9.11 C
459 19-02-2004 19:43:57 1.1 C 47 % -8.93 C
460 19-02-2004 19:55:01 1.1 C 47 % -8.93 C
461 19-02-2004 20:07:01 1.1 C 47 % -8.93 C
462 19-02-2004 20:19:01 1.1 C 47 % -8.93 C
463 19-02-2004 20:31:01 1.1 C 47 % -8.93 C
464 19-02-2004 20:43:01 1.1 C 47 % -8.93 C
465 19-02-2004 20:55:00 1.1 C 47 % -8.93 C
466 19-02-2004 21:07:00 1.1 C 48 % -8.66 C
467 19-02-2004 21:19:58 1.1 C 48 % -8.66 C
468 19-02-2004 21:31:57 1.1 C 48 % -8.66 C
469 19-02-2004 21:43:57 1.1 C 48 % -8.66 C
470 19-02-2004 21:55:01 1 C 48 % -8.75 C
471 19-02-2004 22:07:01 0.9 C 50 % -8.33 C
472 19-02-2004 22:19:01 1 C 48 % -8.75 C
473 19-02-2004 22:31:01 0.9 C 49 % -8.58 C
474 19-02-2004 22:43:01 0.9 C 48 % -8.85 C
475 19-02-2004 22:55:01 1 C 47 % -9.02 C
Sensor: Nr:Datum:Temp:Feuchte:Taupunkt:
Aussen-T/F 476 19-02-2004 23:07:01 0.9 C 49 % -8.58 C
477 19-02-2004 23:19:01 0.9 C 49 % -8.58 C
478 19-02-2004 23:31:01 0.9 C 49 % -8.58 C
479 19-02-2004 23:43:01 0.8 C 49 % -8.68 C
480 19-02-2004 23:55:01 0.8 C 50 % -8.42 C
481 20-02-2004 00:07:00 0.8 C 49 % -8.68 C
482 20-02-2004 00:19:59 0.8 C 49 % -8.68 C
483 20-02-2004 00:31:57 0.8 C 49 % -8.68 C
484 20-02-2004 00:43:57 0.7 C 49 % -8.77 C
485 20-02-2004 00:55:01 0.7 C 49 % -8.77 C
486 20-02-2004 01:07:01 0.7 C 49 % -8.77 C
487 20-02-2004 01:19:01 0.4 C 50 % -8.79 C
488 20-02-2004 01:31:01 0.3 C 51 % -8.63 C
489 20-02-2004 01:43:01 0.2 C 51 % -8.72 C
490 20-02-2004 01:55:00 0.3 C 51 % -8.63 C
491 20-02-2004 02:07:59 0.3 C 51 % -8.63 C
492 20-02-2004 02:19:58 0.1 C 52 % -8.56 C
493 20-02-2004 02:31:57 0 C 52 % -8.66 C
494 20-02-2004 02:43:57 -0.2 C 54 % -8.37 C
495 20-02-2004 02:56:02 -0.2 C 54 % -8.37 C
496 20-02-2004 03:08:02 -0.3 C 54 % -8.47 C
497 20-02-2004 03:20:02 -0.3 C 55 % -8.23 C
498 20-02-2004 03:32:00 -0.3 C 55 % -8.23 C
499 20-02-2004 03:44:00 -0.3 C 55 % -8.23 C
500 20-02-2004 03:56:00 -0.4 C 56 % -8.09 C
Sensor: Nr:Datum:Temp:Feuchte:Taupunkt:
Aussen-T/F 501 20-02-2004 04:08:00 -0.6 C 56 % -8.28 C
502 20-02-2004 04:20:59 -0.7 C 56 % -8.38 C
503 20-02-2004 04:32:57 -1 C 57 % -8.43 C
504 20-02-2004 04:44:01 -1.1 C 57 % -8.52 C
505 20-02-2004 04:56:01 -1.1 C 57 % -8.52 C
506 20-02-2004 05:08:01 -1.2 C 57 % -8.62 C
507 20-02-2004 05:20:01 -1.2 C 57 % -8.62 C
508 20-02-2004 05:32:01 -1.2 C 57 % -8.62 C
509 20-02-2004 05:44:01 -1.3 C 58 % -8.49 C
510 20-02-2004 05:56:00 -1.5 C 58 % -8.68 C
511 20-02-2004 06:08:00 -1.6 C 60 % -8.34 C
512 20-02-2004 06:20:58 -1.5 C 59 % -8.46 C
513 20-02-2004 06:32:57 -1.4 C 59 % -8.36 C
514 20-02-2004 06:44:01 -1.4 C 59 % -8.36 C
515 20-02-2004 06:56:01 -1.5 C 59 % -8.46 C
516 20-02-2004 07:08:01 -1.6 C 60 % -8.34 C
517 20-02-2004 07:20:01 -1.6 C 61 % -8.13 C
518 20-02-2004 07:32:01 -1.7 C 61 % -8.22 C
519 20-02-2004 07:44:01 -1.8 C 61 % -8.31 C
520 20-02-2004 07:56:01 -1.8 C 61 % -8.31 C
521 20-02-2004 08:08:01 -1.6 C 61 % -8.13 C
522 20-02-2004 08:20:01 -1.6 C 60 % -8.34 C
523 20-02-2004 08:32:01 -1.5 C 60 % -8.24 C
524 20-02-2004 08:44:01 -1.4 C 60 % -8.15 C
525 20-02-2004 08:56:00 -1.2 C 59 % -8.18 C
Sensor: Nr:Datum:Temp:Feuchte:Taupunkt:
Aussen-T/F 526 20-02-2004 09:08:00 -1.3 C 59 % -8.27 C
527 20-02-2004 09:20:59 -1.2 C 59 % -8.18 C
528 20-02-2004 09:32:58 -1.1 C 58 % -8.3 C
529 20-02-2004 09:44:01 -0.8 C 57 % -8.24 C
530 20-02-2004 09:56:01 -0.7 C 57 % -8.15 C
531 20-02-2004 10:08:01 -0.6 C 56 % -8.28 C
532 20-02-2004 10:20:01 -0.2 C 55 % -8.14 C
533 20-02-2004 10:32:01 0.4 C 54 % -7.8 C
534 20-02-2004 10:44:01 0.7 C 52 % -8.01 C
535 20-02-2004 10:56:00 1.2 C 50 % -8.05 C
536 20-02-2004 11:08:00 1.5 C 49 % -8.03 C
537 20-02-2004 11:20:58 2 C 47 % -8.1 C
538 20-02-2004 11:32:57 2.2 C 46 % -8.2 C
539 20-02-2004 11:44:01 2.6 C 44 % -8.4 C
540 20-02-2004 11:56:01 2.9 C 43 % -8.42 C
541 20-02-2004 12:08:01 3.4 C 42 % -8.27 C
542 20-02-2004 12:20:01 3.9 C 40 % -8.44 C
543 20-02-2004 12:32:01 4.3 C 38 % -8.74 C
544 20-02-2004 12:44:01 4.6 C 37 % -8.81 C
545 20-02-2004 12:56:00 5 C 37 % -8.45 C
546 20-02-2004 13:08:59 5.6 C 36 % -8.27 C
547 20-02-2004 13:20:58 6 C 33 % -9.03 C
548 20-02-2004 13:32:57 6.6 C 34 % -8.12 C
549 20-02-2004 13:44:01 6.9 C 31 % -9.03 C
550 20-02-2004 13:56:01 7.1 C 30 % -9.27 C
Sensor: Nr:Datum:Temp:Feuchte:Taupunkt:
Aussen-T/F 551 20-02-2004 14:08:01 7.7 C 29 % -9.18 C
552 20-02-2004 14:20:01 8.2 C 29 % -8.75 C
553 20-02-2004 14:32:00 8.2 C 26 % -10.13 C
554 20-02-2004 14:44:00 8.4 C 27 % -9.48 C
555 20-02-2004 14:56:01 8.7 C 26 % -9.7 C
556 20-02-2004 15:08:01 9.1 C 25 % -9.86 C
557 20-02-2004 15:20:01 8.9 C 25 % -10.03 C
558 20-02-2004 15:32:01 9.1 C 25 % -9.86 C
559 20-02-2004 15:44:01 9.2 C 25 % -9.77 C
560 20-02-2004 15:56:00 9.3 C 25 % -9.69 C
561 20-02-2004 16:07:59 9.1 C 26 % -9.36 C
562 20-02-2004 16:20:58 9.3 C 25 % -9.69 C
563 20-02-2004 16:32:04 9.2 C 25 % -9.77 C
564 20-02-2004 16:44:04 8.8 C 26 % -9.62 C
565 20-02-2004 16:56:02 8.7 C 29 % -8.32 C
566 20-02-2004 17:08:02 8.6 C 30 % -7.97 C
567 20-02-2004 17:20:10 7.9 C 32 % -7.75 C
568 20-02-2004 17:32:13 7.1 C 34 % -7.67 C
569 20-02-2004 17:44:13 5.8 C 38 % -7.4 C
570 20-02-2004 17:56:01 5 C 40 % -7.45 C
571 20-02-2004 18:08:01 4.2 C 42 % -7.55 C
572 20-02-2004 18:20:01 3.6 C 45 % -7.2 C
573 20-02-2004 18:32:01 3.3 C 46 % -7.19 C
574 20-02-2004 18:44:01 3.1 C 46 % -7.37 C
575 20-02-2004 18:56:01 2.9 C 48 % -7.01 C
Sensor: Nr:Datum:Temp:Feuchte:Taupunkt:
Aussen-T/F 576 20-02-2004 19:08:01 2.7 C 48 % -7.19 C
577 20-02-2004 19:20:01 2.5 C 49 % -7.11 C
578 20-02-2004 19:32:01 2.4 C 50 % -6.94 C
579 20-02-2004 19:44:01 2.3 C 50 % -7.03 C
580 20-02-2004 19:56:00 2.3 C 50 % -7.03 C
581 20-02-2004 20:08:57 2.1 C 51 % -6.96 C
582 20-02-2004 20:20:56 1.9 C 52 % -6.89 C
583 20-02-2004 20:32:54 1.7 C 53 % -6.83 C
584 20-02-2004 20:44:00 1.5 C 53 % -7.02 C
585 20-02-2004 20:56:00 1.4 C 54 % -6.87 C
586 20-02-2004 21:08:00 1.3 C 55 % -6.73 C
587 20-02-2004 21:20:59 1.2 C 55 % -6.82 C
588 20-02-2004 21:32:58 1 C 56 % -6.77 C
589 20-02-2004 21:44:01 0.9 C 57 % -6.64 C
590 20-02-2004 21:56:01 0.7 C 57 % -6.82 C
591 20-02-2004 22:08:00 0.6 C 58 % -6.69 C
592 20-02-2004 22:20:59 0.5 C 59 % -6.56 C
593 20-02-2004 22:32:58 0.4 C 59 % -6.66 C
594 20-02-2004 22:44:01 0.2 C 59 % -6.85 C
595 20-02-2004 22:56:01 0.1 C 59 % -6.94 C
596 20-02-2004 23:08:01 0 C 60 % -6.82 C
597 20-02-2004 23:20:00 -0.1 C 60 % -6.92 C
598 20-02-2004 23:32:00 -0.1 C 60 % -6.92 C
599 20-02-2004 23:44:00 -0.1 C 59 % -7.14 C
600 20-02-2004 23:56:01 -0.1 C 59 % -7.14 C
Sensor: Nr:Datum:Temp:Feuchte:Taupunkt:
Aussen-T/F 601 21-02-2004 00:08:01 -0.2 C 59 % -7.23 C
602 21-02-2004 00:20:02 -0.3 C 60 % -7.11 C
603 21-02-2004 00:32:01 -0.3 C 60 % -7.11 C
604 21-02-2004 00:44:01 -0.4 C 61 % -6.99 C
605 21-02-2004 00:56:01 -0.6 C 62 % -6.97 C
606 21-02-2004 01:08:01 -0.9 C 61 % -7.46 C
607 21-02-2004 01:20:01 -1 C 62 % -7.35 C
608 21-02-2004 01:32:01 -1.1 C 63 % -7.24 C
609 21-02-2004 01:44:01 -1.3 C 64 % -7.22 C
610 21-02-2004 01:56:01 -1.2 C 63 % -7.33 C
611 21-02-2004 02:08:01 -1.4 C 63 % -7.52 C
612 21-02-2004 02:20:01 -1.4 C 63 % -7.52 C
613 21-02-2004 02:32:01 -1.3 C 63 % -7.43 C
614 21-02-2004 02:44:01 -1.5 C 65 % -7.21 C
615 21-02-2004 02:57:01 -1.6 C 66 % -7.11 C
616 21-02-2004 03:09:01 -1.8 C 65 % -7.5 C
617 21-02-2004 03:20:59 -1.9 C 66 % -7.4 C
618 21-02-2004 03:33:01 -2 C 65 % -7.69 C
619 21-02-2004 03:45:01 -2.1 C 66 % -7.59 C
620 21-02-2004 03:57:01 -2.3 C 66 % -7.78 C
621 21-02-2004 04:09:01 -2.5 C 66 % -7.97 C
622 21-02-2004 04:21:01 -2.4 C 66 % -7.87 C
623 21-02-2004 04:33:01 -2.3 C 67 % -7.58 C
624 21-02-2004 04:45:00 -2 C 66 % -7.49 C
625 21-02-2004 04:57:00 -1.9 C 65 % -7.59 C
Sensor: Nr:Datum:Temp:Feuchte:Taupunkt:
Aussen-T/F 626 21-02-2004 05:09:59 -1.8 C 63 % -7.9 C
627 21-02-2004 05:21:58 -1.8 C 63 % -7.9 C
628 21-02-2004 05:33:57 -1.8 C 62 % -8.11 C
629 21-02-2004 05:45:01 -1.8 C 62 % -8.11 C
630 21-02-2004 05:57:01 -2 C 63 % -8.09 C
631 21-02-2004 06:09:01 -1.9 C 63 % -8 C
632 21-02-2004 06:21:01 -2 C 63 % -8.09 C
633 21-02-2004 06:33:01 -2 C 63 % -8.09 C
634 21-02-2004 06:45:01 -2 C 64 % -7.89 C
635 21-02-2004 06:57:01 -1.8 C 63 % -7.9 C
636 21-02-2004 07:09:01 -1.4 C 61 % -7.94 C
637 21-02-2004 07:21:01 -1.4 C 60 % -8.15 C
638 21-02-2004 07:33:01 -1.1 C 59 % -8.08 C
639 21-02-2004 07:45:00 -1.1 C 58 % -8.3 C
640 21-02-2004 07:57:00 -1.4 C 60 % -8.15 C
641 21-02-2004 08:09:00 -0.9 C 58 % -8.11 C
642 21-02-2004 08:21:58 -0.7 C 58 % -7.92 C
643 21-02-2004 08:33:57 -0.4 C 56 % -8.09 C
644 21-02-2004 08:45:01 -0.4 C 56 % -8.09 C
645 21-02-2004 08:57:01 -0.4 C 57 % -7.87 C
646 21-02-2004 09:09:01 -0.3 C 57 % -7.77 C
647 21-02-2004 09:21:01 0.1 C 56 % -7.61 C
648 21-02-2004 09:33:01 0.4 C 55 % -7.57 C
649 21-02-2004 09:45:00 0.5 C 54 % -7.71 C
650 21-02-2004 09:57:00 0.7 C 54 % -7.52 C
Sensor: Nr:Datum:Temp:Feuchte:Taupunkt:
Aussen-T/F 651 21-02-2004 10:09:59 1 C 52 % -7.73 C
652 21-02-2004 10:21:58 1.1 C 52 % -7.64 C
653 21-02-2004 10:33:57 1.2 C 53 % -7.3 C
654 21-02-2004 10:45:01 1.3 C 51 % -7.7 C
655 21-02-2004 10:57:01 1.5 C 50 % -7.77 C
656 21-02-2004 11:09:01 1.5 C 50 % -7.77 C
657 21-02-2004 11:21:01 1.5 C 51 % -7.52 C
658 21-02-2004 11:33:01 1.6 C 51 % -7.42 C
659 21-02-2004 11:45:01 1.8 C 51 % -7.24 C
660 21-02-2004 11:57:01 2.2 C 50 % -7.12 C
661 21-02-2004 12:09:01 2.4 C 50 % -6.94 C
662 21-02-2004 12:21:01 3 C 46 % -7.47 C
663 21-02-2004 12:33:01 3.1 C 45 % -7.66 C
664 21-02-2004 12:45:00 3.3 C 46 % -7.19 C
665 21-02-2004 12:57:00 3.5 C 45 % -7.29 C
666 21-02-2004 13:09:00 3.4 C 45 % -7.38 C
667 21-02-2004 13:21:58 3.7 C 45 % -7.11 C
668 21-02-2004 13:33:57 3.7 C 45 % -7.11 C
669 21-02-2004 13:45:01 3.5 C 46 % -7.01 C
670 21-02-2004 13:57:01 3.5 C 46 % -7.01 C
671 21-02-2004 14:09:01 3.6 C 45 % -7.2 C
672 21-02-2004 14:21:01 3.6 C 45 % -7.2 C
673 21-02-2004 14:33:01 3.7 C 45 % -7.11 C
674 21-02-2004 14:45:01 3.9 C 45 % -6.93 C
675 21-02-2004 14:57:01 4.2 C 44 % -6.94 C
Sensor: Nr:Datum:Temp:Feuchte:Taupunkt:
Aussen-T/F 676 21-02-2004 15:09:28 4.4 C 44 % -6.76 C
677 21-02-2004 15:21:01 4.8 C 43 % -6.7 C
678 21-02-2004 15:33:01 5.3 C 41 % -6.86 C
679 21-02-2004 15:45:00 5.5 C 41 % -6.68 C
680 21-02-2004 15:57:00 5.5 C 41 % -6.68 C
681 21-02-2004 16:09:00 5.8 C 41 % -6.41 C
682 21-02-2004 16:21:59 5.7 C 40 % -6.82 C
683 21-02-2004 16:33:57 5.5 C 41 % -6.68 C
684 21-02-2004 16:45:02 5.1 C 42 % -6.73 C
685 21-02-2004 16:57:02 4.8 C 43 % -6.7 C
686 21-02-2004 17:09:04 4.6 C 44 % -6.58 C
687 21-02-2004 17:21:02 4.4 C 45 % -6.47 C
688 21-02-2004 17:33:02 4.3 C 45 % -6.56 C
689 21-02-2004 17:45:02 4.2 C 45 % -6.65 C
690 21-02-2004 17:57:02 4.1 C 46 % -6.46 C
691 21-02-2004 18:09:01 3.9 C 47 % -6.36 C
692 21-02-2004 18:21:59 3.8 C 49 % -5.91 C
693 21-02-2004 18:33:59 3.7 C 48 % -6.27 C
694 21-02-2004 18:45:01 3.7 C 50 % -5.74 C
695 21-02-2004 18:57:01 3.6 C 50 % -5.83 C
696 21-02-2004 19:09:01 3.4 C 51 % -5.76 C
697 21-02-2004 19:21:00 3 C 51 % -6.13 C
698 21-02-2004 19:33:00 2.7 C 53 % -5.9 C
699 21-02-2004 19:45:01 2.5 C 54 % -5.85 C
700 21-02-2004 19:57:01 2.5 C 55 % -5.61 C
Sensor: Nr:Datum:Temp:Feuchte:Taupunkt:
Aussen-T/F 701 21-02-2004 20:09:01 2.6 C 55 % -5.51 C
702 21-02-2004 20:21:01 2.7 C 55 % -5.42 C
703 21-02-2004 20:33:01 2.8 C 56 % -5.09 C
704 21-02-2004 20:45:01 2.9 C 55 % -5.23 C
705 21-02-2004 20:57:01 2.8 C 55 % -5.33 C
706 21-02-2004 21:09:01 2.8 C 56 % -5.09 C
707 21-02-2004 21:21:01 2.4 C 56 % -5.46 C
708 21-02-2004 21:33:01 1.9 C 58 % -5.47 C
709 21-02-2004 21:45:00 1.6 C 59 % -5.53 C
710 21-02-2004 21:57:00 1.4 C 59 % -5.72 C
711 21-02-2004 22:09:00 1.2 C 60 % -5.69 C
712 21-02-2004 22:21:58 1.1 C 61 % -5.56 C
713 21-02-2004 22:33:57 0.9 C 62 % -5.54 C
714 21-02-2004 22:45:01 0.9 C 62 % -5.54 C
715 21-02-2004 22:57:01 0.7 C 63 % -5.52 C
716 21-02-2004 23:09:01 0.6 C 64 % -5.41 C
717 21-02-2004 23:21:01 0.4 C 65 % -5.39 C
718 21-02-2004 23:33:01 0.3 C 65 % -5.49 C
719 21-02-2004 23:45:01 0.3 C 66 % -5.29 C
720 21-02-2004 23:57:01 0.1 C 66 % -5.48 C
721 22-02-2004 00:09:01 0.2 C 66 % -5.38 C
722 22-02-2004 00:21:01 0.1 C 66 % -5.48 C
723 22-02-2004 00:33:01 0 C 66 % -5.58 C
724 22-02-2004 00:45:00 0 C 65 % -5.78 C
725 22-02-2004 00:57:00 -0.1 C 66 % -5.68 C
Sensor: Nr:Datum:Temp:Feuchte:Taupunkt:
Aussen-T/F 726 22-02-2004 01:09:00 -0.2 C 67 % -5.58 C
727 22-02-2004 01:21:59 -0.1 C 67 % -5.48 C
728 22-02-2004 01:33:57 -0.1 C 68 % -5.29 C
729 22-02-2004 01:45:01 0 C 67 % -5.38 C
730 22-02-2004 01:57:01 0.2 C 67 % -5.19 C
731 22-02-2004 02:09:01 0.3 C 67 % -5.09 C
732 22-02-2004 02:21:01 0.2 C 66 % -5.38 C
733 22-02-2004 02:33:01 0.1 C 67 % -5.28 C
734 22-02-2004 02:46:01 -0.1 C 67 % -5.48 C
735 22-02-2004 02:58:01 -0.2 C 68 % -5.38 C
736 22-02-2004 03:10:00 -0.3 C 69 % -5.29 C
737 22-02-2004 03:22:00 -0.3 C 69 % -5.29 C
738 22-02-2004 03:34:01 -0.1 C 69 % -5.09 C
739 22-02-2004 03:46:01 0.2 C 68 % -4.99 C
740 22-02-2004 03:58:01 0.1 C 69 % -4.9 C
741 22-02-2004 04:10:00 0.1 C 69 % -4.9 C
742 22-02-2004 04:22:00 0.2 C 68 % -4.99 C
743 22-02-2004 04:34:00 0.2 C 68 % -4.99 C
744 22-02-2004 04:46:01 0.3 C 68 % -4.9 C
745 22-02-2004 04:58:01 0.4 C 67 % -5 C
746 22-02-2004 05:10:01 0.4 C 67 % -5 C
747 22-02-2004 05:22:01 0.4 C 68 % -4.8 C
748 22-02-2004 05:34:00 0.4 C 69 % -4.61 C
749 22-02-2004 05:46:01 0.4 C 69 % -4.61 C
750 22-02-2004 05:58:01 0.4 C 69 % -4.61 C
Sensor: Nr:Datum:Temp:Feuchte:Taupunkt:
Aussen-T/F 751 22-02-2004 06:10:01 0.4 C 69 % -4.61 C
752 22-02-2004 06:22:01 0.4 C 69 % -4.61 C
753 22-02-2004 06:34:01 0.5 C 69 % -4.51 C
754 22-02-2004 06:46:00 0.4 C 69 % -4.61 C
755 22-02-2004 06:58:00 0.4 C 70 % -4.42 C
756 22-02-2004 07:10:00 0.5 C 69 % -4.51 C
757 22-02-2004 07:22:58 0.6 C 69 % -4.42 C
758 22-02-2004 07:34:57 0.7 C 68 % -4.51 C
759 22-02-2004 07:46:01 1 C 67 % -4.42 C
760 22-02-2004 07:58:01 1.2 C 66 % -4.43 C
761 22-02-2004 08:10:01 1.3 C 66 % -4.34 C
762 22-02-2004 08:22:01 1.4 C 66 % -4.24 C
763 22-02-2004 08:34:01 1.5 C 66 % -4.15 C
764 22-02-2004 08:46:00 1.6 C 65 % -4.25 C
765 22-02-2004 08:58:00 1.7 C 65 % -4.16 C
766 22-02-2004 09:10:59 1.8 C 65 % -4.06 C
767 22-02-2004 09:22:58 1.8 C 65 % -4.06 C
768 22-02-2004 09:34:57 2 C 65 % -3.87 C
769 22-02-2004 09:46:01 1.9 C 66 % -3.76 C
770 22-02-2004 09:58:01 1.9 C 66 % -3.76 C
771 22-02-2004 10:10:01 1.8 C 66 % -3.86 C
772 22-02-2004 10:22:01 1.6 C 66 % -4.05 C
773 22-02-2004 10:34:00 1.7 C 66 % -3.95 C
774 22-02-2004 10:46:16 1.5 C 66 % -4.15 C
775 22-02-2004 10:58:01 1.7 C 66 % -3.95 C
Sensor: Nr:Datum:Temp:Feuchte:Taupunkt:
Aussen-T/F 776 22-02-2004 11:10:01 1.8 C 66 % -3.86 C
777 22-02-2004 11:22:01 1.7 C 66 % -3.95 C
778 22-02-2004 11:34:01 1.9 C 66 % -3.76 C
779 22-02-2004 11:46:40 2.1 C 64 % -3.98 C
780 22-02-2004 11:58:00 2 C 63 % -4.29 C
781 22-02-2004 12:10:00 1.9 C 65 % -3.97 C
782 22-02-2004 12:22:59 1.6 C 64 % -4.46 C
783 22-02-2004 12:34:58 2 C 63 % -4.29 C
784 22-02-2004 12:46:01 1.9 C 63 % -4.38 C
785 22-02-2004 12:58:01 2.1 C 62 % -4.4 C
786 22-02-2004 13:10:01 2.3 C 60 % -4.65 C
787 22-02-2004 13:22:01 2.5 C 58 % -4.91 C
788 22-02-2004 13:34:01 2.8 C 58 % -4.63 C
789 22-02-2004 13:46:00 2.8 C 56 % -5.09 C
790 22-02-2004 13:58:00 3.3 C 54 % -5.1 C
791 22-02-2004 14:10:00 3.3 C 53 % -5.35 C
792 22-02-2004 14:22:59 3.4 C 52 % -5.5 C
793 22-02-2004 14:34:57 3.6 C 51 % -5.57 C
794 22-02-2004 14:46:01 4 C 49 % -5.73 C
795 22-02-2004 14:58:01 4.3 C 46 % -6.28 C
796 22-02-2004 15:10:01 4.5 C 44 % -6.67 C
797 22-02-2004 15:22:01 5.1 C 41 % -7.04 C
798 22-02-2004 15:34:01 5.4 C 38 % -7.75 C
799 22-02-2004 15:46:00 5.8 C 37 % -7.74 C
800 22-02-2004 15:58:00 5.5 C 36 % -8.36 C
Sensor: Nr:Datum:Temp:Feuchte:Taupunkt:
Aussen-T/F 801 22-02-2004 16:09:59 4.8 C 41 % -7.31 C
802 22-02-2004 16:22:58 4.7 C 43 % -6.79 C
803 22-02-2004 16:34:57 4.6 C 45 % -6.29 C
804 22-02-2004 16:46:01 4.4 C 46 % -6.18 C
805 22-02-2004 16:58:01 4.1 C 46 % -6.46 C
806 22-02-2004 17:10:01 3.9 C 47 % -6.36 C
807 22-02-2004 17:22:01 3.7 C 47 % -6.55 C
808 22-02-2004 17:34:01 3.6 C 48 % -6.36 C
809 22-02-2004 17:46:01 3.6 C 49 % -6.1 C
810 22-02-2004 17:58:01 3.6 C 49 % -6.1 C
811 22-02-2004 18:10:01 3.5 C 49 % -6.19 C
812 22-02-2004 18:22:01 3.5 C 50 % -5.92 C
813 22-02-2004 18:34:01 3.5 C 50 % -5.92 C
814 22-02-2004 18:46:00 3.5 C 51 % -5.66 C
815 22-02-2004 18:58:00 3.5 C 51 % -5.66 C
816 22-02-2004 19:10:00 3.5 C 52 % -5.41 C
817 22-02-2004 19:22:59 3.5 C 53 % -5.16 C
818 22-02-2004 19:34:57 3.3 C 53 % -5.35 C
819 22-02-2004 19:46:01 2.7 C 56 % -5.18 C
820 22-02-2004 19:58:01 2.4 C 58 % -5 C
821 22-02-2004 20:10:01 2.5 C 58 % -4.91 C
822 22-02-2004 20:22:01 2.6 C 59 % -4.59 C
823 22-02-2004 20:34:01 2.7 C 58 % -4.72 C
824 22-02-2004 20:46:00 2.8 C 58 % -4.63 C
825 22-02-2004 20:58:00 2.9 C 59 % -4.31 C
Sensor: Nr:Datum:Temp:Feuchte:Taupunkt:
Aussen-T/F 826 22-02-2004 21:10:59 2.9 C 60 % -4.08 C
827 22-02-2004 21:22:58 3 C 58 % -4.44 C
828 22-02-2004 21:34:57 3 C 58 % -4.44 C
829 22-02-2004 21:46:01 3 C 58 % -4.44 C
830 22-02-2004 21:58:01 3.1 C 58 % -4.34 C
831 22-02-2004 22:10:01 3.1 C 56 % -4.81 C
832 22-02-2004 22:22:01 3 C 53 % -5.62 C
833 22-02-2004 22:34:01 2.8 C 51 % -6.31 C
834 22-02-2004 22:46:01 2.6 C 49 % -7.02 C
835 22-02-2004 22:58:01 2.2 C 48 % -7.65 C
836 22-02-2004 23:10:01 2 C 47 % -8.1 C
837 22-02-2004 23:22:01 1.8 C 48 % -8.02 C
838 22-02-2004 23:34:01 1.5 C 50 % -7.77 C
839 22-02-2004 23:46:00 1.3 C 51 % -7.7 C
840 22-02-2004 23:58:00 1.1 C 52 % -7.64 C
841 23-02-2004 00:10:00 0.8 C 54 % -7.43 C
842 23-02-2004 00:22:59 0.8 C 55 % -7.19 C
843 23-02-2004 00:34:57 0.6 C 56 % -7.15 C
844 23-02-2004 00:46:01 0.4 C 56 % -7.33 C
845 23-02-2004 00:58:01 0.3 C 57 % -7.2 C
846 23-02-2004 01:10:01 0.2 C 58 % -7.07 C
847 23-02-2004 01:22:01 0 C 60 % -6.82 C
848 23-02-2004 01:34:01 -0.3 C 61 % -6.9 C
849 23-02-2004 01:46:00 -0.4 C 61 % -6.99 C
850 23-02-2004 01:58:00 -0.3 C 62 % -6.68 C
Sensor: Nr:Datum:Temp:Feuchte:Taupunkt:
Aussen-T/F 851 23-02-2004 02:09:59 -0.3 C 62 % -6.68 C
852 23-02-2004 02:22:58 -0.6 C 63 % -6.76 C
853 23-02-2004 02:34:57 -0.9 C 63 % -7.05 C
854 23-02-2004 02:47:02 -0.9 C 65 % -6.64 C
855 23-02-2004 02:59:02 -1 C 66 % -6.54 C
856 23-02-2004 03:11:02 -1.1 C 67 % -6.44 C
857 23-02-2004 03:23:02 -1.1 C 67 % -6.44 C
858 23-02-2004 03:35:00 -1.5 C 67 % -6.82 C
859 23-02-2004 03:47:00 -1.7 C 69 % -6.63 C
860 23-02-2004 03:59:00 -1.9 C 70 % -6.63 C
861 23-02-2004 04:11:00 -1.6 C 71 % -6.16 C
862 23-02-2004 04:23:59 -1.4 C 70 % -6.15 C
863 23-02-2004 04:35:57 -1.4 C 70 % -6.15 C
864 23-02-2004 04:47:01 -1.4 C 70 % -6.15 C
865 23-02-2004 04:59:01 -1.4 C 69 % -6.34 C
866 23-02-2004 05:11:01 -1.4 C 70 % -6.15 C
867 23-02-2004 05:23:01 -1 C 69 % -5.96 C
868 23-02-2004 05:35:01 -0.9 C 68 % -6.05 C
869 23-02-2004 05:47:00 -0.9 C 67 % -6.25 C
870 23-02-2004 05:59:00 -0.9 C 67 % -6.25 C
871 23-02-2004 06:11:00 -0.8 C 68 % -5.96 C
872 23-02-2004 06:23:58 -0.7 C 67 % -6.05 C
873 23-02-2004 06:35:57 -0.7 C 68 % -5.86 C
874 23-02-2004 06:47:01 -0.7 C 68 % -5.86 C
875 23-02-2004 06:59:01 -0.6 C 68 % -5.76 C
Sensor: Nr:Datum:Temp:Feuchte:Taupunkt:
Aussen-T/F 876 23-02-2004 07:11:01 -0.6 C 68 % -5.76 C
877 23-02-2004 07:23:01 -0.6 C 68 % -5.76 C
878 23-02-2004 07:35:01 -0.5 C 68 % -5.67 C
879 23-02-2004 07:47:01 -0.4 C 68 % -5.57 C
880 23-02-2004 07:59:01 -0.4 C 68 % -5.57 C
881 23-02-2004 08:11:01 -0.3 C 68 % -5.48 C
882 23-02-2004 08:23:01 -0.3 C 68 % -5.48 C
883 23-02-2004 08:35:01 -0.3 C 68 % -5.48 C
884 23-02-2004 08:47:00 -0.4 C 69 % -5.38 C
885 23-02-2004 08:59:00 -0.1 C 69 % -5.09 C
886 23-02-2004 09:11:00 0.2 C 68 % -4.99 C
887 23-02-2004 09:23:59 0.5 C 66 % -5.1 C
888 23-02-2004 09:35:57 0.7 C 65 % -5.11 C
889 23-02-2004 09:47:23 0.8 C 65 % -5.01 C
890 23-02-2004 09:59:02 1.1 C 63 % -5.14 C
891 23-02-2004 10:02:24 0.8 C 64 % -5.22 C
892 23-02-2004 10:05:01 0.8 C 64 % -5.22 C
893 23-02-2004 10:14:01 1 C 63 % -5.23 C
894 23-02-2004 10:26:01 1 C 63 % -5.23 C
895 23-02-2004 10:38:01 1 C 63 % -5.23 C
896 23-02-2004 10:50:01 1.3 C 63 % -4.95 C
897 23-02-2004 11:13:59 1.4 C 62 % -5.07 C
898 23-02-2004 11:14:58 1.5 C 60 % -5.4 C
899 23-02-2004 11:26:58 1.9 C 57 % -5.7 C
900 23-02-2004 11:38:57 1.9 C 58 % -5.47 C
Sensor: Nr:Datum:Temp:Feuchte:Taupunkt:
Aussen-T/F 901 23-02-2004 11:50:01 2.5 C 56 % -5.37 C
902 23-02-2004 12:02:01 2.2 C 56 % -5.65 C
903 23-02-2004 12:14:01 2.6 C 57 % -5.04 C
904 23-02-2004 12:26:01 2.8 C 55 % -5.33 C
905 23-02-2004 12:38:01 3 C 51 % -6.13 C
906 23-02-2004 12:50:01 3.8 C 48 % -6.18 C
907 23-02-2004 13:02:01 3.7 C 45 % -7.11 C
908 23-02-2004 13:14:01 4.1 C 44 % -7.04 C
909 23-02-2004 13:26:01 4.3 C 43 % -7.15 C
910 23-02-2004 13:38:01 4.6 C 42 % -7.18 C
911 23-02-2004 13:50:00 5 C 39 % -7.78 C
912 23-02-2004 14:02:00 3.6 C 46 % -6.92 C
913 23-02-2004 14:14:00 1.7 C 60 % -5.21 C
914 23-02-2004 14:26:59 2.1 C 57 % -5.51 C
915 23-02-2004 14:38:57 3 C 52 % -5.87 C
916 23-02-2004 14:50:01 3.3 C 53 % -5.35 C
917 23-02-2004 15:02:01 4.2 C 50 % -5.28 C
918 23-02-2004 15:14:01 4.9 C 47 % -5.45 C
919 23-02-2004 15:26:01 3.6 C 47 % -6.64 C
920 23-02-2004 15:38:01 2.9 C 51 % -6.22 C
921 23-02-2004 15:50:01 2.7 C 49 % -6.92 C
922 23-02-2004 16:02:59 3.1 C 45 % -7.66 C
923 23-02-2004 16:13:59 3.6 C 42 % -8.09 C
924 23-02-2004 16:26:58 3.2 C 38 % -9.72 C
925 23-02-2004 16:38:57 3.5 C 37 % -9.79 C
Sensor: Nr:Datum:Temp:Feuchte:Taupunkt:
Aussen-T/F 926 23-02-2004 16:50:01 3.8 C 35 % -10.23 C
927 23-02-2004 17:02:01 3.8 C 35 % -10.23 C
928 23-02-2004 17:14:01 3.7 C 35 % -10.31 C
929 23-02-2004 17:26:01 3.2 C 37 % -10.06 C
930 23-02-2004 17:38:01 2.6 C 40 % -9.61 C
931 23-02-2004 17:50:01 2.4 C 42 % -9.18 C
932 23-02-2004 18:02:01 2.3 C 45 % -8.39 C
933 23-02-2004 18:14:01 2 C 50 % -7.31 C
934 23-02-2004 18:26:01 1.5 C 54 % -6.78 C
935 23-02-2004 18:38:01 1 C 56 % -6.77 C
936 23-02-2004 18:50:00 0.6 C 59 % -6.47 C
937 23-02-2004 19:02:00 0.2 C 60 % -6.63 C
938 23-02-2004 19:14:00 0.2 C 59 % -6.85 C
939 23-02-2004 19:26:59 -0.2 C 60 % -7.02 C
940 23-02-2004 19:38:58 -0.5 C 61 % -7.08 C
941 23-02-2004 19:50:01 -0.5 C 61 % -7.08 C
942 23-02-2004 20:02:01 -0.8 C 62 % -7.16 C
943 23-02-2004 20:14:01 -0.9 C 64 % -6.84 C
944 23-02-2004 20:26:01 -1 C 65 % -6.74 C
945 23-02-2004 20:38:01 -1.3 C 65 % -7.02 C
946 23-02-2004 20:50:00 -1.3 C 67 % -6.63 C
947 23-02-2004 21:02:00 -1.6 C 67 % -6.91 C
948 23-02-2004 21:14:00 -1.8 C 67 % -7.11 C
949 23-02-2004 21:26:59 -2 C 67 % -7.3 C
950 23-02-2004 21:38:57 -2.1 C 68 % -7.2 C
Sensor: Nr:Datum:Temp:Feuchte:Taupunkt:
Aussen-T/F 951 23-02-2004 21:50:01 -2.3 C 68 % -7.39 C
952 23-02-2004 22:02:01 -2.3 C 69 % -7.2 C
953 23-02-2004 22:14:01 -2.4 C 69 % -7.3 C
954 23-02-2004 22:26:01 -2.4 C 69 % -7.3 C
955 23-02-2004 22:38:01 -2.6 C 70 % -7.31 C
956 23-02-2004 22:50:00 -2.6 C 70 % -7.31 C
957 23-02-2004 23:02:59 -2.7 C 71 % -7.22 C
958 23-02-2004 23:14:58 -3 C 71 % -7.51 C
959 23-02-2004 23:26:58 -2.9 C 72 % -7.23 C
960 23-02-2004 23:38:57 -2.9 C 72 % -7.23 C
961 23-02-2004 23:50:01 -3 C 73 % -7.15 C
962 24-02-2004 00:02:01 -3.2 C 73 % -7.34 C
963 24-02-2004 00:14:01 -3.2 C 73 % -7.34 C
964 24-02-2004 00:26:01 -3.4 C 72 % -7.71 C
965 24-02-2004 00:38:01 -3.2 C 72 % -7.52 C
966 24-02-2004 00:50:01 -3.4 C 73 % -7.53 C
967 24-02-2004 01:02:01 -3.5 C 73 % -7.63 C
968 24-02-2004 01:14:01 -3.7 C 74 % -7.65 C
969 24-02-2004 01:26:01 -3.7 C 74 % -7.65 C
970 24-02-2004 01:38:01 -3.8 C 74 % -7.75 C
971 24-02-2004 01:50:00 -4 C 74 % -7.94 C
972 24-02-2004 02:02:00 -4 C 74 % -7.94 C
973 24-02-2004 02:14:00 -4 C 74 % -7.94 C
974 24-02-2004 02:26:58 -4.2 C 74 % -8.13 C
975 24-02-2004 02:38:57 -4.3 C 74 % -8.23 C
Sensor: Nr:Datum:Temp:Feuchte:Taupunkt:
Aussen-T/F 976 24-02-2004 02:51:03 -4.5 C 74 % -8.42 C
977 24-02-2004 03:03:03 -4.6 C 74 % -8.52 C
978 24-02-2004 03:15:02 -4.6 C 74 % -8.52 C
979 24-02-2004 03:27:02 -4.8 C 74 % -8.71 C
980 24-02-2004 03:39:00 -4.8 C 74 % -8.71 C
981 24-02-2004 03:51:00 -5.1 C 73 % -9.18 C
982 24-02-2004 04:03:00 -4.9 C 73 % -8.98 C
983 24-02-2004 04:15:59 -5 C 73 % -9.08 C
984 24-02-2004 04:27:59 -5.3 C 73 % -9.37 C
985 24-02-2004 04:39:58 -5.2 C 73 % -9.27 C
986 24-02-2004 04:51:01 -5.3 C 73 % -9.37 C
987 24-02-2004 05:03:01 -5.6 C 73 % -9.66 C
988 24-02-2004 05:15:01 -5.7 C 73 % -9.75 C
989 24-02-2004 05:27:01 -5.6 C 73 % -9.66 C
990 24-02-2004 05:39:01 -5.6 C 73 % -9.66 C
991 24-02-2004 05:51:00 -5.8 C 73 % -9.85 C
992 24-02-2004 06:03:00 -5.8 C 73 % -9.85 C
993 24-02-2004 06:15:59 -6 C 73 % -10.04 C
994 24-02-2004 06:27:59 -6.1 C 73 % -10.14 C
995 24-02-2004 06:39:57 -6.1 C 73 % -10.14 C
996 24-02-2004 06:51:01 -6.1 C 73 % -10.14 C
997 24-02-2004 07:03:01 -6.2 C 72 % -10.41 C
998 24-02-2004 07:15:01 -6.2 C 73 % -10.24 C
999 24-02-2004 07:27:01 -6.1 C 72 % -10.32 C
1000 24-02-2004 07:39:01 -6 C 72 % -10.22 C
Sensor: Nr:Datum:Temp:Feuchte:Taupunkt:
Aussen-T/F 1001 24-02-2004 07:51:00 -5.7 C 71 % -10.11 C
1002 24-02-2004 08:03:59 -5.5 C 70 % -10.09 C
1003 24-02-2004 08:15:58 -5.3 C 69 % -10.08 C
1004 24-02-2004 08:27:58 -4.8 C 69 % -9.6 C
1005 24-02-2004 08:39:57 -4.4 C 67 % -9.59 C
1006 24-02-2004 08:51:01 -4.4 C 67 % -9.59 C
1007 24-02-2004 09:03:01 -4.1 C 67 % -9.31 C
1008 24-02-2004 09:15:01 -3.9 C 67 % -9.11 C
1009 24-02-2004 09:27:01 -3.5 C 67 % -8.73 C
1010 24-02-2004 09:39:01 -3.1 C 66 % -8.54 C
1011 24-02-2004 09:51:01 -2.6 C 65 % -8.26 C
1012 24-02-2004 10:03:01 -2.3 C 64 % -8.17 C
1013 24-02-2004 10:15:01 -1.9 C 64 % -7.79 C
1014 24-02-2004 10:27:01 -1.4 C 62 % -7.73 C
1015 24-02-2004 10:39:01 -1.1 C 61 % -7.65 C
1016 24-02-2004 10:51:01 -0.6 C 60 % -7.39 C
1017 24-02-2004 11:03:01 -0.1 C 59 % -7.14 C
1018 24-02-2004 11:15:01 0 C 56 % -7.71 C
1019 24-02-2004 11:27:01 0.2 C 56 % -7.52 C
1020 24-02-2004 11:39:01 0.5 C 55 % -7.47 C
1021 24-02-2004 11:51:01 0.8 C 52 % -7.92 C
1022 24-02-2004 12:03:01 1.3 C 51 % -7.7 C
1023 24-02-2004 12:15:01 1.9 C 50 % -7.4 C
1024 24-02-2004 12:27:01 2.3 C 46 % -8.11 C
1025 24-02-2004 12:39:01 2.3 C 45 % -8.39 C
Sensor: Nr:Datum:Temp:Feuchte:Taupunkt:
Aussen-T/F 1026 24-02-2004 12:51:01 2.5 C 44 % -8.49 C
1027 24-02-2004 13:03:02 2.6 C 42 % -8.99 C
1028 24-02-2004 13:15:01 3.1 C 40 % -9.16 C
1029 24-02-2004 13:27:01 3.1 C 40 % -9.16 C
1030 24-02-2004 13:39:01 3.4 C 40 % -8.89 C
1031 24-02-2004 13:51:01 3.8 C 40 % -8.53 C
1032 24-02-2004 14:03:01 3.3 C 41 % -8.67 C
1033 24-02-2004 14:15:01 3.4 C 43 % -7.97 C
1034 24-02-2004 14:27:01 3.5 C 44 % -7.58 C
1035 24-02-2004 14:39:01 3.5 C 46 % -7.01 C
1036 24-02-2004 14:51:00 3.3 C 46 % -7.19 C
1037 24-02-2004 15:03:00 3.3 C 46 % -7.19 C
1038 24-02-2004 15:15:59 3.2 C 47 % -7 C
1039 24-02-2004 15:27:59 3.2 C 47 % -7 C
1040 24-02-2004 15:39:58 3.3 C 47 % -6.91 C
1041 24-02-2004 15:51:01 3.3 C 47 % -6.91 C
1042 24-02-2004 16:03:01 3.2 C 47 % -7 C
1043 24-02-2004 16:15:01 3.2 C 48 % -6.73 C
1044 24-02-2004 16:27:01 3 C 48 % -6.92 C
1045 24-02-2004 16:39:01 2.7 C 50 % -6.66 C
1046 24-02-2004 16:51:01 2.7 C 51 % -6.41 C
1047 24-02-2004 17:03:01 2.7 C 52 % -6.15 C
1048 24-02-2004 17:15:01 2.7 C 53 % -5.9 C
1049 24-02-2004 17:27:01 2.5 C 54 % -5.85 C
1050 24-02-2004 17:39:01 2.1 C 56 % -5.74 C
Sensor: Nr:Datum:Temp:Feuchte:Taupunkt:
Aussen-T/F 1051 24-02-2004 17:51:00 1.8 C 59 % -5.34 C
1052 24-02-2004 18:03:00 1.7 C 60 % -5.21 C
1053 24-02-2004 18:15:59 1.7 C 60 % -5.21 C
1054 24-02-2004 18:27:59 1.6 C 60 % -5.31 C
1055 24-02-2004 18:39:58 1.6 C 60 % -5.31 C
1056 24-02-2004 18:51:01 1.5 C 60 % -5.4 C
1057 24-02-2004 19:03:01 1.6 C 60 % -5.31 C
1058 24-02-2004 19:15:01 1.6 C 59 % -5.53 C
1059 24-02-2004 19:27:01 1.6 C 59 % -5.53 C
1060 24-02-2004 19:39:02 1.5 C 59 % -5.62 C
1061 24-02-2004 19:51:00 1.5 C 58 % -5.85 C
1062 24-02-2004 20:03:00 1.4 C 58 % -5.94 C
1063 24-02-2004 20:15:59 1.4 C 58 % -5.94 C
1064 24-02-2004 20:27:59 1.4 C 58 % -5.94 C
1065 24-02-2004 20:39:57 1.2 C 58 % -6.13 C
1066 24-02-2004 20:51:01 1.2 C 59 % -5.91 C
1067 24-02-2004 21:03:01 1.2 C 59 % -5.91 C
1068 24-02-2004 21:15:01 1.2 C 58 % -6.13 C
1069 24-02-2004 21:27:01 1.3 C 58 % -6.03 C
1070 24-02-2004 21:39:01 1.2 C 59 % -5.91 C
1071 24-02-2004 21:51:01 1.1 C 60 % -5.78 C
1072 24-02-2004 22:03:00 1.2 C 60 % -5.69 C
1073 24-02-2004 22:15:58 1.3 C 60 % -5.59 C
1074 24-02-2004 22:27:58 1.3 C 60 % -5.59 C
1075 24-02-2004 22:39:57 1.3 C 61 % -5.37 C
Sensor: Nr:Datum:Temp:Feuchte:Taupunkt:
Aussen-T/F 1076 24-02-2004 22:51:01 1.3 C 61 % -5.37 C
1077 24-02-2004 23:03:01 1.4 C 61 % -5.28 C
1078 24-02-2004 23:15:01 1.3 C 63 % -4.95 C
1079 24-02-2004 23:27:01 1.3 C 65 % -4.54 C
1080 24-02-2004 23:39:01 1.3 C 66 % -4.34 C
1081 24-02-2004 23:51:01 1.2 C 67 % -4.23 C
1082 25-02-2004 00:03:01 1.2 C 67 % -4.23 C
1083 25-02-2004 00:15:01 1.5 C 65 % -4.35 C
1084 25-02-2004 00:27:01 1.5 C 64 % -4.55 C
1085 25-02-2004 00:39:02 1.6 C 63 % -4.67 C
1086 25-02-2004 00:51:00 1.6 C 63 % -4.67 C
1087 25-02-2004 01:03:00 1.6 C 63 % -4.67 C
1088 25-02-2004 01:15:59 1.6 C 63 % -4.67 C
1089 25-02-2004 01:27:59 1.6 C 63 % -4.67 C
1090 25-02-2004 01:39:58 1.5 C 64 % -4.55 C
1091 25-02-2004 01:51:01 1.5 C 65 % -4.35 C
1092 25-02-2004 02:03:01 1.5 C 65 % -4.35 C
1093 25-02-2004 02:15:01 1.4 C 65 % -4.44 C
1094 25-02-2004 02:27:01 1.2 C 68 % -4.04 C
1095 25-02-2004 02:39:00 1.2 C 68 % -4.04 C
1096 25-02-2004 02:52:03 1.2 C 68 % -4.04 C
1097 25-02-2004 03:04:03 1.3 C 67 % -4.14 C
1098 25-02-2004 03:16:02 1.3 C 67 % -4.14 C
1099 25-02-2004 03:28:02 1.3 C 66 % -4.34 C
1100 25-02-2004 03:40:00 1.3 C 67 % -4.14 C
Sensor: Nr:Datum:Temp:Feuchte:Taupunkt:
Aussen-T/F 1101 25-02-2004 03:52:00 1.2 C 69 % -3.84 C
1102 25-02-2004 04:04:00 1 C 72 % -3.47 C
1103 25-02-2004 04:16:59 0.7 C 75 % -3.21 C
1104 25-02-2004 04:28:59 0.7 C 76 % -3.03 C
1105 25-02-2004 04:40:58 0.7 C 76 % -3.03 C
1106 25-02-2004 04:52:00 0.7 C 75 % -3.21 C
1107 25-02-2004 05:04:00 0.6 C 77 % -2.96 C
1108 25-02-2004 05:16:00 0.6 C 77 % -2.96 C
1109 25-02-2004 05:28:00 0.5 C 78 % -2.88 C
1110 25-02-2004 05:40:00 0.5 C 79 % -2.71 C
1111 25-02-2004 05:52:01 0.4 C 79 % -2.81 C
1112 25-02-2004 06:04:01 0.5 C 79 % -2.71 C
1113 25-02-2004 06:16:01 0.5 C 79 % -2.71 C
1114 25-02-2004 06:28:01 0.5 C 79 % -2.71 C
1115 25-02-2004 06:40:01 0.6 C 79 % -2.61 C
1116 25-02-2004 06:52:00 0.5 C 80 % -2.54 C
1117 25-02-2004 07:04:00 0.4 C 81 % -2.47 C
1118 25-02-2004 07:16:58 0.4 C 82 % -2.3 C
1119 25-02-2004 07:28:58 0.4 C 82 % -2.3 C
1120 25-02-2004 07:40:57 0.4 C 82 % -2.3 C
1121 25-02-2004 07:52:01 0.5 C 82 % -2.21 C
1122 25-02-2004 08:04:01 0.5 C 82 % -2.21 C
1123 25-02-2004 08:16:01 0.4 C 83 % -2.14 C
1124 25-02-2004 08:28:01 0.4 C 83 % -2.14 C
1125 25-02-2004 08:40:01 0.4 C 84 % -1.98 C
Sensor: Nr:Datum:Temp:Feuchte:Taupunkt:
Aussen-T/F 1126 25-02-2004 08:52:00 0.4 C 84 % -1.98 C
1127 25-02-2004 09:04:59 0.4 C 84 % -1.98 C
1128 25-02-2004 09:16:58 0.5 C 84 % -1.88 C
1129 25-02-2004 09:28:58 0.6 C 84 % -1.78 C
1130 25-02-2004 09:40:57 0.8 C 82 % -1.91 C
1131 25-02-2004 09:52:01 1 C 81 % -1.88 C
1132 25-02-2004 10:04:01 1.2 C 80 % -1.86 C
1133 25-02-2004 10:16:01 1.5 C 80 % -1.57 C
1134 25-02-2004 10:28:01 1.6 C 80 % -1.47 C
1135 25-02-2004 10:40:00 1.9 C 79 % -1.35 C
1136 25-02-2004 10:52:01 2.2 C 77 % -1.4 C
1137 25-02-2004 11:04:01 2.2 C 75 % -1.76 C
1138 25-02-2004 11:16:01 2.6 C 74 % -1.56 C
1139 25-02-2004 11:28:01 3 C 71 % -1.73 C
1140 25-02-2004 11:40:01 3.7 C 68 % -1.64 C
1141 25-02-2004 11:52:00 3.6 C 65 % -2.35 C
1142 25-02-2004 12:04:00 3.4 C 66 % -2.33 C
1143 25-02-2004 12:16:59 3.7 C 64 % -2.46 C
1144 25-02-2004 12:28:59 3.8 C 64 % -2.37 C
1145 25-02-2004 12:40:58 3.8 C 63 % -2.58 C
1146 25-02-2004 12:52:01 3.8 C 63 % -2.58 C
1147 25-02-2004 13:04:00 3.8 C 61 % -3.01 C
1148 25-02-2004 13:16:00 3.6 C 62 % -2.98 C
1149 25-02-2004 13:28:00 3.7 C 64 % -2.46 C
1150 25-02-2004 13:40:00 4.4 C 61 % -2.45 C
Sensor: Nr:Datum:Temp:Feuchte:Taupunkt:
Aussen-T/F 1151 25-02-2004 13:52:01 5 C 56 % -3.03 C
1152 25-02-2004 14:04:01 5 C 54 % -3.52 C
1153 25-02-2004 14:16:01 4.6 C 54 % -3.89 C
1154 25-02-2004 14:28:01 4.4 C 55 % -3.83 C
1155 25-02-2004 14:40:01 4.3 C 54 % -4.17 C
1156 25-02-2004 14:52:01 4.1 C 55 % -4.11 C
1157 25-02-2004 15:04:01 4.2 C 55 % -4.02 C
1158 25-02-2004 15:16:01 4 C 55 % -4.21 C
1159 25-02-2004 15:28:01 3.7 C 57 % -4.01 C
1160 25-02-2004 15:40:01 3.4 C 60 % -3.61 C
1161 25-02-2004 15:52:00 3.1 C 63 % -3.24 C
1162 25-02-2004 16:04:00 3.3 C 67 % -2.23 C
1163 25-02-2004 16:16:58 1.1 C 72 % -3.37 C
1164 25-02-2004 16:28:58 0.8 C 78 % -2.59 C
1165 25-02-2004 16:40:57 0.7 C 79 % -2.51 C
1166 25-02-2004 16:52:01 0.7 C 79 % -2.51 C
1167 25-02-2004 17:04:01 0.6 C 80 % -2.44 C
1168 25-02-2004 17:16:01 0.7 C 80 % -2.34 C
1169 25-02-2004 17:28:01 0.7 C 80 % -2.34 C
1170 25-02-2004 17:40:01 0.7 C 80 % -2.34 C
1171 25-02-2004 17:52:00 0.6 C 80 % -2.44 C
1172 25-02-2004 18:04:00 0.6 C 80 % -2.44 C
1173 25-02-2004 18:16:59 0.7 C 80 % -2.34 C
1174 25-02-2004 18:28:59 0.7 C 81 % -2.18 C
1175 25-02-2004 18:40:58 0.5 C 80 % -2.54 C
Sensor: Nr:Datum:Temp:Feuchte:Taupunkt:
Aussen-T/F 1176 25-02-2004 18:52:01 0.3 C 81 % -2.57 C
1177 25-02-2004 19:04:02 0.3 C 81 % -2.57 C
1178 25-02-2004 19:16:01 0.1 C 81 % -2.76 C
1179 25-02-2004 19:28:01 0.1 C 82 % -2.6 C
1180 25-02-2004 19:40:01 0.1 C 81 % -2.76 C
1181 25-02-2004 19:52:00 0.1 C 81 % -2.76 C
1182 25-02-2004 20:04:00 0.1 C 81 % -2.76 C
1183 25-02-2004 20:16:58 0 C 81 % -2.86 C
1184 25-02-2004 20:28:58 0 C 81 % -2.86 C
1185 25-02-2004 20:40:57 0 C 81 % -2.86 C
1186 25-02-2004 20:52:01 0 C 81 % -2.86 C
1187 25-02-2004 21:04:01 0.1 C 81 % -2.76 C
1188 25-02-2004 21:16:01 0 C 81 % -2.86 C
1189 25-02-2004 21:28:01 -0.1 C 81 % -2.96 C
1190 25-02-2004 21:40:01 -0.1 C 81 % -2.96 C
1191 25-02-2004 21:52:00 0 C 80 % -3.03 C
1192 25-02-2004 22:04:59 0 C 80 % -3.03 C
1193 25-02-2004 22:16:58 0 C 80 % -3.03 C
1194 25-02-2004 22:28:58 0.1 C 80 % -2.93 C
1195 25-02-2004 22:40:57 0 C 79 % -3.2 C
1196 25-02-2004 22:52:01 0.1 C 79 % -3.1 C
1197 25-02-2004 23:04:01 0 C 78 % -3.37 C
1198 25-02-2004 23:16:01 0 C 78 % -3.37 C
1199 25-02-2004 23:28:01 0 C 80 % -3.03 C
1200 25-02-2004 23:40:01 0 C 80 % -3.03 C
Sensor: Nr:Datum:Temp:Feuchte:Taupunkt:
Aussen-T/F 1201 25-02-2004 23:52:01 0 C 81 % -2.86 C
1202 26-02-2004 00:04:01 -0.1 C 79 % -3.3 C
1203 26-02-2004 00:16:01 -0.1 C 79 % -3.3 C
1204 26-02-2004 00:28:01 -0.1 C 80 % -3.13 C
1205 26-02-2004 00:40:01 -0.1 C 80 % -3.13 C
1206 26-02-2004 00:52:01 -0.1 C 80 % -3.13 C
1207 26-02-2004 01:04:00 -0.1 C 80 % -3.13 C
1208 26-02-2004 01:16:58 -0.1 C 79 % -3.3 C
1209 26-02-2004 01:28:58 -0.1 C 79 % -3.3 C
1210 26-02-2004 01:40:57 -0.2 C 79 % -3.39 C
1211 26-02-2004 01:52:01 -0.2 C 79 % -3.39 C
1212 26-02-2004 02:04:01 -0.3 C 78 % -3.66 C
1213 26-02-2004 02:16:01 -0.3 C 77 % -3.83 C
1214 26-02-2004 02:28:01 -0.4 C 77 % -3.93 C
1215 26-02-2004 02:40:01 -0.6 C 76 % -4.3 C
1216 26-02-2004 02:53:02 -0.7 C 76 % -4.4 C
1217 26-02-2004 03:05:02 -1.1 C 76 % -4.78 C
1218 26-02-2004 03:17:02 -1.3 C 76 % -4.98 C
1219 26-02-2004 03:29:02 -1.4 C 76 % -5.07 C
1220 26-02-2004 03:41:00 -1.5 C 77 % -5 C
1221 26-02-2004 03:53:00 -1.6 C 77 % -5.1 C
1222 26-02-2004 04:05:00 -1.9 C 76 % -5.56 C
1223 26-02-2004 04:17:59 -2.1 C 76 % -5.75 C
1224 26-02-2004 04:29:59 -2.1 C 77 % -5.58 C
1225 26-02-2004 04:41:57 -1.8 C 77 % -5.29 C
Sensor: Nr:Datum:Temp:Feuchte:Taupunkt:
Aussen-T/F 1226 26-02-2004 04:53:01 -1.7 C 77 % -5.19 C
1227 26-02-2004 05:05:01 -1.6 C 76 % -5.27 C
1228 26-02-2004 05:17:01 -1.6 C 76 % -5.27 C
1229 26-02-2004 05:29:01 -1.6 C 76 % -5.27 C
1230 26-02-2004 05:41:01 -1.5 C 76 % -5.17 C
1231 26-02-2004 05:53:00 -1.6 C 76 % -5.27 C
1232 26-02-2004 06:04:59 -1.6 C 76 % -5.27 C
1233 26-02-2004 06:17:58 -1.7 C 76 % -5.36 C
1234 26-02-2004 06:29:58 -1.7 C 76 % -5.36 C
1235 26-02-2004 06:41:57 -1.7 C 76 % -5.36 C
1236 26-02-2004 06:53:01 -1.9 C 75 % -5.73 C
1237 26-02-2004 07:05:01 -2.1 C 75 % -5.93 C
1238 26-02-2004 07:17:01 -2.5 C 74 % -6.49 C
1239 26-02-2004 07:29:01 -2.6 C 74 % -6.58 C
1240 26-02-2004 07:41:01 -2.6 C 75 % -6.41 C
1241 26-02-2004 07:53:01 -2.3 C 75 % -6.12 C
1242 26-02-2004 08:05:01 -2 C 74 % -6 C
1243 26-02-2004 08:17:01 -1.8 C 71 % -6.35 C
1244 26-02-2004 08:29:01 -1.9 C 70 % -6.63 C
1245 26-02-2004 08:41:01 -2.1 C 70 % -6.83 C
1246 26-02-2004 08:53:00 -2.2 C 70 % -6.92 C
1247 26-02-2004 09:05:00 -2.4 C 71 % -6.93 C
1248 26-02-2004 09:17:58 -2.2 C 69 % -7.11 C
1249 26-02-2004 09:29:58 -2 C 68 % -7.11 C
1250 26-02-2004 09:41:57 -1.9 C 68 % -7.01 C
Sensor: Nr:Datum:Temp:Feuchte:Taupunkt:
Aussen-T/F 1251 26-02-2004 09:53:01 -1.7 C 68 % -6.82 C
1252 26-02-2004 10:05:01 -1.4 C 68 % -6.53 C
1253 26-02-2004 10:17:01 -1.1 C 67 % -6.44 C
1254 26-02-2004 10:29:01 -1.1 C 66 % -6.63 C
1255 26-02-2004 10:41:01 -0.9 C 64 % -6.84 C
1256 26-02-2004 10:53:00 -0.6 C 60 % -7.39 C
1257 26-02-2004 11:05:59 -0.4 C 60 % -7.2 C
1258 26-02-2004 11:17:58 -0.3 C 60 % -7.11 C
1259 26-02-2004 11:29:58 -0.1 C 57 % -7.58 C
1260 26-02-2004 11:41:57 0.1 C 56 % -7.61 C
1261 26-02-2004 11:53:01 0.1 C 53 % -8.32 C
1262 26-02-2004 12:05:01 0.4 C 52 % -8.29 C
1263 26-02-2004 12:17:01 0.4 C 52 % -8.29 C
1264 26-02-2004 12:29:01 0.5 C 51 % -8.44 C
1265 26-02-2004 12:41:00 1.1 C 50 % -8.14 C
1266 26-02-2004 12:53:01 1.5 C 47 % -8.56 C
1267 26-02-2004 13:05:01 1.7 C 45 % -8.93 C
1268 26-02-2004 13:17:01 2 C 45 % -8.66 C
1269 26-02-2004 13:29:01 2.2 C 45 % -8.48 C
1270 26-02-2004 13:41:01 2.6 C 42 % -8.99 C
1271 26-02-2004 13:53:00 2.7 C 44 % -8.31 C
1272 26-02-2004 14:05:00 3.2 C 41 % -8.76 C
1273 26-02-2004 14:17:58 3.3 C 42 % -8.36 C
1274 26-02-2004 14:29:58 3.1 C 41 % -8.85 C
1275 26-02-2004 14:41:57 3.3 C 41 % -8.67 C
Sensor: Nr:Datum:Temp:Feuchte:Taupunkt:
Aussen-T/F 1276 26-02-2004 14:53:01 3.4 C 41 % -8.58 C
1277 26-02-2004 15:05:01 3.4 C 40 % -8.89 C
1278 26-02-2004 15:17:01 2.6 C 41 % -9.3 C
1279 26-02-2004 15:29:01 2.4 C 43 % -8.88 C
1280 26-02-2004 15:41:01 2.6 C 44 % -8.4 C
1281 26-02-2004 15:53:01 2.6 C 45 % -8.11 C
1282 26-02-2004 16:05:01 2.7 C 45 % -8.02 C
1283 26-02-2004 16:17:01 2.1 C 46 % -8.29 C
1284 26-02-2004 16:29:01 1.7 C 51 % -7.33 C
1285 26-02-2004 16:41:01 1.5 C 52 % -7.27 C
1286 26-02-2004 16:53:00 1.3 C 54 % -6.96 C
1287 26-02-2004 17:05:00 1.1 C 60 % -5.78 C
1288 26-02-2004 17:17:59 1.2 C 60 % -5.69 C
1289 26-02-2004 17:29:59 1.2 C 61 % -5.47 C
1290 26-02-2004 17:41:57 1.1 C 62 % -5.35 C
1291 26-02-2004 17:53:01 1.1 C 63 % -5.14 C
1292 26-02-2004 18:05:01 1.2 C 62 % -5.26 C
1293 26-02-2004 18:17:01 0.7 C 67 % -4.71 C
1294 26-02-2004 18:29:01 0.5 C 70 % -4.32 C
1295 26-02-2004 18:41:01 0.5 C 68 % -4.71 C
1296 26-02-2004 18:53:00 0.5 C 66 % -5.1 C
1297 26-02-2004 19:04:59 0.6 C 63 % -5.61 C
1298 26-02-2004 19:17:58 0.6 C 61 % -6.04 C
1299 26-02-2004 19:29:58 0.7 C 60 % -6.16 C
1300 26-02-2004 19:41:57 0.8 C 59 % -6.28 C
Sensor: Nr:Datum:Temp:Feuchte:Taupunkt:
Aussen-T/F 1301 26-02-2004 19:53:01 0.8 C 58 % -6.5 C
1302 26-02-2004 20:05:01 0.6 C 59 % -6.47 C
1303 26-02-2004 20:17:01 0.5 C 60 % -6.35 C
1304 26-02-2004 20:29:01 0.4 C 60 % -6.44 C
1305 26-02-2004 20:41:01 0.2 C 61 % -6.41 C
1306 26-02-2004 20:53:01 0 C 61 % -6.6 C
1307 26-02-2004 21:05:01 -0.2 C 61 % -6.8 C
1308 26-02-2004 21:17:01 -0.3 C 62 % -6.68 C
1309 26-02-2004 21:29:01 -0.4 C 63 % -6.57 C
1310 26-02-2004 21:41:01 -0.7 C 64 % -6.65 C
1311 26-02-2004 21:53:00 -1 C 66 % -6.54 C
1312 26-02-2004 22:05:00 -1.1 C 67 % -6.44 C
1313 26-02-2004 22:17:58 -1.2 C 66 % -6.73 C
1314 26-02-2004 22:29:58 -1.4 C 66 % -6.92 C
1315 26-02-2004 22:41:57 -1.7 C 66 % -7.2 C
1316 26-02-2004 22:53:01 -1.7 C 67 % -7.01 C
1317 26-02-2004 23:05:01 -1.9 C 68 % -7.01 C
1318 26-02-2004 23:17:01 -1.9 C 68 % -7.01 C
1319 26-02-2004 23:29:01 -2 C 68 % -7.11 C
1320 26-02-2004 23:41:01 -2.1 C 67 % -7.39 C
1321 26-02-2004 23:53:00 -2.2 C 68 % -7.3 C
1322 27-02-2004 00:05:59 -2.1 C 67 % -7.39 C
1323 27-02-2004 00:17:58 -2.2 C 66 % -7.68 C
1324 27-02-2004 00:29:58 -2.3 C 66 % -7.78 C
1325 27-02-2004 00:41:57 -2.2 C 65 % -7.88 C
Sensor: Nr:Datum:Temp:Feuchte:Taupunkt:
Aussen-T/F 1326 27-02-2004 00:53:01 -2.3 C 65 % -7.97 C
1327 27-02-2004 01:05:01 -2.3 C 66 % -7.78 C
1328 27-02-2004 01:17:01 -2.6 C 66 % -8.06 C
1329 27-02-2004 01:29:01 -2.7 C 66 % -8.16 C
1330 27-02-2004 01:41:00 -2.6 C 65 % -8.26 C
1331 27-02-2004 01:53:01 -2.8 C 65 % -8.45 C
1332 27-02-2004 02:05:01 -3.1 C 66 % -8.54 C
1333 27-02-2004 02:17:01 -3.4 C 67 % -8.64 C
1334 27-02-2004 02:29:01 -3.5 C 68 % -8.54 C
1335 27-02-2004 02:41:01 -3.7 C 69 % -8.55 C
1336 27-02-2004 02:54:01 -3.9 C 69 % -8.74 C
1337 27-02-2004 03:06:01 -3.7 C 70 % -8.36 C
1338 27-02-2004 03:18:00 -3.5 C 70 % -8.17 C
1339 27-02-2004 03:30:00 -3.8 C 69 % -8.64 C
1340 27-02-2004 03:42:01 -3.9 C 69 % -8.74 C
1341 27-02-2004 03:54:01 -4.1 C 70 % -8.75 C
1342 27-02-2004 04:06:00 -4 C 68 % -9.02 C
1343 27-02-2004 04:18:00 -4.1 C 68 % -9.12 C
1344 27-02-2004 04:30:00 -4.1 C 69 % -8.93 C
1345 27-02-2004 04:42:00 -4.3 C 69 % -9.12 C
1346 27-02-2004 04:54:01 -4.5 C 69 % -9.31 C
1347 27-02-2004 05:06:01 -4.8 C 70 % -9.42 C
1348 27-02-2004 05:18:01 -5 C 70 % -9.61 C
1349 27-02-2004 05:30:01 -5.1 C 71 % -9.53 C
1350 27-02-2004 05:42:01 -5.2 C 72 % -9.45 C
Sensor: Nr:Datum:Temp:Feuchte:Taupunkt:
Aussen-T/F 1351 27-02-2004 05:54:01 -5.3 C 72 % -9.54 C
1352 27-02-2004 06:06:01 -5.6 C 72 % -9.83 C
1353 27-02-2004 06:18:01 -5.7 C 72 % -9.93 C
1354 27-02-2004 06:30:01 -5.5 C 72 % -9.74 C
1355 27-02-2004 06:42:01 -5.3 C 72 % -9.54 C
1356 27-02-2004 06:54:00 -5.5 C 71 % -9.91 C
1357 27-02-2004 07:06:00 -5.8 C 71 % -10.2 C
1358 27-02-2004 07:18:59 -5.8 C 71 % -10.2 C
1359 27-02-2004 07:30:57 -5.8 C 71 % -10.2 C
1360 27-02-2004 07:42:57 -5.8 C 72 % -10.03 C
1361 27-02-2004 07:54:01 -5.8 C 72 % -10.03 C
1362 27-02-2004 08:06:01 -5.8 C 72 % -10.03 C
1363 27-02-2004 08:18:01 -5.7 C 73 % -9.75 C
1364 27-02-2004 08:30:01 -5.5 C 73 % -9.56 C
1365 27-02-2004 08:42:01 -5.3 C 72 % -9.54 C
1366 27-02-2004 08:54:00 -5.1 C 71 % -9.53 C
1367 27-02-2004 09:06:59 -5 C 70 % -9.61 C
1368 27-02-2004 09:18:58 -4.5 C 68 % -9.5 C
1369 27-02-2004 09:30:57 -4 C 67 % -9.21 C
1370 27-02-2004 09:42:57 -3.7 C 66 % -9.11 C
1371 27-02-2004 09:54:01 -3.4 C 65 % -9.02 C
1372 27-02-2004 10:06:01 -3 C 64 % -8.84 C
1373 27-02-2004 10:18:01 -2.5 C 64 % -8.36 C
1374 27-02-2004 10:30:01 -2.1 C 63 % -8.19 C
1375 27-02-2004 10:42:00 -1.6 C 61 % -8.13 C
Sensor: Nr:Datum:Temp:Feuchte:Taupunkt:
Aussen-T/F 1376 27-02-2004 10:54:01 -1.2 C 59 % -8.18 C
1377 27-02-2004 11:06:01 -0.8 C 57 % -8.24 C
1378 27-02-2004 11:18:01 -0.6 C 56 % -8.28 C
1379 27-02-2004 11:30:01 -0.4 C 56 % -8.09 C
1380 27-02-2004 11:42:01 0 C 57 % -7.48 C
1381 27-02-2004 11:54:00 0.1 C 55 % -7.85 C
1382 27-02-2004 12:06:00 0.4 C 50 % -8.79 C
1383 27-02-2004 12:18:58 0.5 C 48 % -9.21 C
1384 27-02-2004 12:30:57 0.4 C 47 % -9.57 C
1385 27-02-2004 12:42:57 1.2 C 45 % -9.39 C
1386 27-02-2004 12:54:01 1.8 C 43 % -9.42 C
1387 27-02-2004 13:06:01 2.2 C 39 % -10.29 C
1388 27-02-2004 13:18:01 2.3 C 41 % -9.57 C
1389 27-02-2004 13:30:01 2.1 C 41 % -9.75 C
1390 27-02-2004 13:42:01 2.7 C 42 % -8.9 C
1391 27-02-2004 13:54:01 3 C 37 % -10.24 C
1392 27-02-2004 14:06:01 3.1 C 37 % -10.15 C
1393 27-02-2004 14:18:01 2.6 C 40 % -9.61 C
1394 27-02-2004 14:30:01 2.5 C 39 % -10.02 C
1395 27-02-2004 14:42:01 2.4 C 39 % -10.11 C
1396 27-02-2004 14:54:00 2.6 C 40 % -9.61 C
1397 27-02-2004 15:06:00 3.1 C 38 % -9.81 C
1398 27-02-2004 15:18:59 2.7 C 38 % -10.17 C
1399 27-02-2004 15:30:57 2.3 C 39 % -10.2 C
1400 27-02-2004 15:42:57 2 C 41 % -9.84 C
Sensor: Nr:Datum:Temp:Feuchte:Taupunkt:
Aussen-T/F 1401 27-02-2004 15:54:01 1.6 C 46 % -8.75 C
1402 27-02-2004 16:06:01 1.4 C 50 % -7.86 C
1403 27-02-2004 16:18:01 1 C 56 % -6.77 C
1404 27-02-2004 16:30:01 1.1 C 56 % -6.68 C
1405 27-02-2004 16:42:01 1 C 58 % -6.32 C
1406 27-02-2004 16:54:00 0.5 C 59 % -6.56 C
1407 27-02-2004 17:06:00 0.6 C 60 % -6.25 C
1408 27-02-2004 17:18:59 0.7 C 60 % -6.16 C
1409 27-02-2004 17:30:58 0.7 C 58 % -6.6 C
1410 27-02-2004 17:42:58 0.8 C 58 % -6.5 C
1411 27-02-2004 17:54:01 0.9 C 58 % -6.41 C
1412 27-02-2004 18:06:01 0.7 C 57 % -6.82 C
1413 27-02-2004 18:18:01 0.6 C 57 % -6.92 C
1414 27-02-2004 18:30:01 0.5 C 57 % -7.01 C
1415 27-02-2004 18:42:01 0.4 C 59 % -6.66 C
1416 27-02-2004 18:54:00 0.1 C 60 % -6.72 C
1417 27-02-2004 19:06:00 -0.3 C 60 % -7.11 C
1418 27-02-2004 19:18:59 -0.6 C 62 % -6.97 C
1419 27-02-2004 19:30:57 -0.9 C 63 % -7.05 C
1420 27-02-2004 19:42:57 -0.9 C 62 % -7.25 C
1421 27-02-2004 19:54:01 -1.1 C 61 % -7.65 C
1422 27-02-2004 20:06:01 -1.1 C 61 % -7.65 C
1423 27-02-2004 20:18:01 -1.1 C 60 % -7.87 C
1424 27-02-2004 20:30:01 -1.1 C 58 % -8.3 C
1425 27-02-2004 20:42:01 -0.8 C 55 % -8.7 C
Sensor: Nr:Datum:Temp:Feuchte:Taupunkt:
Aussen-T/F 1426 27-02-2004 20:54:00 -0.5 C 52 % -9.14 C
1427 27-02-2004 21:06:00 -0.7 C 51 % -9.57 C
1428 27-02-2004 21:18:59 -0.8 C 51 % -9.66 C
1429 27-02-2004 21:30:58 -0.9 C 51 % -9.75 C
1430 27-02-2004 21:42:58 -1.2 C 52 % -9.79 C
1431 27-02-2004 21:54:01 -1.6 C 55 % -9.45 C
1432 27-02-2004 22:06:00 -1.7 C 56 % -9.31 C
1433 27-02-2004 22:18:00 -1.9 C 57 % -9.28 C
1434 27-02-2004 22:30:00 -1.8 C 59 % -8.74 C
1435 27-02-2004 22:42:00 -1.5 C 58 % -8.68 C
1436 27-02-2004 22:54:01 -1.4 C 58 % -8.58 C
1437 27-02-2004 23:06:01 -1.1 C 58 % -8.3 C
1438 27-02-2004 23:18:01 -1.1 C 60 % -7.87 C
1439 27-02-2004 23:30:01 -1 C 59 % -7.99 C
1440 27-02-2004 23:42:00 -1.1 C 60 % -7.87 C
1441 27-02-2004 23:54:01 -1.4 C 60 % -8.15 C
1442 28-02-2004 00:06:01 -1.5 C 61 % -8.03 C
1443 28-02-2004 00:18:01 -1.4 C 60 % -8.15 C
1444 28-02-2004 00:30:01 -1.4 C 60 % -8.15 C
1445 28-02-2004 00:42:01 -1.4 C 60 % -8.15 C
1446 28-02-2004 00:54:00 -1.4 C 60 % -8.15 C
1447 28-02-2004 01:06:00 -1.3 C 59 % -8.27 C
1448 28-02-2004 01:18:58 -1.2 C 56 % -8.84 C
1449 28-02-2004 01:30:57 -1.4 C 57 % -8.81 C
1450 28-02-2004 01:42:57 -1.6 C 57 % -8.99 C
Sensor: Nr:Datum:Temp:Feuchte:Taupunkt:
Aussen-T/F 1451 28-02-2004 01:54:01 -1.7 C 56 % -9.31 C
1452 28-02-2004 02:06:01 -2 C 57 % -9.37 C
1453 28-02-2004 02:18:01 -2.4 C 59 % -9.31 C
1454 28-02-2004 02:30:01 -2.5 C 58 % -9.62 C
1455 28-02-2004 02:42:01 -2.7 C 58 % -9.81 C
1456 28-02-2004 02:55:03 -2.9 C 60 % -9.57 C
1457 28-02-2004 03:07:03 -2.8 C 59 % -9.68 C
1458 28-02-2004 03:19:03 -2.6 C 60 % -9.28 C
1459 28-02-2004 03:31:00 -2.6 C 60 % -9.28 C
1460 28-02-2004 03:43:00 -2.7 C 61 % -9.17 C
1461 28-02-2004 03:55:00 -2.7 C 62 % -8.96 C
1462 28-02-2004 04:07:00 -2.7 C 62 % -8.96 C
1463 28-02-2004 04:19:59 -2.7 C 61 % -9.17 C
1464 28-02-2004 04:31:58 -2.8 C 62 % -9.05 C
1465 28-02-2004 04:43:58 -2.8 C 61 % -9.26 C
1466 28-02-2004 04:55:01 -2.7 C 59 % -9.59 C
1467 28-02-2004 05:07:01 -2.7 C 59 % -9.59 C
1468 28-02-2004 05:19:00 -2.8 C 60 % -9.47 C
1469 28-02-2004 05:31:00 -2.5 C 59 % -9.4 C
1470 28-02-2004 05:43:00 -2.5 C 59 % -9.4 C
1471 28-02-2004 05:55:01 -2.6 C 60 % -9.28 C
1472 28-02-2004 06:07:01 -2.1 C 59 % -9.02 C
1473 28-02-2004 06:19:01 -2.1 C 59 % -9.02 C
1474 28-02-2004 06:31:01 -2.2 C 59 % -9.12 C
1475 28-02-2004 06:43:01 -2.1 C 60 % -8.81 C
Sensor: Nr:Datum:Temp:Feuchte:Taupunkt:
Aussen-T/F 1476 28-02-2004 06:55:00 -2.1 C 60 % -8.81 C
1477 28-02-2004 07:07:59 -2 C 61 % -8.5 C
1478 28-02-2004 07:19:58 -1.9 C 61 % -8.41 C
1479 28-02-2004 07:31:57 -1.8 C 62 % -8.11 C
1480 28-02-2004 07:43:57 -1.8 C 62 % -8.11 C
1481 28-02-2004 07:55:01 -1.8 C 63 % -7.9 C
1482 28-02-2004 08:07:01 -1.9 C 64 % -7.79 C
1483 28-02-2004 08:19:01 -1.9 C 66 % -7.4 C
1484 28-02-2004 08:31:01 -1.8 C 67 % -7.11 C
1485 28-02-2004 08:43:01 -1.8 C 67 % -7.11 C
1486 28-02-2004 08:55:03 -1.7 C 66 % -7.2 C
1487 28-02-2004 09:07:01 -1.6 C 66 % -7.11 C
1488 28-02-2004 09:19:01 -1.2 C 66 % -6.73 C
1489 28-02-2004 09:31:01 -1 C 65 % -6.74 C
1490 28-02-2004 09:43:01 -0.9 C 65 % -6.64 C
1491 28-02-2004 09:55:00 -0.4 C 64 % -6.37 C
1492 28-02-2004 10:07:00 0 C 62 % -6.39 C
1493 28-02-2004 10:19:59 0.1 C 61 % -6.51 C
1494 28-02-2004 10:31:58 0.2 C 60 % -6.63 C
1495 28-02-2004 10:43:58 0.7 C 58 % -6.6 C
1496 28-02-2004 10:55:01 1 C 55 % -7.01 C
1497 28-02-2004 11:07:01 0.8 C 59 % -6.28 C
1498 28-02-2004 11:19:01 1.2 C 59 % -5.91 C
1499 28-02-2004 11:31:01 0.7 C 60 % -6.16 C
1500 28-02-2004 11:43:01 0.7 C 60 % -6.16 C
Sensor: Nr:Datum:Temp:Feuchte:Taupunkt:
Aussen-T/F 1501 28-02-2004 11:55:00 1.3 C 58 % -6.03 C
1502 28-02-2004 12:07:00 2.1 C 56 % -5.74 C
1503 28-02-2004 12:19:58 2.3 C 53 % -6.28 C
1504 28-02-2004 12:31:57 2.9 C 51 % -6.22 C
1505 28-02-2004 12:43:57 2.6 C 50 % -6.75 C
1506 28-02-2004 12:55:01 2.9 C 50 % -6.48 C
1507 28-02-2004 13:07:01 3.6 C 48 % -6.36 C
1508 28-02-2004 13:19:01 4.7 C 44 % -6.49 C
1509 28-02-2004 13:31:01 3.8 C 43 % -7.61 C
1510 28-02-2004 13:43:01 3.5 C 45 % -7.29 C
1511 28-02-2004 13:55:00 5.1 C 41 % -7.04 C
1512 28-02-2004 14:07:00 5.4 C 37 % -8.1 C
1513 28-02-2004 14:19:58 4.3 C 40 % -8.08 C
1514 28-02-2004 14:31:57 5 C 39 % -7.78 C
1515 28-02-2004 14:43:57 6 C 35 % -8.27 C
1516 28-02-2004 14:55:02 6.8 C 33 % -8.32 C
1517 28-02-2004 15:07:01 7.3 C 31 % -8.68 C
1518 28-02-2004 15:19:02 6.9 C 31 % -9.03 C
1519 28-02-2004 15:31:03 4.9 C 32 % -10.38 C
1520 28-02-2004 15:43:03 5 C 33 % -9.91 C
1521 28-02-2004 15:55:00 6.1 C 33 % -8.94 C
1522 28-02-2004 16:07:00 6.9 C 31 % -9.03 C
1523 28-02-2004 16:19:59 6.7 C 29 % -10.05 C
1524 28-02-2004 16:31:58 6.8 C 31 % -9.12 C
1525 28-02-2004 16:43:58 6.2 C 31 % -9.64 C
Sensor: Nr:Datum:Temp:Feuchte:Taupunkt:
Aussen-T/F 1526 28-02-2004 16:55:02 6.2 C 31 % -9.64 C
1527 28-02-2004 17:07:01 5.9 C 31 % -9.91 C
1528 28-02-2004 17:19:01 5.3 C 30 % -10.84 C
1529 28-02-2004 17:31:01 4.6 C 32 % -10.64 C
1530 28-02-2004 17:43:01 3.6 C 36 % -10.05 C
1531 28-02-2004 17:55:00 2.6 C 40 % -9.61 C
1532 28-02-2004 18:07:00 2.1 C 45 % -8.57 C
1533 28-02-2004 18:19:59 1.5 C 48 % -8.29 C
1534 28-02-2004 18:31:58 1 C 48 % -8.75 C
1535 28-02-2004 18:43:58 0.7 C 50 % -8.51 C
1536 28-02-2004 18:55:01 0.4 C 51 % -8.53 C
1537 28-02-2004 19:07:01 0.2 C 53 % -8.23 C
1538 28-02-2004 19:19:01 0 C 54 % -8.18 C
1539 28-02-2004 19:36:01 -0.3 C 55 % -8.23 C
1540 28-02-2004 19:48:01 -0.4 C 56 % -8.09 C
1541 28-02-2004 20:00:01 -0.6 C 56 % -8.28 C
1542 28-02-2004 20:12:00 -0.7 C 57 % -8.15 C
1543 28-02-2004 20:24:59 -1 C 56 % -8.66 C
1544 28-02-2004 20:36:58 -1.1 C 57 % -8.52 C
1545 28-02-2004 20:48:01 -1.3 C 57 % -8.71 C
1546 28-02-2004 21:00:01 -1.4 C 57 % -8.81 C
1547 28-02-2004 21:12:01 -1.6 C 58 % -8.77 C
1548 28-02-2004 21:24:01 -1.8 C 58 % -8.96 C
1549 28-02-2004 21:36:01 -2 C 59 % -8.93 C
1550 28-02-2004 21:48:00 -2.1 C 61 % -8.6 C
Sensor: Nr:Datum:Temp:Feuchte:Taupunkt:
Aussen-T/F 1551 28-02-2004 22:00:00 -2.2 C 60 % -8.9 C
1552 28-02-2004 22:12:00 -2.3 C 59 % -9.21 C
1553 28-02-2004 22:24:58 -2.5 C 59 % -9.4 C
1554 28-02-2004 22:36:57 -2.6 C 59 % -9.5 C
1555 28-02-2004 22:48:01 -2.8 C 60 % -9.47 C
1556 28-02-2004 23:00:01 -2.9 C 61 % -9.36 C
1557 28-02-2004 23:12:01 -3 C 61 % -9.45 C
1558 28-02-2004 23:24:01 -3.2 C 63 % -9.23 C
1559 28-02-2004 23:36:01 -3.4 C 62 % -9.62 C
1560 29-02-2004 00:00:00 -3.4 C 64 % -9.22 C
1561 29-02-2004 00:11:59 -3.7 C 63 % -9.71 C
1562 29-02-2004 00:24:58 -3.9 C 63 % -9.9 C
1563 29-02-2004 00:36:57 -3.9 C 64 % -9.7 C
1564 29-02-2004 00:48:36 -3.9 C 64 % -9.7 C
1565 29-02-2004 01:00:39 -4 C 64 % -9.79 C
1566 29-02-2004 01:12:39 -4.1 C 64 % -9.89 C
1567 29-02-2004 01:24:34 -4.1 C 65 % -9.69 C
1568 29-02-2004 01:36:37 -3.9 C 65 % -9.5 C
1569 29-02-2004 01:48:30 -4.2 C 65 % -9.79 C
1570 29-02-2004 02:00:33 -4.2 C 65 % -9.79 C
1571 29-02-2004 02:12:28 -4.3 C 65 % -9.88 C
1572 29-02-2004 02:24:31 -4.6 C 65 % -10.17 C
1573 29-02-2004 02:36:31 -4.8 C 66 % -10.16 C
1574 29-02-2004 02:58:04 -4.8 C 68 % -9.79 C
1575 29-02-2004 03:11:05 -4.9 C 68 % -9.88 C
Sensor: Nr:Datum:Temp:Feuchte:Taupunkt:
Aussen-T/F 1576 29-02-2004 03:23:05 -4.9 C 68 % -9.88 C
1577 29-02-2004 03:37:04 -5 C 68 % -9.98 C
1578 29-02-2004 03:49:04 -5 C 69 % -9.79 C
1579 29-02-2004 04:02:04 -5.1 C 69 % -9.89 C
1580 29-02-2004 04:14:04 -5.4 C 69 % -10.18 C
1581 29-02-2004 04:27:04 -5.6 C 69 % -10.37 C
1582 29-02-2004 04:40:04 -5.5 C 70 % -10.09 C
1583 29-02-2004 04:53:04 -5.6 C 70 % -10.19 C
1584 29-02-2004 05:01:15 -5.7 C 71 % -10.11 C
1585 29-02-2004 05:06:05 -5.7 C 70 % -10.29 C
1586 29-02-2004 05:13:18 -5.3 C 72 % -9.54 C
1587 29-02-2004 05:25:12 -4.8 C 71 % -9.24 C
1588 29-02-2004 05:37:12 -4.6 C 69 % -9.41 C
1589 29-02-2004 05:49:15 -4.7 C 68 % -9.69 C
1590 29-02-2004 06:01:09 -4.6 C 68 % -9.6 C
1591 29-02-2004 06:13:12 -4.4 C 68 % -9.4 C
1592 29-02-2004 06:25:53 -4.1 C 68 % -9.12 C
1593 29-02-2004 06:37:07 -3.9 C 67 % -9.11 C
1594 29-02-2004 06:49:07 -4 C 67 % -9.21 C
1595 29-02-2004 07:01:32 -3.9 C 67 % -9.11 C
1596 29-02-2004 07:13:46 -4.1 C 67 % -9.31 C
1597 29-02-2004 07:25:11 -4 C 68 % -9.02 C
1598 29-02-2004 07:37:11 -4.3 C 68 % -9.31 C
1599 29-02-2004 07:49:25 -4.6 C 69 % -9.41 C
1600 29-02-2004 08:01:49 -4.7 C 69 % -9.51 C
Sensor: Nr:Datum:Temp:Feuchte:Taupunkt:
Aussen-T/F 1601 29-02-2004 08:13:49 -4.8 C 70 % -9.42 C
1602 29-02-2004 08:25:03 -4.8 C 70 % -9.42 C
1603 29-02-2004 08:37:28 -4.7 C 70 % -9.32 C
1604 29-02-2004 08:49:42 -4.6 C 71 % -9.05 C
1605 29-02-2004 09:01:42 -4.4 C 71 % -8.85 C
1606 29-02-2004 09:13:06 -3.8 C 70 % -8.46 C
1607 29-02-2004 09:25:21 -3.4 C 69 % -8.26 C
1608 29-02-2004 09:37:45 -3.3 C 68 % -8.35 C
1609 29-02-2004 09:49:45 -3 C 69 % -7.88 C
1610 29-02-2004 10:01:59 -2.5 C 68 % -7.58 C
1611 29-02-2004 10:13:23 -2.2 C 63 % -8.28 C
1612 29-02-2004 10:25:37 -2 C 65 % -7.69 C
1613 29-02-2004 10:37:37 -1.6 C 64 % -7.51 C
1614 29-02-2004 10:49:02 -1.1 C 64 % -7.03 C
1615 29-02-2004 11:01:16 -0.6 C 62 % -6.97 C
1616 29-02-2004 11:13:41 0.2 C 58 % -7.07 C
1617 29-02-2004 11:25:41 0.8 C 56 % -6.96 C
1618 29-02-2004 11:37:00 1.3 C 54 % -6.96 C
1619 29-02-2004 11:49:02 0.9 C 53 % -7.58 C
1620 29-02-2004 12:01:01 0.9 C 53 % -7.58 C
1621 29-02-2004 12:13:01 0.6 C 53 % -7.86 C
1622 29-02-2004 12:25:01 0.6 C 53 % -7.86 C
1623 29-02-2004 12:37:02 0.8 C 52 % -7.92 C
1624 29-02-2004 12:49:00 1.4 C 51 % -7.61 C
1625 29-02-2004 13:01:00 1.9 C 50 % -7.4 C
Sensor: Nr:Datum:Temp:Feuchte:Taupunkt:
Aussen-T/F 1626 29-02-2004 13:13:00 2.2 C 48 % -7.65 C
1627 29-02-2004 13:25:59 3.2 C 46 % -7.28 C
1628 29-02-2004 13:37:58 3.8 C 42 % -7.91 C
1629 29-02-2004 13:49:01 3.8 C 42 % -7.91 C
1630 29-02-2004 14:01:01 4.2 C 38 % -8.83 C
1631 29-02-2004 14:13:01 3.5 C 39 % -9.12 C
1632 29-02-2004 14:25:01 3.3 C 41 % -8.67 C
1633 29-02-2004 14:37:01 3.2 C 43 % -8.15 C
1634 29-02-2004 14:49:00 3.9 C 39 % -8.77 C
1635 29-02-2004 15:01:00 4.6 C 36 % -9.16 C
1636 29-02-2004 15:13:00 5.2 C 35 % -8.98 C
1637 29-02-2004 15:25:58 4.7 C 35 % -9.43 C
1638 29-02-2004 15:37:57 5.5 C 34 % -9.09 C
1639 29-02-2004 15:49:01 4.6 C 35 % -9.52 C
1640 29-02-2004 16:01:01 5.2 C 34 % -9.35 C
1641 29-02-2004 16:13:01 4.5 C 35 % -9.6 C
1642 29-02-2004 16:25:01 4.7 C 35 % -9.43 C
1643 29-02-2004 16:37:01 5.2 C 35 % -8.98 C
1644 29-02-2004 16:49:00 5.2 C 32 % -10.12 C
1645 29-02-2004 17:01:00 5.2 C 32 % -10.12 C
1646 29-02-2004 17:13:00 5.5 C 34 % -9.09 C
1647 29-02-2004 17:25:58 4.7 C 41 % -7.4 C
1648 29-02-2004 17:37:57 3.4 C 48 % -6.55 C
1649 29-02-2004 17:49:03 3.2 C 50 % -6.2 C
1650 29-02-2004 18:01:01 2.5 C 50 % -6.85 C
Sensor: Nr:Datum:Temp:Feuchte:Taupunkt:
Aussen-T/F 1651 29-02-2004 18:13:01 2.2 C 48 % -7.65 C
1652 29-02-2004 18:25:01 1.8 C 50 % -7.49 C
1653 29-02-2004 18:37:01 1.5 C 52 % -7.27 C
1654 29-02-2004 18:49:00 1.1 C 54 % -7.15 C
1655 29-02-2004 19:01:59 0.8 C 56 % -6.96 C
1656 29-02-2004 19:13:59 0.6 C 56 % -7.15 C
1657 29-02-2004 19:25:58 0.3 C 59 % -6.75 C
1658 29-02-2004 19:37:57 0.1 C 60 % -6.72 C
1659 29-02-2004 19:49:01 0.3 C 60 % -6.53 C
1660 29-02-2004 20:01:01 0.2 C 60 % -6.63 C
1661 29-02-2004 20:13:01 0.1 C 61 % -6.51 C
1662 29-02-2004 20:25:01 -0.1 C 61 % -6.71 C
1663 29-02-2004 20:37:00 -0.3 C 62 % -6.68 C
1664 29-02-2004 20:49:01 -0.4 C 63 % -6.57 C
1665 29-02-2004 21:01:01 -0.6 C 65 % -6.35 C
1666 29-02-2004 21:13:01 -0.8 C 66 % -6.35 C
1667 29-02-2004 21:25:01 -0.9 C 66 % -6.44 C
1668 29-02-2004 21:37:01 -1 C 66 % -6.54 C
1669 29-02-2004 21:49:01 -1.1 C 66 % -6.63 C
1670 29-02-2004 22:01:00 -1.2 C 66 % -6.73 C
1671 29-02-2004 22:13:00 -1.2 C 66 % -6.73 C
1672 29-02-2004 22:25:58 -1.4 C 66 % -6.92 C
1673 29-02-2004 22:37:57 -1.5 C 66 % -7.01 C
1674 29-02-2004 22:49:01 -1.6 C 66 % -7.11 C
1675 29-02-2004 23:01:01 -1.6 C 65 % -7.31 C
Sensor: Nr:Datum:Temp:Feuchte:Taupunkt:
Aussen-T/F 1676 29-02-2004 23:13:01 -1.7 C 65 % -7.4 C
1677 29-02-2004 23:25:01 -1.7 C 65 % -7.4 C
1678 29-02-2004 23:37:01 -1.7 C 65 % -7.4 C
1679 29-02-2004 23:49:01 -1.8 C 65 % -7.5 C
1680 01-03-2004 00:01:00 -1.8 C 65 % -7.5 C
1681 01-03-2004 00:13:01 -1.8 C 64 % -7.7 C
1682 01-03-2004 00:25:00 -1.7 C 63 % -7.81 C
1683 01-03-2004 00:37:00 -1.8 C 64 % -7.7 C
1684 01-03-2004 00:49:00 -1.9 C 64 % -7.79 C
1685 01-03-2004 01:01:00 -2 C 64 % -7.89 C
1686 01-03-2004 01:13:00 -2 C 64 % -7.89 C
1687 01-03-2004 01:25:01 -2.2 C 63 % -8.28 C
1688 01-03-2004 01:37:01 -2.3 C 62 % -8.58 C
1689 01-03-2004 01:49:00 -2.3 C 61 % -8.79 C
1690 01-03-2004 02:01:00 -2.3 C 61 % -8.79 C
1691 01-03-2004 02:13:00 -2.6 C 62 % -8.86 C
1692 01-03-2004 02:25:00 -2.6 C 63 % -8.66 C
1693 01-03-2004 02:37:00 -2.8 C 63 % -8.85 C
1694 01-03-2004 02:50:03 -2.8 C 63 % -8.85 C
1695 01-03-2004 03:02:03 -3 C 64 % -8.84 C
1696 01-03-2004 03:14:03 -3.3 C 64 % -9.12 C
1697 01-03-2004 03:26:03 -3.3 C 65 % -8.93 C
1698 01-03-2004 03:37:59 -3.4 C 65 % -9.02 C
1699 01-03-2004 03:49:59 -3.4 C 65 % -9.02 C
1700 01-03-2004 04:02:59 -3.1 C 65 % -8.74 C
Sensor: Nr:Datum:Temp:Feuchte:Taupunkt:
Aussen-T/F 1701 01-03-2004 04:14:58 -3 C 64 % -8.84 C
1702 01-03-2004 04:26:58 -2.9 C 65 % -8.55 C
1703 01-03-2004 04:38:57 -2.9 C 65 % -8.55 C
1704 01-03-2004 04:50:01 -2.9 C 66 % -8.35 C
1705 01-03-2004 05:02:01 -3.2 C 66 % -8.64 C
1706 01-03-2004 05:14:01 -3.4 C 69 % -8.26 C
1707 01-03-2004 05:26:01 -3.5 C 69 % -8.36 C
1708 01-03-2004 05:38:00 -3.8 C 71 % -8.28 C
1709 01-03-2004 05:50:01 -3.8 C 72 % -8.1 C
1710 01-03-2004 06:02:01 -3.8 C 72 % -8.1 C
1711 01-03-2004 06:14:01 -3.9 C 72 % -8.19 C
1712 01-03-2004 06:26:01 -4 C 72 % -8.29 C
1713 01-03-2004 06:38:01 -4.1 C 73 % -8.21 C
1714 01-03-2004 06:50:00 -4.1 C 73 % -8.21 C
1715 01-03-2004 07:02:00 -4.4 C 72 % -8.68 C
1716 01-03-2004 07:14:00 -4.4 C 73 % -8.5 C
1717 01-03-2004 07:26:59 -4.2 C 73 % -8.31 C
1718 01-03-2004 07:38:58 -4.3 C 73 % -8.4 C
1719 01-03-2004 07:50:01 -4.2 C 73 % -8.31 C
1720 01-03-2004 08:02:00 -4.2 C 73 % -8.31 C
1721 01-03-2004 08:14:00 -4.1 C 73 % -8.21 C
1722 01-03-2004 08:26:01 -4.3 C 73 % -8.4 C
1723 01-03-2004 08:38:01 -4.2 C 73 % -8.31 C
1724 01-03-2004 08:50:01 -4.2 C 73 % -8.31 C
1725 01-03-2004 09:02:00 -3.9 C 72 % -8.19 C
Sensor: Nr:Datum:Temp:Feuchte:Taupunkt:
Aussen-T/F 1726 01-03-2004 09:14:00 -3.8 C 71 % -8.28 C
1727 01-03-2004 09:26:59 -3.5 C 71 % -7.99 C
1728 01-03-2004 09:38:58 -3.2 C 70 % -7.88 C
1729 01-03-2004 09:50:01 -2.8 C 69 % -7.68 C
1730 01-03-2004 10:02:01 -2.3 C 68 % -7.39 C
1731 01-03-2004 10:14:01 -1.9 C 65 % -7.59 C
1732 01-03-2004 10:26:01 -1.3 C 63 % -7.43 C
1733 01-03-2004 10:38:01 -0.9 C 61 % -7.46 C
1734 01-03-2004 10:50:00 -0.3 C 58 % -7.55 C
1735 01-03-2004 11:02:00 0.2 C 54 % -7.99 C
1736 01-03-2004 11:14:00 0.5 C 52 % -8.19 C
1737 01-03-2004 11:26:58 1.6 C 45 % -9.03 C
1738 01-03-2004 11:38:57 1.4 C 45 % -9.21 C
1739 01-03-2004 11:50:01 1.4 C 45 % -9.21 C
1740 01-03-2004 12:02:01 2.2 C 43 % -9.06 C
1741 01-03-2004 12:14:01 2 C 40 % -10.15 C
1742 01-03-2004 12:26:01 2.2 C 41 % -9.66 C
1743 01-03-2004 12:38:01 3 C 39 % -9.57 C
1744 01-03-2004 12:50:01 3.3 C 38 % -9.63 C
1745 01-03-2004 13:02:01 2.3 C 39 % -10.2 C
1746 01-03-2004 13:14:01 2.9 C 40 % -9.34 C
1747 01-03-2004 13:26:01 3 C 35 % -10.93 C
1748 01-03-2004 13:38:01 3.1 C 36 % -10.49 C
1749 01-03-2004 13:50:00 4.3 C 34 % -10.15 C
1750 01-03-2004 14:02:00 4.4 C 32 % -10.82 C
Sensor: Nr:Datum:Temp:Feuchte:Taupunkt:
Aussen-T/F 1751 01-03-2004 14:14:00 3.7 C 35 % -10.31 C
1752 01-03-2004 14:26:59 4 C 33 % -10.79 C
1753 01-03-2004 14:38:57 4.7 C 33 % -10.17 C
1754 01-03-2004 14:50:01 4 C 32 % -11.17 C
1755 01-03-2004 15:02:01 3.8 C 35 % -10.23 C
1756 01-03-2004 15:14:01 4.4 C 34 % -10.06 C
1757 01-03-2004 15:26:01 4.3 C 33 % -10.52 C
1758 01-03-2004 15:38:01 4.8 C 31 % -10.87 C
1759 01-03-2004 15:50:00 4.9 C 30 % -11.19 C
1760 01-03-2004 16:14:00 5.2 C 28 % -11.79 C
1761 01-03-2004 16:14:58 5.1 C 28 % -11.87 C
1762 01-03-2004 16:26:58 5.9 C 28 % -11.18 C
1763 01-03-2004 16:38:57 4.9 C 30 % -11.19 C
1764 01-03-2004 16:50:01 5.1 C 30 % -11.02 C
1765 01-03-2004 17:02:01 4.8 C 32 % -10.47 C
1766 01-03-2004 17:14:01 4.2 C 34 % -10.24 C
1767 01-03-2004 17:26:01 4 C 34 % -10.41 C
1768 01-03-2004 17:38:01 3.5 C 36 % -10.14 C
1769 01-03-2004 17:50:01 2.7 C 39 % -9.84 C
1770 01-03-2004 18:02:00 2.2 C 41 % -9.66 C
1771 01-03-2004 18:14:00 1.8 C 44 % -9.13 C
1772 01-03-2004 18:26:59 1.6 C 45 % -9.03 C
1773 01-03-2004 18:38:58 1.3 C 46 % -9.02 C
1774 01-03-2004 18:50:01 1.1 C 47 % -8.93 C
1775 01-03-2004 19:02:01 1 C 48 % -8.75 C
Sensor: Nr:Datum:Temp:Feuchte:Taupunkt:
Aussen-T/F 1776 01-03-2004 19:14:01 1 C 48 % -8.75 C
1777 01-03-2004 19:26:01 1 C 49 % -8.49 C
1778 01-03-2004 19:38:01 0.8 C 50 % -8.42 C
1779 01-03-2004 19:50:01 0.7 C 51 % -8.26 C
1780 01-03-2004 20:13:59 0.6 C 51 % -8.35 C
1781 01-03-2004 20:14:58 0.6 C 52 % -8.1 C
1782 01-03-2004 20:26:58 0.6 C 53 % -7.86 C
1783 01-03-2004 20:38:57 0.6 C 53 % -7.86 C
1784 01-03-2004 20:50:01 0.8 C 52 % -7.92 C
1785 01-03-2004 21:02:01 1 C 51 % -7.98 C
1786 01-03-2004 21:14:01 1 C 51 % -7.98 C
1787 01-03-2004 21:26:01 1.1 C 51 % -7.89 C
1788 01-03-2004 21:38:01 1.1 C 51 % -7.89 C
1789 01-03-2004 21:50:00 1.1 C 52 % -7.64 C
1790 01-03-2004 22:02:00 1 C 52 % -7.73 C
1791 01-03-2004 22:14:00 1 C 53 % -7.48 C
1792 01-03-2004 22:26:58 0.9 C 55 % -7.1 C
1793 01-03-2004 22:38:57 1 C 54 % -7.24 C
1794 01-03-2004 22:50:01 1 C 56 % -6.77 C
1795 01-03-2004 23:02:01 1 C 55 % -7.01 C
1796 01-03-2004 23:14:01 1 C 57 % -6.54 C
1797 01-03-2004 23:26:01 1 C 60 % -5.87 C
1798 01-03-2004 23:38:01 0.7 C 63 % -5.52 C
1799 01-03-2004 23:50:00 0.6 C 66 % -5 C
1800 02-03-2004 00:02:59 0.5 C 65 % -5.3 C
Sensor: Nr:Datum:Temp:Feuchte:Taupunkt:
Aussen-T/F 1801 02-03-2004 00:14:58 0.5 C 66 % -5.1 C
1802 02-03-2004 00:26:58 0.4 C 67 % -5 C
1803 02-03-2004 00:38:57 0.4 C 67 % -5 C
1804 02-03-2004 00:50:01 0.4 C 67 % -5 C
1805 02-03-2004 01:02:01 0.3 C 67 % -5.09 C
1806 02-03-2004 01:14:01 0.3 C 67 % -5.09 C
1807 02-03-2004 01:26:01 0.2 C 67 % -5.19 C
1808 02-03-2004 01:38:01 0.2 C 68 % -4.99 C
1809 02-03-2004 01:50:01 0.2 C 67 % -5.19 C
1810 02-03-2004 02:02:01 0.2 C 67 % -5.19 C
1811 02-03-2004 02:14:01 0.3 C 67 % -5.09 C
1812 02-03-2004 02:26:01 0.4 C 67 % -5 C
1813 02-03-2004 02:38:01 0.5 C 66 % -5.1 C
1814 02-03-2004 02:51:01 0.5 C 66 % -5.1 C
1815 02-03-2004 03:03:01 0.6 C 66 % -5 C
1816 02-03-2004 03:15:59 0.7 C 66 % -4.91 C
1817 02-03-2004 03:26:59 0.7 C 66 % -4.91 C
1818 02-03-2004 03:39:01 0.7 C 66 % -4.91 C
1819 02-03-2004 03:51:01 0.8 C 66 % -4.81 C
1820 02-03-2004 04:03:01 0.8 C 66 % -4.81 C
1821 02-03-2004 04:15:01 1 C 65 % -4.82 C
1822 02-03-2004 04:27:01 0.9 C 67 % -4.52 C
1823 02-03-2004 04:39:01 1.1 C 67 % -4.33 C
1824 02-03-2004 04:51:00 1.5 C 70 % -3.36 C
1825 02-03-2004 05:03:59 1.8 C 70 % -3.07 C
Sensor: Nr:Datum:Temp:Feuchte:Taupunkt:
Aussen-T/F 1826 02-03-2004 05:15:58 1.8 C 72 % -2.7 C
1827 02-03-2004 05:27:58 1.8 C 74 % -2.33 C
1828 02-03-2004 05:39:57 1.8 C 74 % -2.33 C
1829 02-03-2004 05:51:01 1.9 C 76 % -1.87 C
1830 02-03-2004 06:03:01 1.8 C 77 % -1.79 C
1831 02-03-2004 06:15:01 1.7 C 78 % -1.71 C
1832 02-03-2004 06:27:01 1.7 C 78 % -1.71 C
1833 02-03-2004 06:39:00 1.7 C 78 % -1.71 C
1834 02-03-2004 06:51:01 1.8 C 78 % -1.62 C
1835 02-03-2004 07:03:01 1.8 C 79 % -1.44 C
1836 02-03-2004 07:15:01 1.8 C 79 % -1.44 C
1837 02-03-2004 07:27:01 1.9 C 79 % -1.35 C
1838 02-03-2004 07:39:01 2 C 78 % -1.42 C
1839 02-03-2004 07:51:00 2 C 78 % -1.42 C
1840 02-03-2004 08:03:00 2.2 C 78 % -1.23 C
1841 02-03-2004 08:15:58 2.1 C 79 % -1.15 C
1842 02-03-2004 08:27:58 2.1 C 79 % -1.15 C
1843 02-03-2004 08:39:57 2.1 C 80 % -0.98 C
1844 02-03-2004 08:51:01 2.1 C 81 % -0.81 C
1845 02-03-2004 09:03:01 2.2 C 81 % -0.71 C
1846 02-03-2004 09:15:01 2.3 C 80 % -0.79 C
1847 02-03-2004 09:27:01 2.4 C 79 % -0.86 C
1848 02-03-2004 09:39:01 2.6 C 79 % -0.67 C
1849 02-03-2004 09:51:01 2.8 C 78 % -0.65 C
1850 02-03-2004 10:03:01 3 C 76 % -0.81 C
Sensor: Nr:Datum:Temp:Feuchte:Taupunkt:
Aussen-T/F 1851 02-03-2004 10:15:02 3 C 76 % -0.81 C
1852 02-03-2004 10:27:02 3.1 C 75 % -0.89 C
1853 02-03-2004 10:39:01 3.1 C 75 % -0.89 C
1854 02-03-2004 10:51:00 3.1 C 75 % -0.89 C
1855 02-03-2004 11:03:00 2.9 C 76 % -0.9 C
1856 02-03-2004 11:15:59 3 C 75 % -0.99 C
1857 02-03-2004 11:27:59 3 C 74 % -1.17 C
1858 02-03-2004 11:39:57 3.1 C 74 % -1.07 C
1859 02-03-2004 11:51:01 3.3 C 73 % -1.06 C
1860 02-03-2004 12:03:01 3.3 C 72 % -1.25 C
1861 02-03-2004 12:15:01 3.3 C 72 % -1.25 C
1862 02-03-2004 12:27:01 3.5 C 71 % -1.25 C
1863 02-03-2004 12:39:02 3.6 C 68 % -1.74 C
1864 02-03-2004 12:51:00 3.8 C 63 % -2.58 C
1865 02-03-2004 13:03:00 4 C 60 % -3.05 C
1866 02-03-2004 13:15:59 4.3 C 57 % -3.45 C
1867 02-03-2004 13:27:59 4.2 C 57 % -3.54 C
1868 02-03-2004 13:39:58 4.5 C 57 % -3.26 C
1869 02-03-2004 13:51:01 4.5 C 57 % -3.26 C
1870 02-03-2004 14:03:00 4.4 C 56 % -3.59 C
1871 02-03-2004 14:15:00 4.5 C 55 % -3.74 C
1872 02-03-2004 14:27:00 4.7 C 53 % -4.05 C
1873 02-03-2004 14:39:00 4.9 C 51 % -4.37 C
1874 02-03-2004 14:51:01 5 C 51 % -4.28 C
1875 02-03-2004 15:03:01 5.3 C 50 % -4.26 C
Sensor: Nr:Datum:Temp:Feuchte:Taupunkt:
Aussen-T/F 1876 02-03-2004 15:15:01 5.2 C 48 % -4.89 C
1877 02-03-2004 15:27:01 5.4 C 48 % -4.71 C
1878 02-03-2004 15:39:01 6 C 47 % -4.44 C
1879 02-03-2004 15:51:01 6.4 C 47 % -4.07 C
1880 02-03-2004 16:03:01 6.4 C 43 % -5.25 C
1881 02-03-2004 16:15:01 6.7 C 44 % -4.67 C
1882 02-03-2004 16:27:01 7 C 41 % -5.33 C
1883 02-03-2004 16:39:01 5.7 C 46 % -5 C
1884 02-03-2004 16:51:00 5.8 C 47 % -4.62 C
1885 02-03-2004 17:03:00 5.7 C 47 % -4.71 C
1886 02-03-2004 17:15:58 5.5 C 48 % -4.62 C
1887 02-03-2004 17:27:58 5.4 C 48 % -4.71 C
1888 02-03-2004 17:39:57 5.4 C 48 % -4.71 C
1889 02-03-2004 17:51:01 5.4 C 48 % -4.71 C
1890 02-03-2004 18:03:01 5.3 C 48 % -4.8 C
1891 02-03-2004 18:15:01 5 C 48 % -5.08 C
1892 02-03-2004 18:27:01 4.7 C 50 % -4.82 C
1893 02-03-2004 18:39:01 4.8 C 50 % -4.72 C
1894 02-03-2004 18:51:01 4.6 C 51 % -4.65 C
1895 02-03-2004 19:03:01 4.6 C 50 % -4.91 C
1896 02-03-2004 19:15:01 4.3 C 51 % -4.92 C
1897 02-03-2004 19:27:01 4.3 C 51 % -4.92 C
1898 02-03-2004 19:39:01 4.3 C 51 % -4.92 C
1899 02-03-2004 19:51:01 4.2 C 51 % -5.02 C
1900 02-03-2004 20:03:00 4.2 C 51 % -5.02 C
Sensor: Nr:Datum:Temp:Feuchte:Taupunkt:
Aussen-T/F 1901 02-03-2004 20:15:59 4 C 52 % -4.95 C
1902 02-03-2004 20:27:59 4 C 52 % -4.95 C
1903 02-03-2004 20:39:57 4 C 52 % -4.95 C
1904 02-03-2004 20:51:01 3.9 C 54 % -4.54 C
1905 02-03-2004 21:03:01 3.8 C 54 % -4.63 C
1906 02-03-2004 21:15:01 3.8 C 55 % -4.39 C
1907 02-03-2004 21:27:01 3.8 C 55 % -4.39 C
1908 02-03-2004 21:39:01 3.8 C 56 % -4.15 C
1909 02-03-2004 21:51:00 3.7 C 55 % -4.49 C
1910 02-03-2004 22:03:00 3.6 C 56 % -4.34 C
1911 02-03-2004 22:15:58 3.6 C 57 % -4.11 C
1912 02-03-2004 22:27:58 3.8 C 56 % -4.15 C
1913 02-03-2004 22:39:57 3.8 C 56 % -4.15 C
1914 02-03-2004 22:51:01 3.9 C 56 % -4.06 C
1915 02-03-2004 23:03:01 3.9 C 56 % -4.06 C
1916 02-03-2004 23:15:01 3.9 C 56 % -4.06 C
1917 02-03-2004 23:27:01 3.7 C 56 % -4.25 C
1918 02-03-2004 23:39:01 3.6 C 56 % -4.34 C
1919 02-03-2004 23:51:01 3.3 C 57 % -4.39 C
1920 03-03-2004 00:03:01 3.5 C 58 % -3.97 C
1921 03-03-2004 00:15:01 3.5 C 57 % -4.2 C
1922 03-03-2004 00:27:01 3.5 C 57 % -4.2 C
1923 03-03-2004 00:39:01 3.5 C 58 % -3.97 C
1924 03-03-2004 00:51:00 3.4 C 58 % -4.06 C
1925 03-03-2004 01:03:00 3.4 C 59 % -3.84 C
Sensor: Nr:Datum:Temp:Feuchte:Taupunkt:
Aussen-T/F 1926 03-03-2004 01:15:59 3.3 C 59 % -3.93 C
1927 03-03-2004 01:27:59 3.3 C 59 % -3.93 C
1928 03-03-2004 01:39:57 3.3 C 59 % -3.93 C
1929 03-03-2004 01:51:01 3.2 C 60 % -3.8 C
1930 03-03-2004 02:03:01 3.1 C 60 % -3.89 C
1931 03-03-2004 02:15:01 3 C 61 % -3.77 C
1932 03-03-2004 02:27:01 2.8 C 62 % -3.74 C
1933 03-03-2004 02:39:01 2.8 C 62 % -3.74 C
1934 03-03-2004 02:52:01 2.8 C 61 % -3.96 C
1935 03-03-2004 03:04:01 2.8 C 61 % -3.96 C
1936 03-03-2004 03:16:00 2.7 C 61 % -4.05 C
1937 03-03-2004 03:28:00 2.6 C 61 % -4.15 C
1938 03-03-2004 03:40:01 2.6 C 61 % -4.15 C
1939 03-03-2004 03:52:01 2.5 C 62 % -4.03 C
1940 03-03-2004 04:04:00 2.4 C 62 % -4.12 C
1941 03-03-2004 04:16:00 2.3 C 62 % -4.21 C
1942 03-03-2004 04:28:00 2.2 C 62 % -4.31 C
1943 03-03-2004 04:40:00 2.1 C 61 % -4.62 C
1944 03-03-2004 04:52:01 1.7 C 63 % -4.57 C
1945 03-03-2004 05:04:01 1.3 C 63 % -4.95 C
1946 03-03-2004 05:16:01 1.1 C 64 % -4.93 C
1947 03-03-2004 05:28:01 0.8 C 65 % -5.01 C
1948 03-03-2004 05:40:00 0.7 C 65 % -5.11 C
1949 03-03-2004 05:52:01 0.5 C 65 % -5.3 C
1950 03-03-2004 06:04:01 0.5 C 65 % -5.3 C
Sensor: Nr:Datum:Temp:Feuchte:Taupunkt:
Aussen-T/F 1951 03-03-2004 06:16:01 0.5 C 64 % -5.5 C
1952 03-03-2004 06:28:01 0.3 C 65 % -5.49 C
1953 03-03-2004 06:40:01 0.1 C 66 % -5.48 C
1954 03-03-2004 06:52:00 0.1 C 66 % -5.48 C
1955 03-03-2004 07:04:00 0 C 66 % -5.58 C
1956 03-03-2004 07:16:58 0.2 C 66 % -5.38 C
1957 03-03-2004 07:28:58 0.4 C 65 % -5.39 C
1958 03-03-2004 07:40:57 0.6 C 64 % -5.41 C
1959 03-03-2004 07:52:01 0.7 C 63 % -5.52 C
1960 03-03-2004 08:04:01 0.7 C 63 % -5.52 C
1961 03-03-2004 08:16:01 0.6 C 63 % -5.61 C
1962 03-03-2004 08:28:01 0.6 C 63 % -5.61 C
1963 03-03-2004 08:40:01 0.5 C 63 % -5.71 C
1964 03-03-2004 08:52:01 0.4 C 64 % -5.6 C
1965 03-03-2004 09:04:01 0.5 C 63 % -5.71 C
1966 03-03-2004 09:16:01 0.6 C 63 % -5.61 C
1967 03-03-2004 09:28:01 0.8 C 62 % -5.63 C
1968 03-03-2004 09:40:01 1 C 60 % -5.87 C
1969 03-03-2004 09:52:00 1.4 C 60 % -5.5 C
1970 03-03-2004 10:04:00 1.7 C 58 % -5.66 C
1971 03-03-2004 10:16:59 1.9 C 58 % -5.47 C
1972 03-03-2004 10:28:59 2.2 C 55 % -5.89 C
1973 03-03-2004 10:40:57 2.5 C 54 % -5.85 C
1974 03-03-2004 10:52:01 2.8 C 53 % -5.81 C
1975 03-03-2004 11:04:01 3.2 C 52 % -5.69 C
Sensor: Nr:Datum:Temp:Feuchte:Taupunkt:
Aussen-T/F 1976 03-03-2004 11:16:01 3.5 C 51 % -5.66 C
1977 03-03-2004 11:28:01 3.8 C 50 % -5.65 C
1978 03-03-2004 11:40:01 4.2 C 48 % -5.81 C
1979 03-03-2004 11:52:00 4.6 C 47 % -5.72 C
1980 03-03-2004 12:03:59 5 C 46 % -5.64 C
1981 03-03-2004 12:16:58 5.4 C 45 % -5.56 C
1982 03-03-2004 12:28:58 6 C 43 % -5.61 C
1983 03-03-2004 12:40:57 6.4 C 41 % -5.87 C
1984 03-03-2004 12:52:01 7.2 C 41 % -5.15 C
1985 03-03-2004 13:04:01 8 C 39 % -5.09 C
1986 03-03-2004 13:16:01 8.2 C 37 % -5.6 C
1987 03-03-2004 13:28:01 8 C 36 % -6.14 C
1988 03-03-2004 13:40:01 8.5 C 37 % -5.33 C
1989 03-03-2004 13:52:01 8.5 C 35 % -6.06 C
1990 03-03-2004 14:04:01 8.6 C 34 % -6.35 C
1991 03-03-2004 14:16:01 8.9 C 34 % -6.09 C
1992 03-03-2004 14:28:01 9.6 C 33 % -5.86 C
1993 03-03-2004 14:40:01 10.1 C 32 % -5.82 C
1994 03-03-2004 14:52:00 10.1 C 31 % -6.24 C
1995 03-03-2004 15:04:00 10.2 C 29 % -7.02 C
1996 03-03-2004 15:16:58 9.8 C 31 % -6.5 C
1997 03-03-2004 15:28:58 10.4 C 30 % -6.4 C
1998 03-03-2004 15:40:57 11.1 C 28 % -6.69 C
1999 03-03-2004 15:52:01 10.8 C 29 % -6.5 C
2000 03-03-2004 16:04:01 11 C 27 % -7.25 C
Sensor: Nr:Datum:Temp:Feuchte:Taupunkt:
Aussen-T/F 2001 03-03-2004 16:16:01 11.2 C 27 % -7.08 C
2002 03-03-2004 16:28:01 10.4 C 28 % -7.3 C
2003 03-03-2004 16:40:01 10.7 C 28 % -7.04 C
2004 03-03-2004 16:52:00 10.3 C 28 % -7.38 C
2005 03-03-2004 17:04:59 9.8 C 30 % -6.92 C
2006 03-03-2004 17:16:58 10 C 32 % -5.91 C
2007 03-03-2004 17:28:58 9.5 C 30 % -7.19 C
2008 03-03-2004 17:40:57 8.9 C 33 % -6.47 C
2009 03-03-2004 17:52:01 8.2 C 33 % -7.09 C
2010 03-03-2004 18:04:01 7.4 C 35 % -7.03 C
2011 03-03-2004 18:16:01 6.9 C 36 % -7.11 C
2012 03-03-2004 18:28:01 6.6 C 38 % -6.68 C
2013 03-03-2004 18:40:01 5.8 C 41 % -6.41 C
2014 03-03-2004 18:52:01 5.2 C 45 % -5.74 C
2015 03-03-2004 19:04:01 4.7 C 47 % -5.63 C
2016 03-03-2004 19:16:01 4.3 C 48 % -5.72 C
2017 03-03-2004 19:28:01 4.1 C 49 % -5.63 C
2018 03-03-2004 19:40:01 3.6 C 52 % -5.32 C
2019 03-03-2004 19:52:01 3.5 C 52 % -5.41 C
2020 03-03-2004 20:04:00 3.1 C 54 % -5.29 C
2021 03-03-2004 20:16:59 2.7 C 57 % -4.95 C
2022 03-03-2004 20:28:59 2.5 C 59 % -4.68 C
2023 03-03-2004 20:40:58 2.4 C 59 % -4.78 C
2024 03-03-2004 20:52:01 2.1 C 59 % -5.06 C
2025 03-03-2004 21:04:00 1.8 C 62 % -4.69 C
Sensor: Nr:Datum:Temp:Feuchte:Taupunkt:
Aussen-T/F 2026 03-03-2004 21:16:01 1.7 C 61 % -5 C
2027 03-03-2004 21:28:01 1.5 C 62 % -4.97 C
2028 03-03-2004 21:40:00 1.3 C 63 % -4.95 C
2029 03-03-2004 21:52:01 1.1 C 62 % -5.35 C
2030 03-03-2004 22:04:01 1 C 63 % -5.23 C
2031 03-03-2004 22:16:01 0.7 C 64 % -5.31 C
2032 03-03-2004 22:28:01 0.6 C 65 % -5.2 C
2033 03-03-2004 22:40:01 0.5 C 66 % -5.1 C
2034 03-03-2004 22:52:01 0.4 C 66 % -5.19 C
2035 03-03-2004 23:04:01 0.2 C 66 % -5.38 C
2036 03-03-2004 23:16:01 0.1 C 66 % -5.48 C
2037 03-03-2004 23:28:01 -0.1 C 66 % -5.68 C
2038 03-03-2004 23:40:01 -0.1 C 67 % -5.48 C
2039 03-03-2004 23:52:00 0 C 67 % -5.38 C
2040 04-03-2004 00:04:00 -0.2 C 67 % -5.58 C
2041 04-03-2004 00:16:59 -0.4 C 67 % -5.77 C
2042 04-03-2004 00:28:59 -0.6 C 67 % -5.96 C
2043 04-03-2004 00:40:57 -0.9 C 68 % -6.05 C
2044 04-03-2004 00:52:01 -1 C 69 % -5.96 C
2045 04-03-2004 01:04:01 -1.1 C 70 % -5.86 C
2046 04-03-2004 01:16:01 -1.3 C 70 % -6.06 C
2047 04-03-2004 01:28:01 -1.4 C 71 % -5.97 C
2048 04-03-2004 01:40:01 -1.6 C 71 % -6.16 C
2049 04-03-2004 01:52:00 -1.7 C 72 % -6.07 C
2050 04-03-2004 02:04:00 -1.8 C 73 % -5.99 C
Sensor: Nr:Datum:Temp:Feuchte:Taupunkt:
Aussen-T/F 2051 04-03-2004 02:16:58 -1.9 C 73 % -6.09 C
2052 04-03-2004 02:28:58 -2.1 C 72 % -6.46 C
2053 04-03-2004 02:40:57 -2.1 C 73 % -6.28 C
2054 04-03-2004 02:53:02 -2.2 C 73 % -6.38 C
2055 04-03-2004 03:05:02 -2.3 C 73 % -6.47 C
2056 04-03-2004 03:17:02 -2.3 C 73 % -6.47 C
2057 04-03-2004 03:29:02 -2.2 C 74 % -6.2 C
2058 04-03-2004 03:41:00 -2.4 C 74 % -6.39 C
2059 04-03-2004 03:53:00 -2.5 C 74 % -6.49 C
2060 04-03-2004 04:05:00 -2.4 C 74 % -6.39 C
2061 04-03-2004 04:17:59 -2.5 C 74 % -6.49 C
2062 04-03-2004 04:29:59 -2.5 C 74 % -6.49 C
2063 04-03-2004 04:41:57 -2.5 C 74 % -6.49 C
2064 04-03-2004 04:53:01 -2.6 C 74 % -6.58 C
2065 04-03-2004 05:05:01 -2.4 C 75 % -6.22 C
2066 04-03-2004 05:17:01 -2.3 C 74 % -6.29 C
2067 04-03-2004 05:29:01 -2.5 C 73 % -6.67 C
2068 04-03-2004 05:41:01 -2.7 C 73 % -6.86 C
2069 04-03-2004 05:53:00 -2.8 C 73 % -6.95 C
2070 04-03-2004 06:05:00 -2.6 C 74 % -6.58 C
2071 04-03-2004 06:17:58 -2.6 C 74 % -6.58 C
2072 04-03-2004 06:29:58 -2.6 C 75 % -6.41 C
2073 04-03-2004 06:41:57 -2.6 C 74 % -6.58 C
2074 04-03-2004 06:53:01 -2.7 C 75 % -6.51 C
2075 04-03-2004 07:05:01 -2.8 C 75 % -6.6 C
Sensor: Nr:Datum:Temp:Feuchte:Taupunkt:
Aussen-T/F 2076 04-03-2004 07:17:01 -2.7 C 75 % -6.51 C
2077 04-03-2004 07:29:01 -2.6 C 75 % -6.41 C
2078 04-03-2004 07:41:01 -2.7 C 74 % -6.68 C
2079 04-03-2004 07:53:01 -2.5 C 75 % -6.31 C
2080 04-03-2004 08:05:01 -2.4 C 75 % -6.22 C
2081 04-03-2004 08:17:01 -2.4 C 74 % -6.39 C
2082 04-03-2004 08:29:01 -2.5 C 74 % -6.49 C
2083 04-03-2004 08:41:01 -2.4 C 75 % -6.22 C
2084 04-03-2004 08:53:00 -2.2 C 75 % -6.02 C
2085 04-03-2004 09:05:00 -2 C 75 % -5.83 C
2086 04-03-2004 09:17:59 -1.8 C 75 % -5.64 C
2087 04-03-2004 09:29:59 -1.5 C 74 % -5.52 C
2088 04-03-2004 09:41:57 -0.8 C 74 % -4.84 C
2089 04-03-2004 09:53:01 -0.1 C 70 % -4.9 C
2090 04-03-2004 10:05:01 0.4 C 68 % -4.8 C
2091 04-03-2004 10:17:01 1.4 C 66 % -4.24 C
2092 04-03-2004 10:29:01 2.1 C 62 % -4.4 C
2093 04-03-2004 10:41:01 2.2 C 60 % -4.74 C
2094 04-03-2004 10:53:00 2.8 C 57 % -4.86 C
2095 04-03-2004 11:05:00 3.5 C 57 % -4.2 C
2096 04-03-2004 11:17:58 4.1 C 54 % -4.36 C
2097 04-03-2004 11:29:58 4.7 C 52 % -4.3 C
2098 04-03-2004 11:41:57 4.8 C 52 % -4.2 C
2099 04-03-2004 11:53:01 5.1 C 51 % -4.18 C
2100 04-03-2004 12:05:01 5.3 C 52 % -3.74 C
Sensor: Nr:Datum:Temp:Feuchte:Taupunkt:
Aussen-T/F 2101 04-03-2004 12:17:01 6.2 C 48 % -3.98 C
2102 04-03-2004 12:29:01 7.1 C 45 % -4.01 C
2103 04-03-2004 12:41:01 7.4 C 44 % -4.04 C
2104 04-03-2004 12:53:01 7.8 C 42 % -4.29 C
2105 04-03-2004 13:05:01 8.6 C 41 % -3.89 C
2106 04-03-2004 13:17:01 8.9 C 40 % -3.95 C
2107 04-03-2004 13:29:01 8.9 C 38 % -4.63 C
2108 04-03-2004 13:41:01 9.5 C 37 % -4.44 C
2109 04-03-2004 13:53:00 10.2 C 35 % -4.56 C
2110 04-03-2004 14:05:00 10.7 C 35 % -4.11 C
2111 04-03-2004 14:17:59 10.5 C 32 % -5.47 C
2112 04-03-2004 14:29:59 10.4 C 32 % -5.56 C
2113 04-03-2004 14:41:57 9.9 C 35 % -4.82 C
2114 04-03-2004 14:53:01 10 C 33 % -5.51 C
2115 04-03-2004 15:05:01 10.8 C 32 % -5.21 C
2116 04-03-2004 15:17:01 11.1 C 30 % -5.79 C
2117 04-03-2004 15:29:01 11.1 C 31 % -5.37 C
2118 04-03-2004 15:41:01 10.5 C 31 % -5.89 C
2119 04-03-2004 15:53:00 10.3 C 31 % -6.06 C
2120 04-03-2004 16:05:59 10.1 C 31 % -6.24 C
2121 04-03-2004 16:17:58 10.3 C 32 % -5.65 C
2122 04-03-2004 16:29:58 10.3 C 31 % -6.06 C
2123 04-03-2004 16:41:57 10 C 32 % -5.91 C
2124 04-03-2004 16:53:01 9.7 C 41 % -2.9 C
2125 04-03-2004 17:05:01 9.4 C 37 % -4.53 C
Sensor: Nr:Datum:Temp:Feuchte:Taupunkt:
Aussen-T/F 2126 04-03-2004 17:17:01 9.1 C 37 % -4.8 C
2127 04-03-2004 17:29:01 8.9 C 40 % -3.95 C
2128 04-03-2004 17:41:01 8.6 C 39 % -4.55 C
2129 04-03-2004 17:53:01 8.4 C 41 % -4.07 C
2130 04-03-2004 18:05:01 8.1 C 42 % -4.02 C
2131 04-03-2004 18:17:01 7.8 C 45 % -3.37 C
2132 04-03-2004 18:29:01 7.4 C 46 % -3.44 C
2133 04-03-2004 18:41:01 7.1 C 47 % -3.43 C
2134 04-03-2004 18:53:01 6.9 C 48 % -3.33 C
2135 04-03-2004 19:05:00 6.8 C 47 % -3.71 C
2136 04-03-2004 19:17:58 6.8 C 46 % -3.99 C
2137 04-03-2004 19:29:58 6.8 C 45 % -4.28 C
2138 04-03-2004 19:41:57 6.6 C 45 % -4.47 C
2139 04-03-2004 19:53:01 6.5 C 44 % -4.85 C
2140 04-03-2004 20:05:01 6.5 C 43 % -5.16 C
2141 04-03-2004 20:17:01 6.4 C 42 % -5.56 C
2142 04-03-2004 20:29:01 6.3 C 44 % -5.03 C
2143 04-03-2004 20:41:01 6 C 46 % -4.72 C
2144 04-03-2004 20:53:00 5.7 C 48 % -4.43 C
2145 04-03-2004 21:05:59 5.5 C 49 % -4.35 C
2146 04-03-2004 21:17:58 5.4 C 49 % -4.44 C
2147 04-03-2004 21:29:58 5.2 C 48 % -4.89 C
2148 04-03-2004 21:41:57 5 C 49 % -4.81 C
2149 04-03-2004 21:53:01 4.9 C 49 % -4.9 C
2150 04-03-2004 22:05:01 4.6 C 50 % -4.91 C
Sensor: Nr:Datum:Temp:Feuchte:Taupunkt:
Aussen-T/F 2151 04-03-2004 22:17:01 4.3 C 51 % -4.92 C
2152 04-03-2004 22:29:01 3.8 C 54 % -4.63 C
2153 04-03-2004 22:41:01 3.6 C 53 % -5.07 C
2154 04-03-2004 22:53:00 3.5 C 53 % -5.16 C
2155 04-03-2004 23:05:59 3.3 C 53 % -5.35 C
2156 04-03-2004 23:17:58 3.1 C 55 % -5.05 C
2157 04-03-2004 23:29:58 2.8 C 56 % -5.09 C
2158 04-03-2004 23:41:57 2.4 C 56 % -5.46 C
2159 04-03-2004 23:53:01 2.3 C 56 % -5.56 C
2160 05-03-2004 00:05:01 2.1 C 56 % -5.74 C
2161 05-03-2004 00:17:01 2.1 C 56 % -5.74 C
2162 05-03-2004 00:29:01 1.9 C 58 % -5.47 C
2163 05-03-2004 00:41:00 1.8 C 58 % -5.57 C
2164 05-03-2004 00:53:01 1.7 C 58 % -5.66 C
2165 05-03-2004 01:05:01 1.5 C 59 % -5.62 C
2166 05-03-2004 01:17:01 1.4 C 59 % -5.72 C
2167 05-03-2004 01:29:01 1.2 C 60 % -5.69 C
2168 05-03-2004 01:41:01 1 C 60 % -5.87 C
2169 05-03-2004 01:53:01 1 C 60 % -5.87 C
2170 05-03-2004 02:05:00 0.8 C 62 % -5.63 C
2171 05-03-2004 02:17:58 0.6 C 62 % -5.82 C
2172 05-03-2004 02:29:58 0.5 C 63 % -5.71 C
2173 05-03-2004 02:41:57 0.5 C 63 % -5.71 C
2174 05-03-2004 02:54:03 0.4 C 63 % -5.8 C
2175 05-03-2004 03:06:03 0.3 C 65 % -5.49 C
Sensor: Nr:Datum:Temp:Feuchte:Taupunkt:
Aussen-T/F 2176 05-03-2004 03:18:02 0.3 C 65 % -5.49 C
2177 05-03-2004 03:30:02 0.3 C 65 % -5.49 C
2178 05-03-2004 03:42:00 0.2 C 65 % -5.58 C
2179 05-03-2004 03:54:00 0.1 C 65 % -5.68 C
2180 05-03-2004 04:06:00 0.2 C 65 % -5.58 C
2181 05-03-2004 04:18:59 -0.1 C 65 % -5.88 C
2182 05-03-2004 04:30:58 -0.3 C 65 % -6.07 C
2183 05-03-2004 04:42:58 -0.5 C 66 % -6.06 C
2184 05-03-2004 04:54:01 -0.5 C 67 % -5.86 C
2185 05-03-2004 05:06:01 -0.7 C 67 % -6.05 C
2186 05-03-2004 05:18:01 -0.8 C 68 % -5.96 C
2187 05-03-2004 05:30:01 -0.9 C 68 % -6.05 C
2188 05-03-2004 05:42:01 -1 C 67 % -6.34 C
2189 05-03-2004 05:54:00 -1 C 67 % -6.34 C
2190 05-03-2004 06:06:00 -1.1 C 68 % -6.24 C
2191 05-03-2004 06:18:58 -1.2 C 67 % -6.53 C
2192 05-03-2004 06:30:57 -1.2 C 66 % -6.73 C
2193 05-03-2004 06:42:57 -1.2 C 64 % -7.13 C
2194 05-03-2004 06:54:01 -1.2 C 64 % -7.13 C
2195 05-03-2004 07:06:01 -1.4 C 65 % -7.12 C
2196 05-03-2004 07:18:01 -1.4 C 63 % -7.52 C
2197 05-03-2004 07:30:01 -1.5 C 64 % -7.41 C
2198 05-03-2004 07:42:02 -1.4 C 64 % -7.32 C
2199 05-03-2004 07:54:00 -1.4 C 63 % -7.52 C
2200 05-03-2004 08:06:00 -1.3 C 64 % -7.22 C
Sensor: Nr:Datum:Temp:Feuchte:Taupunkt:
Aussen-T/F 2201 05-03-2004 08:18:58 -1.2 C 63 % -7.33 C
2202 05-03-2004 08:30:57 -1.1 C 63 % -7.24 C
2203 05-03-2004 08:42:57 -0.9 C 61 % -7.46 C
2204 05-03-2004 08:54:01 -0.8 C 60 % -7.58 C
2205 05-03-2004 09:06:01 -0.6 C 61 % -7.18 C
2206 05-03-2004 09:18:01 -0.6 C 61 % -7.18 C
2207 05-03-2004 09:30:01 -0.4 C 60 % -7.2 C
2208 05-03-2004 09:42:01 0.1 C 59 % -6.94 C
2209 05-03-2004 09:54:00 0.6 C 58 % -6.69 C
2210 05-03-2004 10:06:59 1.2 C 56 % -6.59 C
2211 05-03-2004 10:18:58 1.7 C 53 % -6.83 C
2212 05-03-2004 10:30:57 2.2 C 51 % -6.87 C
2213 05-03-2004 10:42:57 2.7 C 50 % -6.66 C
2214 05-03-2004 10:54:01 3.2 C 46 % -7.28 C
2215 05-03-2004 11:06:01 3.6 C 45 % -7.2 C
2216 05-03-2004 11:18:01 4 C 45 % -6.84 C
2217 05-03-2004 11:30:01 4.8 C 41 % -7.31 C
2218 05-03-2004 11:42:01 5.1 C 39 % -7.69 C
2219 05-03-2004 11:54:01 5.4 C 37 % -8.1 C
2220 05-03-2004 12:06:02 5.8 C 37 % -7.74 C
2221 05-03-2004 12:18:01 6.2 C 35 % -8.1 C
2222 05-03-2004 12:30:01 6.6 C 35 % -7.74 C
2223 05-03-2004 12:42:01 7 C 33 % -8.15 C
2224 05-03-2004 12:54:01 7.5 C 32 % -8.1 C
2225 05-03-2004 13:06:00 7.9 C 30 % -8.58 C
Sensor: Nr:Datum:Temp:Feuchte:Taupunkt:
Aussen-T/F 2226 05-03-2004 13:18:59 8 C 28 % -9.37 C
2227 05-03-2004 13:30:57 8.5 C 27 % -9.4 C
2228 05-03-2004 13:42:57 8.7 C 25 % -10.2 C
2229 05-03-2004 13:54:01 9 C 23 % -10.99 C
2230 05-03-2004 14:06:01 9.1 C 20 % -12.64 C
2231 05-03-2004 14:18:01 9.5 C 20 % -12.31 C
2232 05-03-2004 14:30:01 10.1 C 20 % -11.81 C
2233 05-03-2004 14:42:01 10 C 20 % -11.89 C
2234 05-03-2004 14:54:00 9.2 C 20 % -12.56 C
2235 05-03-2004 15:06:00 9 C 20 % -12.72 C
2236 05-03-2004 15:18:58 8.6 C 20 % -13.06 C
2237 05-03-2004 15:30:58 8.3 C 20 % -13.31 C
2238 05-03-2004 15:42:58 8.9 C 20 % -12.81 C
2239 05-03-2004 15:54:01 8.5 C 20 % -13.14 C
2240 05-03-2004 16:06:01 8.1 C 20 % -13.47 C
2241 05-03-2004 16:18:01 7.8 C 20 % -13.72 C
2242 05-03-2004 16:30:01 7.8 C 20 % -13.72 C
2243 05-03-2004 16:42:01 7.5 C 20 % -13.97 C
2244 05-03-2004 16:54:00 7.4 C 20 % -14.05 C
2245 05-03-2004 17:06:00 7.2 C 20 % -14.22 C
2246 05-03-2004 17:18:58 7.1 C 20 % -14.3 C
2247 05-03-2004 17:30:57 6.9 C 23 % -12.76 C
2248 05-03-2004 17:42:57 6.6 C 25 % -11.99 C
2249 05-03-2004 17:54:02 6.3 C 27 % -11.29 C
2250 05-03-2004 18:06:01 6.2 C 29 % -10.48 C
Sensor: Nr:Datum:Temp:Feuchte:Taupunkt:
Aussen-T/F 2251 05-03-2004 18:18:01 5.8 C 29 % -10.83 C
2252 05-03-2004 18:30:01 5.7 C 30 % -10.49 C
2253 05-03-2004 18:42:01 5.6 C 30 % -10.58 C
2254 05-03-2004 18:54:03 5.5 C 31 % -10.25 C
2255 05-03-2004 19:06:02 5.5 C 32 % -9.85 C
2256 05-03-2004 19:18:02 5.6 C 33 % -9.38 C
2257 05-03-2004 19:30:02 5.2 C 32 % -10.12 C
2258 05-03-2004 19:42:02 5.2 C 35 % -8.98 C
2259 05-03-2004 19:54:00 5.1 C 33 % -9.82 C
2260 05-03-2004 20:06:00 5.1 C 35 % -9.07 C
2261 05-03-2004 20:18:59 5.1 C 35 % -9.07 C
2262 05-03-2004 20:30:58 5 C 36 % -8.8 C
2263 05-03-2004 20:42:58 5 C 36 % -8.8 C
2264 05-03-2004 20:54:01 5 C 36 % -8.8 C
2265 05-03-2004 21:06:00 4.8 C 40 % -7.63 C
2266 05-03-2004 21:18:00 4.3 C 44 % -6.85 C
2267 05-03-2004 21:30:00 4.1 C 47 % -6.18 C
2268 05-03-2004 21:42:00 4.1 C 45 % -6.74 C
2269 05-03-2004 21:54:01 4.1 C 46 % -6.46 C
2270 05-03-2004 22:06:01 3.8 C 47 % -6.45 C
2271 05-03-2004 22:18:01 3.6 C 47 % -6.64 C
2272 05-03-2004 22:30:01 3.7 C 48 % -6.27 C
2273 05-03-2004 22:42:01 3.5 C 49 % -6.19 C
2274 05-03-2004 22:54:01 3.2 C 52 % -5.69 C
2275 05-03-2004 23:06:01 2.6 C 59 % -4.59 C
Sensor: Nr:Datum:Temp:Feuchte:Taupunkt:
Aussen-T/F 2276 05-03-2004 23:18:01 2.1 C 65 % -3.78 C
2277 05-03-2004 23:30:01 1.7 C 70 % -3.17 C
2278 05-03-2004 23:42:01 1.5 C 73 % -2.8 C
2279 05-03-2004 23:54:00 1.3 C 74 % -2.81 C
2280 06-03-2004 00:06:00 1.3 C 75 % -2.63 C
2281 06-03-2004 00:18:59 1.2 C 76 % -2.55 C
2282 06-03-2004 00:30:57 1.1 C 76 % -2.65 C
2283 06-03-2004 00:42:57 1 C 77 % -2.57 C
2284 06-03-2004 00:54:01 0.9 C 78 % -2.49 C
2285 06-03-2004 01:06:01 1 C 78 % -2.39 C
2286 06-03-2004 01:18:01 1 C 78 % -2.39 C
2287 06-03-2004 01:30:01 0.6 C 79 % -2.61 C
2288 06-03-2004 01:42:01 0.6 C 80 % -2.44 C
2289 06-03-2004 01:54:00 0.4 C 80 % -2.64 C
2290 06-03-2004 02:06:59 0.3 C 81 % -2.57 C
2291 06-03-2004 02:18:58 0.3 C 81 % -2.57 C
2292 06-03-2004 02:30:57 0.3 C 81 % -2.57 C
2293 06-03-2004 02:42:57 0.3 C 81 % -2.57 C
2294 06-03-2004 02:55:02 0.3 C 81 % -2.57 C
2295 06-03-2004 03:07:02 0.3 C 81 % -2.57 C
2296 06-03-2004 03:19:02 0.2 C 81 % -2.67 C
2297 06-03-2004 03:31:00 0.2 C 81 % -2.67 C
2298 06-03-2004 03:43:00 0.2 C 81 % -2.67 C
2299 06-03-2004 03:55:00 0.2 C 81 % -2.67 C
2300 06-03-2004 04:07:00 0.2 C 81 % -2.67 C
Sensor: Nr:Datum:Temp:Feuchte:Taupunkt:
Aussen-T/F 2301 06-03-2004 04:19:59 0.2 C 81 % -2.67 C
2302 06-03-2004 04:31:58 0.2 C 80 % -2.83 C
2303 06-03-2004 04:43:58 0.2 C 80 % -2.83 C
2304 06-03-2004 04:55:01 0.2 C 80 % -2.83 C
2305 06-03-2004 05:07:01 0.2 C 80 % -2.83 C
2306 06-03-2004 05:19:00 0.3 C 80 % -2.73 C
2307 06-03-2004 05:31:00 0.3 C 80 % -2.73 C
2308 06-03-2004 05:43:00 0.3 C 80 % -2.73 C
2309 06-03-2004 05:55:01 0.3 C 80 % -2.73 C
2310 06-03-2004 06:07:01 0.3 C 80 % -2.73 C
2311 06-03-2004 06:19:01 0.3 C 80 % -2.73 C
2312 06-03-2004 06:31:01 0.4 C 80 % -2.64 C
2313 06-03-2004 06:43:01 0.3 C 80 % -2.73 C
2314 06-03-2004 06:55:00 0.3 C 80 % -2.73 C
2315 06-03-2004 07:07:59 0.4 C 79 % -2.81 C
2316 06-03-2004 07:19:58 0.4 C 79 % -2.81 C
2317 06-03-2004 07:31:57 0.4 C 79 % -2.81 C
2318 06-03-2004 07:43:57 0.4 C 79 % -2.81 C
2319 06-03-2004 07:55:01 0.4 C 79 % -2.81 C
2320 06-03-2004 08:07:01 0.4 C 79 % -2.81 C
2321 06-03-2004 08:19:01 0.5 C 79 % -2.71 C
2322 06-03-2004 08:31:01 0.5 C 79 % -2.71 C
2323 06-03-2004 08:43:01 0.4 C 80 % -2.64 C
2324 06-03-2004 08:55:01 0.5 C 80 % -2.54 C
2325 06-03-2004 09:07:02 0.6 C 81 % -2.28 C
Sensor: Nr:Datum:Temp:Feuchte:Taupunkt:
Aussen-T/F 2326 06-03-2004 09:19:01 0.6 C 81 % -2.28 C
2327 06-03-2004 09:31:01 0.6 C 81 % -2.28 C
2328 06-03-2004 09:43:01 0.7 C 81 % -2.18 C
2329 06-03-2004 09:55:00 0.7 C 81 % -2.18 C
2330 06-03-2004 10:07:00 0.9 C 81 % -1.98 C
2331 06-03-2004 10:19:59 0.9 C 81 % -1.98 C
2332 06-03-2004 10:31:57 0.9 C 81 % -1.98 C
2333 06-03-2004 10:43:57 1 C 80 % -2.05 C
2334 06-03-2004 10:55:01 1 C 80 % -2.05 C
2335 06-03-2004 11:07:01 1.2 C 80 % -1.86 C
2336 06-03-2004 11:19:01 1.4 C 80 % -1.66 C
2337 06-03-2004 11:31:01 1.4 C 81 % -1.49 C
2338 06-03-2004 11:43:01 1.2 C 81 % -1.69 C
2339 06-03-2004 11:55:00 1.3 C 81 % -1.59 C
2340 06-03-2004 12:07:00 1.2 C 81 % -1.69 C
2341 06-03-2004 12:19:59 1.2 C 82 % -1.52 C
2342 06-03-2004 12:31:58 1.3 C 82 % -1.43 C
2343 06-03-2004 12:43:58 1.4 C 82 % -1.33 C
2344 06-03-2004 12:55:01 1.3 C 82 % -1.43 C
2345 06-03-2004 13:07:01 1.2 C 82 % -1.52 C
2346 06-03-2004 13:19:01 1.2 C 82 % -1.52 C
2347 06-03-2004 13:31:01 1.2 C 83 % -1.36 C
2348 06-03-2004 13:43:01 1.3 C 83 % -1.26 C
2349 06-03-2004 13:55:01 1.5 C 84 % -0.9 C
2350 06-03-2004 14:07:02 1.7 C 84 % -0.71 C
Sensor: Nr:Datum:Temp:Feuchte:Taupunkt:
Aussen-T/F 2351 06-03-2004 14:19:01 1.8 C 84 % -0.61 C
2352 06-03-2004 14:31:01 1.8 C 84 % -0.61 C
2353 06-03-2004 14:43:01 1.9 C 83 % -0.67 C
2354 06-03-2004 14:55:01 1.9 C 83 % -0.67 C
2355 06-03-2004 15:07:00 2 C 83 % -0.58 C
2356 06-03-2004 15:19:59 2.2 C 82 % -0.55 C
2357 06-03-2004 15:31:58 2.4 C 82 % -0.35 C
2358 06-03-2004 15:43:58 2.4 C 81 % -0.52 C
2359 06-03-2004 15:55:01 2.4 C 81 % -0.52 C
2360 06-03-2004 16:07:01 3 C 79 % -0.28 C
2361 06-03-2004 16:19:01 3.4 C 76 % -0.42 C
2362 06-03-2004 16:31:01 3.4 C 74 % -0.78 C
2363 06-03-2004 16:43:01 3.1 C 75 % -0.89 C
2364 06-03-2004 16:55:00 3.1 C 75 % -0.89 C
2365 06-03-2004 17:07:00 3.1 C 76 % -0.71 C
2366 06-03-2004 17:19:58 3.1 C 76 % -0.71 C
2367 06-03-2004 17:31:57 2.8 C 78 % -0.65 C
2368 06-03-2004 17:43:57 2.7 C 78 % -0.74 C
2369 06-03-2004 17:55:01 2.6 C 79 % -0.67 C
2370 06-03-2004 18:07:02 2.4 C 79 % -0.86 C
2371 06-03-2004 18:19:02 2.3 C 80 % -0.79 C
2372 06-03-2004 18:31:01 2.2 C 81 % -0.71 C
2373 06-03-2004 18:43:01 2.2 C 81 % -0.71 C
2374 06-03-2004 18:55:00 2.3 C 81 % -0.62 C
2375 06-03-2004 19:07:00 2.5 C 78 % -0.94 C
Sensor: Nr:Datum:Temp:Feuchte:Taupunkt:
Aussen-T/F 2376 06-03-2004 19:19:59 2.3 C 78 % -1.13 C
2377 06-03-2004 19:31:57 2.3 C 79 % -0.96 C
2378 06-03-2004 19:43:57 2.3 C 79 % -0.96 C
2379 06-03-2004 19:55:01 2.3 C 79 % -0.96 C
2380 06-03-2004 20:07:02 2.3 C 79 % -0.96 C
2381 06-03-2004 20:19:01 2.4 C 78 % -1.03 C
2382 06-03-2004 20:31:01 2.4 C 78 % -1.03 C
2383 06-03-2004 20:43:01 2.5 C 78 % -0.94 C
2384 06-03-2004 20:55:00 2.4 C 78 % -1.03 C
2385 06-03-2004 21:07:00 2.5 C 77 % -1.11 C
2386 06-03-2004 21:19:58 2.7 C 77 % -0.92 C
2387 06-03-2004 21:31:57 2.6 C 76 % -1.19 C
2388 06-03-2004 21:43:57 2.6 C 76 % -1.19 C
2389 06-03-2004 21:55:01 2.6 C 76 % -1.19 C
2390 06-03-2004 22:07:01 2.5 C 77 % -1.11 C
2391 06-03-2004 22:19:01 2.5 C 78 % -0.94 C
2392 06-03-2004 22:31:01 2.5 C 78 % -0.94 C
2393 06-03-2004 22:43:01 2.5 C 78 % -0.94 C
2394 06-03-2004 22:55:01 2.4 C 78 % -1.03 C
2395 06-03-2004 23:07:01 2.7 C 74 % -1.46 C
2396 06-03-2004 23:19:01 2.6 C 70 % -2.31 C
2397 06-03-2004 23:31:01 2.5 C 69 % -2.6 C
2398 06-03-2004 23:43:01 2.4 C 69 % -2.69 C
2399 06-03-2004 23:55:00 2.3 C 71 % -2.4 C
2400 07-03-2004 00:07:00 2.2 C 72 % -2.31 C
Sensor: Nr:Datum:Temp:Feuchte:Taupunkt:
Aussen-T/F 2401 07-03-2004 00:19:59 2.2 C 71 % -2.5 C
2402 07-03-2004 00:31:57 2.2 C 71 % -2.5 C
2403 07-03-2004 00:43:57 2.2 C 72 % -2.31 C
2404 07-03-2004 00:55:01 1.9 C 74 % -2.23 C
2405 07-03-2004 01:07:01 1.8 C 75 % -2.15 C
2406 07-03-2004 01:19:01 1.8 C 74 % -2.33 C
2407 07-03-2004 01:31:01 1.8 C 73 % -2.51 C
2408 07-03-2004 01:43:01 1.5 C 72 % -2.99 C
2409 07-03-2004 01:55:00 1.2 C 73 % -3.09 C
2410 07-03-2004 02:06:59 1.3 C 74 % -2.81 C
2411 07-03-2004 02:19:58 1.3 C 73 % -2.99 C
2412 07-03-2004 02:31:57 1.5 C 72 % -2.99 C
2413 07-03-2004 02:43:57 1.5 C 71 % -3.17 C
2414 07-03-2004 02:56:02 1.4 C 72 % -3.08 C
2415 07-03-2004 03:08:02 1.6 C 71 % -3.08 C
2416 07-03-2004 03:20:02 1.7 C 70 % -3.17 C
2417 07-03-2004 03:32:00 1.8 C 70 % -3.07 C
2418 07-03-2004 03:44:00 1.9 C 69 % -3.17 C
2419 07-03-2004 03:56:00 1.8 C 70 % -3.07 C
2420 07-03-2004 04:08:00 1.9 C 70 % -2.98 C
2421 07-03-2004 04:20:59 2 C 70 % -2.88 C
2422 07-03-2004 04:32:57 2 C 70 % -2.88 C
2423 07-03-2004 04:44:01 2.2 C 70 % -2.69 C
2424 07-03-2004 04:56:01 2.2 C 70 % -2.69 C
2425 07-03-2004 05:08:01 2.3 C 70 % -2.59 C
Sensor: Nr:Datum:Temp:Feuchte:Taupunkt:
Aussen-T/F 2426 07-03-2004 05:20:01 2.3 C 70 % -2.59 C
2427 07-03-2004 05:32:01 2.2 C 71 % -2.5 C
2428 07-03-2004 05:44:01 1.8 C 75 % -2.15 C
2429 07-03-2004 05:56:00 1.5 C 79 % -1.74 C
2430 07-03-2004 06:08:00 1.1 C 80 % -1.96 C
2431 07-03-2004 06:20:58 1 C 83 % -1.55 C
2432 07-03-2004 06:32:57 0.8 C 85 % -1.43 C
2433 07-03-2004 06:44:01 0.8 C 86 % -1.27 C
2434 07-03-2004 06:56:01 0.9 C 86 % -1.17 C
2435 07-03-2004 07:08:01 1 C 86 % -1.07 C
2436 07-03-2004 07:20:01 1.2 C 86 % -0.88 C
2437 07-03-2004 07:32:01 1.2 C 86 % -0.88 C
2438 07-03-2004 07:44:01 1.4 C 86 % -0.68 C
2439 07-03-2004 07:56:01 1.6 C 86 % -0.48 C
2440 07-03-2004 08:08:01 1.8 C 85 % -0.45 C
2441 07-03-2004 08:20:01 2 C 85 % -0.25 C
2442 07-03-2004 08:32:01 2.1 C 85 % -0.15 C
2443 07-03-2004 08:44:01 2.2 C 85 % -0.05 C
2444 07-03-2004 08:56:01 2.3 C 84 % -0.12 C
2445 07-03-2004 09:08:00 2.4 C 84 % -0.02 C
2446 07-03-2004 09:20:59 2.4 C 83 % -0.18 C
2447 07-03-2004 09:32:57 2.6 C 83 % 0.01 C
2448 07-03-2004 09:44:01 3 C 82 % 0.24 C
2449 07-03-2004 09:56:01 3.1 C 82 % 0.33 C
2450 07-03-2004 10:08:01 3 C 82 % 0.24 C
Sensor: Nr:Datum:Temp:Feuchte:Taupunkt:
Aussen-T/F 2451 07-03-2004 10:20:01 3 C 82 % 0.24 C
2452 07-03-2004 10:32:01 3.2 C 82 % 0.43 C
2453 07-03-2004 10:44:01 3.4 C 83 % 0.79 C
2454 07-03-2004 10:56:00 3.5 C 83 % 0.89 C
2455 07-03-2004 11:08:59 3.8 C 83 % 1.19 C
2456 07-03-2004 11:20:58 4 C 80 % 0.87 C
2457 07-03-2004 11:32:58 4.4 C 80 % 1.26 C
2458 07-03-2004 11:44:01 4.8 C 76 % 0.94 C
2459 07-03-2004 11:56:01 5.3 C 72 % 0.67 C
2460 07-03-2004 12:08:01 5.5 C 70 % 0.48 C
2461 07-03-2004 12:20:01 5.7 C 69 % 0.47 C
2462 07-03-2004 12:32:01 5.6 C 66 % -0.24 C
2463 07-03-2004 12:44:01 5.9 C 66 % 0.05 C
2464 07-03-2004 12:56:01 6.3 C 63 % -0.21 C
2465 07-03-2004 13:08:00 6.8 C 61 % -0.18 C
2466 07-03-2004 13:20:59 6.5 C 60 % -0.69 C
2467 07-03-2004 13:32:57 7.1 C 59 % -0.36 C
2468 07-03-2004 13:44:01 6.9 C 57 % -1.01 C
2469 07-03-2004 13:56:01 7.6 C 56 % -0.6 C
2470 07-03-2004 14:08:01 7.5 C 54 % -1.19 C
2471 07-03-2004 14:20:01 7.8 C 54 % -0.91 C
2472 07-03-2004 14:32:01 7.5 C 54 % -1.19 C
2473 07-03-2004 14:44:01 7.5 C 54 % -1.19 C
2474 07-03-2004 14:56:00 7.2 C 56 % -0.98 C
2475 07-03-2004 15:08:00 7 C 56 % -1.16 C
Sensor: Nr:Datum:Temp:Feuchte:Taupunkt:
Aussen-T/F 2476 07-03-2004 15:20:59 6.9 C 57 % -1.01 C
2477 07-03-2004 15:32:57 6.9 C 57 % -1.01 C
2478 07-03-2004 15:44:02 7 C 56 % -1.16 C
2479 07-03-2004 15:56:02 7.1 C 55 % -1.31 C
2480 07-03-2004 16:08:01 7.1 C 56 % -1.07 C
2481 07-03-2004 16:20:01 6.9 C 57 % -1.01 C
2482 07-03-2004 16:32:01 6.9 C 57 % -1.01 C
2483 07-03-2004 16:44:01 7 C 57 % -0.92 C
2484 07-03-2004 16:56:01 6.9 C 58 % -0.78 C
2485 07-03-2004 17:08:00 6.8 C 57 % -1.11 C
2486 07-03-2004 17:20:58 6.2 C 60 % -0.97 C
2487 07-03-2004 17:32:57 5.9 C 64 % -0.38 C
2488 07-03-2004 17:44:01 5.7 C 65 % -0.35 C
2489 07-03-2004 17:56:01 5.5 C 66 % -0.33 C
2490 07-03-2004 18:08:02 5.2 C 70 % 0.19 C
2491 07-03-2004 18:20:02 4.9 C 74 % 0.67 C
2492 07-03-2004 18:32:01 4.6 C 77 % 0.92 C
2493 07-03-2004 18:44:01 4.2 C 80 % 1.07 C
2494 07-03-2004 18:56:01 4.2 C 80 % 1.07 C
2495 07-03-2004 19:08:01 4.2 C 80 % 1.07 C
2496 07-03-2004 19:20:59 4.2 C 80 % 1.07 C
2497 07-03-2004 19:32:57 4.2 C 81 % 1.24 C
2498 07-03-2004 19:44:01 4.2 C 81 % 1.24 C
2499 07-03-2004 19:56:01 4.1 C 81 % 1.14 C
2500 07-03-2004 20:08:01 3.9 C 81 % 0.95 C
Sensor: Nr:Datum:Temp:Feuchte:Taupunkt:
Aussen-T/F 2501 07-03-2004 20:20:01 3.6 C 81 % 0.65 C
2502 07-03-2004 20:32:01 3.6 C 82 % 0.82 C
2503 07-03-2004 20:44:01 3.5 C 82 % 0.72 C
2504 07-03-2004 20:56:00 3.6 C 83 % 0.99 C
2505 07-03-2004 21:08:00 3.6 C 82 % 0.82 C
2506 07-03-2004 21:20:59 3.7 C 82 % 0.92 C
2507 07-03-2004 21:32:58 3.8 C 82 % 1.02 C
2508 07-03-2004 21:44:01 3.6 C 82 % 0.82 C
2509 07-03-2004 21:56:01 3.2 C 81 % 0.26 C
2510 07-03-2004 22:08:00 3.1 C 81 % 0.16 C
2511 07-03-2004 22:20:00 3.1 C 81 % 0.16 C
2512 07-03-2004 22:32:00 3.1 C 82 % 0.33 C
2513 07-03-2004 22:44:00 3.1 C 82 % 0.33 C
2514 07-03-2004 22:56:01 3.2 C 83 % 0.6 C
2515 07-03-2004 23:08:01 3.4 C 83 % 0.79 C
2516 07-03-2004 23:20:01 3.5 C 83 % 0.89 C
2517 07-03-2004 23:32:01 3.5 C 82 % 0.72 C
2518 07-03-2004 23:44:01 3.4 C 82 % 0.63 C
2519 07-03-2004 23:56:01 3.3 C 82 % 0.53 C
2520 08-03-2004 00:08:01 3.2 C 82 % 0.43 C
2521 08-03-2004 00:20:01 3.3 C 82 % 0.53 C
2522 08-03-2004 00:32:01 3.2 C 81 % 0.26 C
2523 08-03-2004 00:44:01 3 C 81 % 0.07 C
2524 08-03-2004 00:56:00 3.1 C 81 % 0.16 C
2525 08-03-2004 01:08:59 3 C 81 % 0.07 C
Sensor: Nr:Datum:Temp:Feuchte:Taupunkt:
Aussen-T/F 2526 08-03-2004 01:20:58 3.2 C 81 % 0.26 C
2527 08-03-2004 01:32:57 3.1 C 81 % 0.16 C
2528 08-03-2004 01:44:01 3.1 C 81 % 0.16 C
2529 08-03-2004 01:56:01 3.1 C 80 % -0.01 C
2530 08-03-2004 02:08:01 3.1 C 80 % -0.01 C
2531 08-03-2004 02:20:01 3.2 C 80 % 0.09 C
2532 08-03-2004 02:32:00 3.2 C 80 % 0.09 C
2533 08-03-2004 02:44:00 3.2 C 80 % 0.09 C
2534 08-03-2004 02:57:03 3.1 C 80 % -0.01 C
2535 08-03-2004 03:09:03 3 C 80 % -0.1 C
2536 08-03-2004 03:21:03 3.1 C 81 % 0.16 C
2537 08-03-2004 03:33:00 3.1 C 81 % 0.16 C
2538 08-03-2004 03:45:00 3.1 C 81 % 0.16 C
2539 08-03-2004 03:57:00 3.1 C 81 % 0.16 C
2540 08-03-2004 04:09:00 3.1 C 81 % 0.16 C
2541 08-03-2004 04:21:59 2.8 C 82 % 0.04 C
2542 08-03-2004 04:33:58 3 C 82 % 0.24 C
2543 08-03-2004 04:45:01 2.9 C 82 % 0.14 C
2544 08-03-2004 04:57:01 2.8 C 82 % 0.04 C
2545 08-03-2004 05:09:00 2.9 C 83 % 0.31 C
2546 08-03-2004 05:21:00 3.1 C 82 % 0.33 C
2547 08-03-2004 05:33:00 3.1 C 82 % 0.33 C
2548 08-03-2004 05:45:01 3.1 C 82 % 0.33 C
2549 08-03-2004 05:57:01 2.9 C 83 % 0.31 C
2550 08-03-2004 06:09:01 3.1 C 82 % 0.33 C
Sensor: Nr:Datum:Temp:Feuchte:Taupunkt:
Aussen-T/F 2551 08-03-2004 06:21:01 2.8 C 82 % 0.04 C
2552 08-03-2004 06:33:01 2.8 C 83 % 0.21 C
2553 08-03-2004 06:45:01 2.8 C 82 % 0.04 C
2554 08-03-2004 06:57:01 2.8 C 81 % -0.13 C
2555 08-03-2004 07:09:01 2.7 C 80 % -0.4 C
2556 08-03-2004 07:21:01 2.7 C 78 % -0.74 C
2557 08-03-2004 07:33:01 2.5 C 75 % -1.47 C
2558 08-03-2004 07:45:01 2.4 C 74 % -1.75 C
2559 08-03-2004 07:57:01 2.3 C 72 % -2.22 C
2560 08-03-2004 08:09:00 2.2 C 71 % -2.5 C
2561 08-03-2004 08:21:59 2.3 C 71 % -2.4 C
2562 08-03-2004 08:33:58 2.2 C 70 % -2.69 C
2563 08-03-2004 08:45:01 2.3 C 70 % -2.59 C
2564 08-03-2004 08:57:01 2.4 C 69 % -2.69 C
2565 08-03-2004 09:09:01 2.4 C 68 % -2.89 C
2566 08-03-2004 09:21:01 2.4 C 66 % -3.29 C
2567 08-03-2004 09:33:01 2.4 C 65 % -3.49 C
2568 08-03-2004 09:45:00 2.4 C 65 % -3.49 C
2569 08-03-2004 09:57:00 2.6 C 65 % -3.3 C
2570 08-03-2004 10:09:00 3.1 C 64 % -3.03 C
2571 08-03-2004 10:21:58 3.4 C 60 % -3.61 C
2572 08-03-2004 10:33:57 3.6 C 60 % -3.42 C
2573 08-03-2004 10:45:01 3.6 C 58 % -3.87 C
2574 08-03-2004 10:57:01 3.5 C 57 % -4.2 C
2575 08-03-2004 11:09:01 3.7 C 58 % -3.78 C
Sensor: Nr:Datum:Temp:Feuchte:Taupunkt:
Aussen-T/F 2576 08-03-2004 11:21:01 4 C 52 % -4.95 C
2577 08-03-2004 11:33:01 4.3 C 52 % -4.67 C
2578 08-03-2004 11:45:01 4 C 50 % -5.46 C
2579 08-03-2004 11:57:01 4 C 48 % -6 C
2580 08-03-2004 12:09:00 4.6 C 48 % -5.45 C
2581 08-03-2004 12:21:58 4.6 C 48 % -5.45 C
2582 08-03-2004 12:33:57 5.1 C 46 % -5.54 C
2583 08-03-2004 12:45:01 5.2 C 42 % -6.64 C
2584 08-03-2004 12:57:01 5 C 42 % -6.82 C
2585 08-03-2004 13:09:01 5.5 C 40 % -7 C
2586 08-03-2004 13:21:01 6.3 C 40 % -6.28 C
2587 08-03-2004 13:33:01 6 C 39 % -6.88 C
2588 08-03-2004 13:45:00 6.1 C 37 % -7.47 C
2589 08-03-2004 13:57:00 6.5 C 35 % -7.83 C
2590 08-03-2004 14:09:59 7 C 33 % -8.15 C
2591 08-03-2004 14:21:58 7.2 C 31 % -8.77 C
2592 08-03-2004 14:33:57 7.6 C 32 % -8.01 C
2593 08-03-2004 14:45:01 7.9 C 30 % -8.58 C
2594 08-03-2004 14:57:01 8.7 C 30 % -7.88 C
2595 08-03-2004 15:09:01 8.9 C 26 % -9.53 C
2596 08-03-2004 15:21:01 9 C 26 % -9.45 C
2597 08-03-2004 15:33:01 9.2 C 20 % -12.56 C
2598 08-03-2004 15:45:01 9 C 20 % -12.72 C
2599 08-03-2004 15:57:01 9.5 C 20 % -12.31 C
2600 08-03-2004 16:09:01 9.8 C 20 % -12.06 C
Sensor: Nr:Datum:Temp:Feuchte:Taupunkt:
Aussen-T/F 2601 08-03-2004 16:21:01 9.2 C 20 % -12.56 C
2602 08-03-2004 16:33:01 9.5 C 20 % -12.31 C
2603 08-03-2004 16:45:01 8.7 C 20 % -12.97 C
2604 08-03-2004 16:57:01 8.7 C 20 % -12.97 C
2605 08-03-2004 17:09:00 8.9 C 23 % -11.07 C
2606 08-03-2004 17:21:59 7.9 C 23 % -11.92 C
2607 08-03-2004 17:33:58 7.6 C 25 % -11.14 C
2608 08-03-2004 17:45:00 7.5 C 20 % -13.97 C
2609 08-03-2004 17:57:00 7.1 C 20 % -14.3 C
2610 08-03-2004 18:09:00 6.2 C 26 % -11.85 C
2611 08-03-2004 18:21:58 5.4 C 31 % -10.34 C
2612 08-03-2004 18:33:57 5.1 C 34 % -9.44 C
2613 08-03-2004 18:45:01 4.6 C 37 % -8.81 C
2614 08-03-2004 18:57:01 4.4 C 39 % -8.32 C
2615 08-03-2004 19:09:01 4.3 C 39 % -8.41 C
2616 08-03-2004 19:21:01 4.2 C 40 % -8.17 C
2617 08-03-2004 19:33:02 4 C 41 % -8.04 C
2618 08-03-2004 19:45:00 3.8 C 43 % -7.61 C
2619 08-03-2004 19:57:00 3.6 C 45 % -7.2 C
2620 08-03-2004 20:09:00 3.4 C 46 % -7.1 C
2621 08-03-2004 20:21:58 3.2 C 48 % -6.73 C
2622 08-03-2004 20:33:57 3 C 49 % -6.65 C
2623 08-03-2004 20:45:01 2.8 C 50 % -6.57 C
2624 08-03-2004 20:57:01 2.5 C 54 % -5.85 C
2625 08-03-2004 21:09:01 2.4 C 54 % -5.94 C
Sensor: Nr:Datum:Temp:Feuchte:Taupunkt:
Aussen-T/F 2626 08-03-2004 21:21:01 2.1 C 56 % -5.74 C
2627 08-03-2004 21:33:01 1.8 C 58 % -5.57 C
2628 08-03-2004 21:45:00 1.6 C 58 % -5.75 C
2629 08-03-2004 21:57:00 1.5 C 61 % -5.19 C
2630 08-03-2004 22:09:00 1.3 C 61 % -5.37 C
2631 08-03-2004 22:21:58 1.3 C 60 % -5.59 C
2632 08-03-2004 22:33:57 1.4 C 59 % -5.72 C
2633 08-03-2004 22:45:01 1.4 C 60 % -5.5 C
2634 08-03-2004 22:57:01 1.3 C 60 % -5.59 C
2635 08-03-2004 23:09:01 1.3 C 60 % -5.59 C
2636 08-03-2004 23:21:01 1.3 C 61 % -5.37 C
2637 08-03-2004 23:33:01 1.4 C 61 % -5.28 C
2638 08-03-2004 23:45:01 1.4 C 61 % -5.28 C
2639 08-03-2004 23:57:01 1.7 C 62 % -4.78 C
2640 09-03-2004 00:09:01 1.6 C 61 % -5.09 C
2641 09-03-2004 00:21:01 1.5 C 61 % -5.19 C
2642 09-03-2004 00:33:01 1.2 C 63 % -5.05 C
2643 09-03-2004 00:45:00 1.2 C 64 % -4.84 C
2644 09-03-2004 00:57:00 1.5 C 64 % -4.55 C
2645 09-03-2004 01:09:00 1.1 C 67 % -4.33 C
2646 09-03-2004 01:21:59 1 C 74 % -3.1 C
2647 09-03-2004 01:33:57 0.8 C 78 % -2.59 C
2648 09-03-2004 01:45:01 0.7 C 79 % -2.51 C
2649 09-03-2004 01:57:01 0.8 C 81 % -2.08 C
2650 09-03-2004 02:09:01 1.1 C 81 % -1.79 C
Sensor: Nr:Datum:Temp:Feuchte:Taupunkt:
Aussen-T/F 2651 09-03-2004 02:21:01 1.2 C 83 % -1.36 C
2652 09-03-2004 02:33:01 1.2 C 82 % -1.52 C
2653 09-03-2004 02:46:01 1.1 C 82 % -1.62 C
2654 09-03-2004 02:58:01 1.2 C 82 % -1.52 C
2655 09-03-2004 03:10:00 1 C 81 % -1.88 C
2656 09-03-2004 03:22:00 1.1 C 82 % -1.62 C
2657 09-03-2004 03:34:01 1 C 82 % -1.72 C
2658 09-03-2004 03:46:01 1.2 C 82 % -1.52 C
2659 09-03-2004 03:58:01 1.3 C 82 % -1.43 C
2660 09-03-2004 04:10:00 1 C 81 % -1.88 C
2661 09-03-2004 04:22:00 0.4 C 81 % -2.47 C
2662 09-03-2004 04:34:00 0.3 C 82 % -2.4 C
2663 09-03-2004 04:46:01 0.3 C 83 % -2.24 C
2664 09-03-2004 04:58:01 0.3 C 84 % -2.08 C
2665 09-03-2004 05:10:01 0.4 C 84 % -1.98 C
2666 09-03-2004 05:22:01 0.4 C 84 % -1.98 C
2667 09-03-2004 05:34:00 0.4 C 84 % -1.98 C
2668 09-03-2004 05:46:01 0.4 C 84 % -1.98 C
2669 09-03-2004 05:58:01 0.3 C 81 % -2.57 C
2670 09-03-2004 06:10:01 0.3 C 80 % -2.73 C
2671 09-03-2004 06:22:01 0.3 C 80 % -2.73 C
2672 09-03-2004 06:34:01 0.2 C 80 % -2.83 C
2673 09-03-2004 06:46:00 0.1 C 81 % -2.76 C
2674 09-03-2004 06:58:00 0 C 80 % -3.03 C
2675 09-03-2004 07:10:00 0 C 80 % -3.03 C
Sensor: Nr:Datum:Temp:Feuchte:Taupunkt:
Aussen-T/F 2676 09-03-2004 07:22:58 0.1 C 81 % -2.76 C
2677 09-03-2004 07:34:57 0.1 C 80 % -2.93 C
2678 09-03-2004 07:46:01 0.2 C 80 % -2.83 C
2679 09-03-2004 07:58:01 0.2 C 80 % -2.83 C
2680 09-03-2004 08:10:01 0.2 C 80 % -2.83 C
2681 09-03-2004 08:22:01 0.4 C 80 % -2.64 C
2682 09-03-2004 08:34:01 0.5 C 80 % -2.54 C
2683 09-03-2004 08:46:01 0.4 C 79 % -2.81 C
2684 09-03-2004 08:58:01 0.2 C 79 % -3 C
2685 09-03-2004 09:10:01 0 C 79 % -3.2 C
2686 09-03-2004 09:22:01 0 C 78 % -3.37 C
2687 09-03-2004 09:34:01 0.2 C 75 % -3.69 C
2688 09-03-2004 09:46:00 0.5 C 73 % -3.76 C
2689 09-03-2004 09:58:00 0.7 C 70 % -4.13 C
2690 09-03-2004 10:10:00 1.2 C 65 % -4.63 C
2691 09-03-2004 10:22:59 1.6 C 63 % -4.67 C
2692 09-03-2004 10:34:58 2.2 C 58 % -5.19 C
2693 09-03-2004 10:46:01 2 C 56 % -5.84 C
2694 09-03-2004 10:58:01 1.8 C 58 % -5.57 C
2695 09-03-2004 11:10:01 1.7 C 56 % -6.12 C
2696 09-03-2004 11:22:01 2.1 C 55 % -5.98 C
2697 09-03-2004 11:34:01 2.4 C 53 % -6.18 C
2698 09-03-2004 11:46:00 2.8 C 49 % -6.83 C
2699 09-03-2004 11:58:00 2.9 C 51 % -6.22 C
2700 09-03-2004 12:10:00 4 C 51 % -5.2 C
Sensor: Nr:Datum:Temp:Feuchte:Taupunkt:
Aussen-T/F 2701 09-03-2004 12:22:58 4 C 46 % -6.55 C
2702 09-03-2004 12:34:57 4 C 48 % -6 C
2703 09-03-2004 12:46:01 4.1 C 47 % -6.18 C
2704 09-03-2004 12:58:01 4 C 47 % -6.27 C
2705 09-03-2004 13:10:01 3.9 C 49 % -5.82 C
2706 09-03-2004 13:22:01 4.3 C 47 % -6 C
2707 09-03-2004 13:34:01 4.7 C 44 % -6.49 C
2708 09-03-2004 13:46:00 4.7 C 41 % -7.4 C
2709 09-03-2004 13:58:00 4.8 C 43 % -6.7 C
2710 09-03-2004 14:10:59 4.7 C 42 % -7.09 C
2711 09-03-2004 14:22:58 4.8 C 43 % -6.7 C
2712 09-03-2004 14:34:57 4.9 C 43 % -6.61 C
2713 09-03-2004 14:46:01 4.8 C 43 % -6.7 C
2714 09-03-2004 14:58:01 5.1 C 42 % -6.73 C
2715 09-03-2004 15:10:01 5.1 C 40 % -7.36 C
2716 09-03-2004 15:22:01 4.8 C 39 % -7.96 C
2717 09-03-2004 15:34:01 4.6 C 41 % -7.49 C
2718 09-03-2004 15:46:01 4.5 C 41 % -7.58 C
2719 09-03-2004 15:58:01 4.5 C 40 % -7.9 C
2720 09-03-2004 16:10:01 4.8 C 39 % -7.96 C
2721 09-03-2004 16:22:01 5 C 37 % -8.45 C
2722 09-03-2004 16:34:01 4.7 C 38 % -8.38 C
2723 09-03-2004 16:46:01 4.3 C 38 % -8.74 C
2724 09-03-2004 16:58:01 4.5 C 39 % -8.23 C
2725 09-03-2004 17:10:00 4.4 C 41 % -7.68 C
Sensor: Nr:Datum:Temp:Feuchte:Taupunkt:
Aussen-T/F 2726 09-03-2004 17:22:58 3.9 C 40 % -8.44 C
2727 09-03-2004 17:34:57 3.8 C 40 % -8.53 C
2728 09-03-2004 17:46:01 3.6 C 40 % -8.71 C
2729 09-03-2004 17:58:01 3.5 C 42 % -8.18 C
2730 09-03-2004 18:10:02 3.2 C 42 % -8.45 C
2731 09-03-2004 18:22:02 2.9 C 48 % -7.01 C
2732 09-03-2004 18:34:02 2.7 C 46 % -7.74 C
2733 09-03-2004 18:46:03 2.4 C 48 % -7.47 C
2734 09-03-2004 18:58:03 2.2 C 49 % -7.39 C
2735 09-03-2004 19:10:01 2 C 50 % -7.31 C
2736 09-03-2004 19:22:59 1.7 C 52 % -7.08 C
2737 09-03-2004 19:34:58 1.3 C 53 % -7.21 C
2738 09-03-2004 19:46:02 1 C 54 % -7.24 C
2739 09-03-2004 19:58:02 0.7 C 58 % -6.6 C
2740 09-03-2004 20:10:01 0.4 C 59 % -6.66 C
2741 09-03-2004 20:22:01 0.3 C 61 % -6.32 C
2742 09-03-2004 20:34:01 0.1 C 62 % -6.3 C
2743 09-03-2004 20:46:01 0.1 C 63 % -6.09 C
2744 09-03-2004 20:58:01 0.1 C 64 % -5.88 C
2745 09-03-2004 21:10:01 -0.2 C 65 % -5.97 C
2746 09-03-2004 21:22:01 -0.3 C 65 % -6.07 C
2747 09-03-2004 21:34:01 -0.4 C 66 % -5.96 C
2748 09-03-2004 21:46:00 -0.3 C 65 % -6.07 C
2749 09-03-2004 21:58:00 -0.3 C 64 % -6.27 C
2750 09-03-2004 22:10:00 -0.3 C 64 % -6.27 C
Sensor: Nr:Datum:Temp:Feuchte:Taupunkt:
Aussen-T/F 2751 09-03-2004 22:22:59 -0.3 C 65 % -6.07 C
2752 09-03-2004 22:34:57 -0.2 C 65 % -5.97 C
2753 09-03-2004 22:46:01 -0.4 C 65 % -6.16 C
2754 09-03-2004 22:58:01 -0.4 C 66 % -5.96 C
2755 09-03-2004 23:10:01 -0.5 C 66 % -6.06 C
2756 09-03-2004 23:22:01 -0.6 C 66 % -6.16 C
2757 09-03-2004 23:34:01 -0.8 C 67 % -6.15 C
2758 09-03-2004 23:46:00 -0.7 C 68 % -5.86 C
2759 09-03-2004 23:58:00 -0.9 C 68 % -6.05 C
2760 10-03-2004 00:09:59 -0.6 C 69 % -5.57 C
2761 10-03-2004 00:22:58 -0.6 C 69 % -5.57 C
2762 10-03-2004 00:34:57 -0.7 C 69 % -5.67 C
2763 10-03-2004 00:46:01 -0.7 C 69 % -5.67 C
2764 10-03-2004 00:58:01 -0.5 C 70 % -5.29 C
2765 10-03-2004 01:10:01 -0.5 C 68 % -5.67 C
2766 10-03-2004 01:22:01 -0.7 C 69 % -5.67 C
2767 10-03-2004 01:34:01 -0.8 C 70 % -5.58 C
2768 10-03-2004 01:46:01 -0.7 C 71 % -5.29 C
2769 10-03-2004 01:58:01 -0.5 C 71 % -5.1 C
2770 10-03-2004 02:10:01 -0.4 C 71 % -5.01 C
2771 10-03-2004 02:22:01 -0.3 C 71 % -4.91 C
2772 10-03-2004 02:34:01 -0.2 C 71 % -4.81 C
2773 10-03-2004 02:47:01 -0.2 C 71 % -4.81 C
2774 10-03-2004 02:59:01 -0.2 C 72 % -4.63 C
2775 10-03-2004 03:11:00 -0.2 C 72 % -4.63 C
Sensor: Nr:Datum:Temp:Feuchte:Taupunkt:
Aussen-T/F 2776 10-03-2004 03:23:00 -0.2 C 74 % -4.26 C
2777 10-03-2004 03:35:01 -0.3 C 74 % -4.36 C
2778 10-03-2004 03:47:01 -0.3 C 76 % -4.01 C
2779 10-03-2004 03:59:01 -0.3 C 76 % -4.01 C
2780 10-03-2004 04:11:01 -0.2 C 76 % -3.91 C
2781 10-03-2004 04:23:00 -0.3 C 76 % -4.01 C
2782 10-03-2004 04:35:00 -0.2 C 77 % -3.74 C
2783 10-03-2004 04:47:01 -0.2 C 78 % -3.56 C
2784 10-03-2004 04:59:01 -0.3 C 78 % -3.66 C
2785 10-03-2004 05:11:01 -0.2 C 79 % -3.39 C
2786 10-03-2004 05:23:01 -0.3 C 79 % -3.49 C
2787 10-03-2004 05:35:01 -0.4 C 79 % -3.59 C
2788 10-03-2004 05:47:01 -0.4 C 79 % -3.59 C
2789 10-03-2004 05:59:01 -0.4 C 79 % -3.59 C
2790 10-03-2004 06:11:01 -0.4 C 79 % -3.59 C
2791 10-03-2004 06:23:01 -0.4 C 79 % -3.59 C
2792 10-03-2004 06:35:01 -0.4 C 79 % -3.59 C
2793 10-03-2004 06:47:00 -0.3 C 79 % -3.49 C
2794 10-03-2004 06:59:00 -0.3 C 79 % -3.49 C
2795 10-03-2004 07:11:00 -0.3 C 78 % -3.66 C
2796 10-03-2004 07:23:58 -0.4 C 78 % -3.76 C
2797 10-03-2004 07:35:57 -0.3 C 78 % -3.66 C
2798 10-03-2004 07:47:02 -0.3 C 78 % -3.66 C
2799 10-03-2004 07:59:02 -0.2 C 79 % -3.39 C
2800 10-03-2004 08:11:01 0 C 79 % -3.2 C
Sensor: Nr:Datum:Temp:Feuchte:Taupunkt:
Aussen-T/F 2801 10-03-2004 08:23:01 0 C 79 % -3.2 C
2802 10-03-2004 08:35:01 0.1 C 79 % -3.1 C
2803 10-03-2004 08:47:00 0.2 C 79 % -3 C
2804 10-03-2004 08:59:00 0.4 C 78 % -2.98 C
2805 10-03-2004 09:11:00 0.6 C 77 % -2.96 C
2806 10-03-2004 09:23:58 0.7 C 77 % -2.86 C
2807 10-03-2004 09:35:57 0.7 C 75 % -3.21 C
2808 10-03-2004 09:47:01 1 C 74 % -3.1 C
2809 10-03-2004 09:59:01 1 C 74 % -3.1 C
2810 10-03-2004 10:11:01 1.1 C 74 % -3 C
2811 10-03-2004 10:23:01 1.1 C 73 % -3.19 C
2812 10-03-2004 10:35:01 1.2 C 73 % -3.09 C
2813 10-03-2004 10:47:01 1.2 C 73 % -3.09 C
2814 10-03-2004 10:59:01 1.2 C 74 % -2.91 C
2815 10-03-2004 11:11:01 1.6 C 75 % -2.34 C
2816 10-03-2004 11:23:01 1.8 C 74 % -2.33 C
2817 10-03-2004 11:35:01 1.9 C 73 % -2.41 C
2818 10-03-2004 11:47:00 1.9 C 73 % -2.41 C
2819 10-03-2004 11:59:00 1.9 C 74 % -2.23 C
2820 10-03-2004 12:11:00 1.9 C 75 % -2.05 C
2821 10-03-2004 12:23:59 2.2 C 73 % -2.13 C
2822 10-03-2004 12:35:58 2 C 72 % -2.5 C
2823 10-03-2004 12:47:01 1.7 C 74 % -2.42 C
2824 10-03-2004 12:59:01 2 C 74 % -2.13 C
2825 10-03-2004 13:11:02 2 C 73 % -2.32 C
Sensor: Nr:Datum:Temp:Feuchte:Taupunkt:
Aussen-T/F 2826 10-03-2004 13:23:01 2.3 C 74 % -1.85 C
2827 10-03-2004 13:35:01 2.4 C 73 % -1.93 C
2828 10-03-2004 13:47:00 2.2 C 72 % -2.31 C
2829 10-03-2004 13:59:00 2.4 C 70 % -2.5 C
2830 10-03-2004 14:11:00 2.7 C 68 % -2.6 C
2831 10-03-2004 14:23:58 2.3 C 70 % -2.59 C
2832 10-03-2004 14:35:57 2.5 C 71 % -2.21 C
2833 10-03-2004 14:47:01 2.8 C 71 % -1.92 C
2834 10-03-2004 14:59:01 3.4 C 67 % -2.13 C
2835 10-03-2004 15:11:01 3.6 C 66 % -2.14 C
2836 10-03-2004 15:23:01 3.4 C 66 % -2.33 C
2837 10-03-2004 15:35:01 3.2 C 66 % -2.53 C
2838 10-03-2004 15:47:00 3.2 C 66 % -2.53 C
2839 10-03-2004 15:59:00 3.4 C 66 % -2.33 C
2840 10-03-2004 16:11:59 3.2 C 66 % -2.53 C
2841 10-03-2004 16:23:58 3 C 66 % -2.72 C
2842 10-03-2004 16:35:57 3 C 67 % -2.51 C
2843 10-03-2004 16:47:01 3.2 C 67 % -2.32 C
2844 10-03-2004 16:59:01 2.7 C 68 % -2.6 C
2845 10-03-2004 17:11:01 2.2 C 71 % -2.5 C
2846 10-03-2004 17:23:01 2.2 C 74 % -1.94 C
2847 10-03-2004 17:35:00 2.2 C 74 % -1.94 C
2848 10-03-2004 17:47:01 2.1 C 75 % -1.86 C
2849 10-03-2004 17:59:01 2 C 75 % -1.95 C
2850 10-03-2004 18:11:01 1.8 C 76 % -1.97 C
Sensor: Nr:Datum:Temp:Feuchte:Taupunkt:
Aussen-T/F 2851 10-03-2004 18:23:01 1.7 C 77 % -1.89 C
2852 10-03-2004 18:35:01 1.4 C 78 % -2.01 C
2853 10-03-2004 18:47:00 1.3 C 79 % -1.93 C
2854 10-03-2004 18:59:00 1.3 C 79 % -1.93 C
2855 10-03-2004 19:11:00 1.3 C 79 % -1.93 C
2856 10-03-2004 19:23:01 1.2 C 79 % -2.03 C
2857 10-03-2004 19:35:00 1.2 C 80 % -1.86 C
2858 10-03-2004 19:47:01 1.2 C 80 % -1.86 C
2859 10-03-2004 19:59:01 1.3 C 81 % -1.59 C
2860 10-03-2004 20:11:02 1.4 C 81 % -1.49 C
2861 10-03-2004 20:23:01 1.1 C 80 % -1.96 C
2862 10-03-2004 20:35:01 0.7 C 80 % -2.34 C
2863 10-03-2004 20:47:01 0.5 C 81 % -2.37 C
2864 10-03-2004 20:59:01 0.5 C 82 % -2.21 C
2865 10-03-2004 21:11:00 0.6 C 82 % -2.11 C
2866 10-03-2004 21:23:59 0.7 C 82 % -2.01 C
2867 10-03-2004 21:35:58 0.6 C 83 % -1.95 C
2868 10-03-2004 21:47:01 0.6 C 84 % -1.78 C
2869 10-03-2004 21:59:01 0.5 C 84 % -1.88 C
2870 10-03-2004 22:11:01 0.6 C 85 % -1.62 C
2871 10-03-2004 22:23:01 0.7 C 85 % -1.53 C
2872 10-03-2004 22:35:01 0.7 C 85 % -1.53 C
2873 10-03-2004 22:47:00 0.6 C 84 % -1.78 C
2874 10-03-2004 22:59:00 0.5 C 84 % -1.88 C
2875 10-03-2004 23:11:00 0.3 C 84 % -2.08 C
Sensor: Nr:Datum:Temp:Feuchte:Taupunkt:
Aussen-T/F 2876 10-03-2004 23:23:58 0.2 C 84 % -2.18 C
2877 10-03-2004 23:35:57 -0.2 C 84 % -2.57 C
2878 10-03-2004 23:47:01 -0.3 C 84 % -2.67 C
2879 10-03-2004 23:59:01 -0.3 C 84 % -2.67 C
2880 11-03-2004 00:11:01 -0.4 C 84 % -2.77 C
2881 11-03-2004 00:23:01 -0.7 C 83 % -3.22 C
2882 11-03-2004 00:35:01 -0.8 C 83 % -3.32 C
2883 11-03-2004 00:47:01 -1 C 83 % -3.51 C
2884 11-03-2004 00:59:01 -1.1 C 83 % -3.61 C
2885 11-03-2004 01:11:01 -1.1 C 83 % -3.61 C
2886 11-03-2004 01:23:01 -1.3 C 83 % -3.81 C
2887 11-03-2004 01:35:01 -1.3 C 84 % -3.65 C
2888 11-03-2004 01:47:00 -1.3 C 83 % -3.81 C
2889 11-03-2004 01:59:00 -1.3 C 83 % -3.81 C
2890 11-03-2004 02:11:00 -1.4 C 83 % -3.91 C
2891 11-03-2004 02:23:59 -1.1 C 84 % -3.45 C
2892 11-03-2004 02:35:57 -1 C 84 % -3.35 C
2893 11-03-2004 02:48:02 -0.8 C 85 % -3 C
2894 11-03-2004 03:00:02 -0.8 C 85 % -3 C
2895 11-03-2004 03:12:02 -0.8 C 84 % -3.16 C
2896 11-03-2004 03:24:02 -0.7 C 84 % -3.06 C
2897 11-03-2004 03:36:00 -0.7 C 84 % -3.06 C
2898 11-03-2004 03:48:00 -0.7 C 84 % -3.06 C
2899 11-03-2004 04:00:00 -0.7 C 84 % -3.06 C
2900 11-03-2004 04:12:59 -0.7 C 84 % -3.06 C
Sensor: Nr:Datum:Temp:Feuchte:Taupunkt:
Aussen-T/F 2901 11-03-2004 04:24:58 -0.7 C 84 % -3.06 C
2902 11-03-2004 04:36:57 -0.6 C 84 % -2.96 C
2903 11-03-2004 04:48:01 -0.7 C 84 % -3.06 C
2904 11-03-2004 05:00:01 -0.7 C 84 % -3.06 C
2905 11-03-2004 05:12:01 -0.7 C 84 % -3.06 C
2906 11-03-2004 05:24:01 -0.7 C 84 % -3.06 C
2907 11-03-2004 05:36:01 -0.7 C 84 % -3.06 C
2908 11-03-2004 05:48:01 -0.6 C 83 % -3.12 C
2909 11-03-2004 06:00:01 -0.7 C 83 % -3.22 C
2910 11-03-2004 06:12:01 -0.7 C 83 % -3.22 C
2911 11-03-2004 06:24:01 -0.6 C 83 % -3.12 C
2912 11-03-2004 06:36:01 -0.6 C 83 % -3.12 C
2913 11-03-2004 06:48:00 -0.6 C 83 % -3.12 C
2914 11-03-2004 07:00:00 -0.7 C 83 % -3.22 C
2915 11-03-2004 07:12:00 -0.7 C 82 % -3.38 C
2916 11-03-2004 07:24:59 -0.7 C 82 % -3.38 C
2917 11-03-2004 07:36:58 -0.7 C 82 % -3.38 C
2918 11-03-2004 07:48:01 -0.5 C 82 % -3.19 C
2919 11-03-2004 08:00:01 -0.5 C 82 % -3.19 C
2920 11-03-2004 08:12:01 -0.5 C 82 % -3.19 C
2921 11-03-2004 08:24:01 -0.3 C 82 % -2.99 C
2922 11-03-2004 08:36:01 -0.3 C 81 % -3.16 C
2923 11-03-2004 08:48:01 -0.1 C 81 % -2.96 C
2924 11-03-2004 09:00:01 -0.1 C 81 % -2.96 C
2925 11-03-2004 09:12:01 0 C 80 % -3.03 C
Sensor: Nr:Datum:Temp:Feuchte:Taupunkt:
Aussen-T/F 2926 11-03-2004 09:24:01 0.1 C 80 % -2.93 C
2927 11-03-2004 09:36:01 0.4 C 80 % -2.64 C
2928 11-03-2004 09:48:00 1 C 78 % -2.39 C
2929 11-03-2004 10:00:00 1.2 C 77 % -2.37 C
2930 11-03-2004 10:12:00 1.2 C 77 % -2.37 C
2931 11-03-2004 10:24:58 1.6 C 76 % -2.16 C
2932 11-03-2004 10:36:57 2 C 75 % -1.95 C
2933 11-03-2004 10:48:02 2 C 71 % -2.69 C
2934 11-03-2004 11:00:02 2.5 C 71 % -2.21 C
2935 11-03-2004 11:12:01 2.7 C 70 % -2.21 C
2936 11-03-2004 11:24:01 2.7 C 69 % -2.4 C
2937 11-03-2004 11:36:01 2.9 C 69 % -2.21 C
2938 11-03-2004 11:48:01 3.2 C 68 % -2.12 C
2939 11-03-2004 12:00:01 3.1 C 67 % -2.42 C
2940 11-03-2004 12:12:02 2.9 C 66 % -2.81 C
2941 11-03-2004 12:24:01 3.1 C 64 % -3.03 C
2942 11-03-2004 12:36:01 2.9 C 65 % -3.02 C
2943 11-03-2004 12:48:00 3.5 C 63 % -2.86 C
2944 11-03-2004 13:00:00 4 C 60 % -3.05 C
2945 11-03-2004 13:12:00 4.1 C 61 % -2.73 C
2946 11-03-2004 13:24:59 3.6 C 61 % -3.2 C
2947 11-03-2004 13:36:57 3.8 C 63 % -2.58 C
2948 11-03-2004 13:48:01 3.6 C 60 % -3.42 C
2949 11-03-2004 14:00:01 4.1 C 57 % -3.64 C
2950 11-03-2004 14:12:01 4.5 C 57 % -3.26 C
Sensor: Nr:Datum:Temp:Feuchte:Taupunkt:
Aussen-T/F 2951 11-03-2004 14:24:01 4.7 C 58 % -2.84 C
2952 11-03-2004 14:36:01 4.1 C 55 % -4.11 C
2953 11-03-2004 14:48:00 4.1 C 60 % -2.95 C
2954 11-03-2004 15:00:00 4.2 C 59 % -3.08 C
2955 11-03-2004 15:11:59 4.3 C 58 % -3.22 C
2956 11-03-2004 15:24:58 4.3 C 55 % -3.93 C
2957 11-03-2004 15:36:57 3.9 C 60 % -3.14 C
2958 11-03-2004 15:48:01 3.2 C 64 % -2.94 C
2959 11-03-2004 16:00:01 3.1 C 67 % -2.42 C
2960 11-03-2004 16:12:01 3 C 70 % -1.92 C
2961 11-03-2004 16:24:01 2.9 C 72 % -1.64 C
2962 11-03-2004 16:36:01 2.7 C 74 % -1.46 C
2963 11-03-2004 16:48:01 2.7 C 75 % -1.28 C
2964 11-03-2004 17:00:01 2.6 C 75 % -1.37 C
2965 11-03-2004 17:12:01 2.6 C 76 % -1.19 C
2966 11-03-2004 17:24:01 2.3 C 77 % -1.31 C
2967 11-03-2004 17:36:01 2.2 C 77 % -1.4 C
2968 11-03-2004 17:48:01 2.4 C 79 % -0.86 C
2969 11-03-2004 18:00:01 2.3 C 79 % -0.96 C
2970 11-03-2004 18:12:01 2.2 C 79 % -1.05 C
2971 11-03-2004 18:24:02 1.9 C 80 % -1.18 C
2972 11-03-2004 18:36:02 1.9 C 80 % -1.18 C
2973 11-03-2004 18:48:02 1.7 C 81 % -1.2 C
2974 11-03-2004 19:00:02 1.4 C 81 % -1.49 C
2975 11-03-2004 19:12:02 1.3 C 82 % -1.43 C
Sensor: Nr:Datum:Temp:Feuchte:Taupunkt:
Aussen-T/F 2976 11-03-2004 19:24:01 1.2 C 82 % -1.52 C
2977 11-03-2004 19:36:02 1.1 C 82 % -1.62 C
2978 11-03-2004 19:48:02 1.3 C 83 % -1.26 C
2979 11-03-2004 20:00:02 1.2 C 83 % -1.36 C
2980 11-03-2004 20:12:02 1.2 C 83 % -1.36 C
2981 11-03-2004 20:24:01 1.2 C 83 % -1.36 C
2982 11-03-2004 20:36:01 1.2 C 83 % -1.36 C
2983 11-03-2004 20:48:01 1.3 C 84 % -1.1 C
2984 11-03-2004 21:00:01 1.4 C 84 % -1 C
2985 11-03-2004 21:12:00 1.3 C 84 % -1.1 C
2986 11-03-2004 21:24:59 1.4 C 83 % -1.16 C
2987 11-03-2004 21:36:58 1.3 C 83 % -1.26 C
2988 11-03-2004 21:48:01 1.3 C 83 % -1.26 C
2989 11-03-2004 22:00:01 1.3 C 83 % -1.26 C
2990 11-03-2004 22:12:01 1.3 C 83 % -1.26 C
2991 11-03-2004 22:24:02 1.3 C 83 % -1.26 C
2992 11-03-2004 22:36:01 1.3 C 82 % -1.43 C
2993 11-03-2004 22:48:01 1.3 C 83 % -1.26 C
2994 11-03-2004 23:00:01 1.2 C 82 % -1.52 C
2995 11-03-2004 23:12:01 1.2 C 83 % -1.36 C
2996 11-03-2004 23:24:59 1.3 C 83 % -1.26 C
2997 11-03-2004 23:36:58 1.2 C 83 % -1.36 C
2998 11-03-2004 23:48:01 1.2 C 83 % -1.36 C
2999 12-03-2004 00:00:01 1.1 C 82 % -1.62 C
3000 12-03-2004 00:12:01 1.2 C 82 % -1.52 C
Sensor: Nr:Datum:Temp:Feuchte:Taupunkt:
Aussen-T/F 3001 12-03-2004 00:24:00 1.2 C 82 % -1.52 C
3002 12-03-2004 00:36:00 1.1 C 82 % -1.62 C
3003 12-03-2004 00:48:01 1.1 C 82 % -1.62 C
3004 12-03-2004 01:00:01 1 C 82 % -1.72 C
3005 12-03-2004 01:12:01 1 C 82 % -1.72 C
3006 12-03-2004 01:24:00 0.9 C 82 % -1.82 C
3007 12-03-2004 01:36:00 0.9 C 82 % -1.82 C
3008 12-03-2004 01:48:01 0.9 C 82 % -1.82 C
3009 12-03-2004 02:00:01 0.9 C 82 % -1.82 C
3010 12-03-2004 02:12:01 0.9 C 82 % -1.82 C
3011 12-03-2004 02:24:01 0.5 C 81 % -2.37 C
3012 12-03-2004 02:36:01 0.3 C 81 % -2.57 C
3013 12-03-2004 02:49:02 0.1 C 80 % -2.93 C
3014 12-03-2004 03:01:02 -0.4 C 80 % -3.42 C
3015 12-03-2004 03:13:02 -0.7 C 80 % -3.71 C
3016 12-03-2004 03:25:02 -0.9 C 81 % -3.74 C
3017 12-03-2004 03:37:00 -1 C 82 % -3.68 C
3018 12-03-2004 03:49:00 -1.2 C 82 % -3.87 C
3019 12-03-2004 04:01:00 -1.3 C 82 % -3.97 C
3020 12-03-2004 04:13:00 -1.2 C 83 % -3.71 C
3021 12-03-2004 04:25:59 -1.1 C 83 % -3.61 C
3022 12-03-2004 04:37:58 -1.1 C 83 % -3.61 C
3023 12-03-2004 04:49:01 -1 C 83 % -3.51 C
3024 12-03-2004 05:01:01 -1 C 84 % -3.35 C
3025 12-03-2004 05:13:01 -0.8 C 84 % -3.16 C
Sensor: Nr:Datum:Temp:Feuchte:Taupunkt:
Aussen-T/F 3026 12-03-2004 05:25:01 -0.7 C 84 % -3.06 C
3027 12-03-2004 05:37:00 -0.6 C 84 % -2.96 C
3028 12-03-2004 05:49:01 -0.4 C 83 % -2.93 C
3029 12-03-2004 06:01:01 -0.4 C 82 % -3.09 C
3030 12-03-2004 06:13:01 -0.6 C 81 % -3.45 C
3031 12-03-2004 06:25:01 -0.5 C 81 % -3.35 C
3032 12-03-2004 06:37:01 -0.4 C 81 % -3.25 C
3033 12-03-2004 06:49:00 -0.1 C 78 % -3.47 C
3034 12-03-2004 07:01:59 -0.1 C 77 % -3.64 C
3035 12-03-2004 07:12:59 -0.2 C 78 % -3.56 C
3036 12-03-2004 07:25:59 0 C 78 % -3.37 C
3037 12-03-2004 07:37:58 0 C 78 % -3.37 C
3038 12-03-2004 07:49:01 0.3 C 76 % -3.42 C
3039 12-03-2004 08:01:00 0.6 C 74 % -3.49 C
3040 12-03-2004 08:13:00 1 C 70 % -3.84 C
3041 12-03-2004 08:25:00 1.2 C 69 % -3.84 C
3042 12-03-2004 08:37:01 1.5 C 69 % -3.55 C
3043 12-03-2004 08:49:01 1.7 C 67 % -3.75 C
3044 12-03-2004 09:01:01 1.7 C 65 % -4.16 C
3045 12-03-2004 09:13:01 1.8 C 65 % -4.06 C
3046 12-03-2004 09:25:01 2.2 C 65 % -3.68 C
3047 12-03-2004 09:37:01 2.3 C 61 % -4.43 C
3048 12-03-2004 09:49:01 2.4 C 61 % -4.34 C
3049 12-03-2004 10:01:01 2.9 C 61 % -3.86 C
3050 12-03-2004 10:13:01 3.3 C 58 % -4.16 C
Sensor: Nr:Datum:Temp:Feuchte:Taupunkt:
Aussen-T/F 3051 12-03-2004 10:25:02 3.6 C 56 % -4.34 C
3052 12-03-2004 10:37:01 4.2 C 54 % -4.26 C
3053 12-03-2004 10:49:00 4.2 C 54 % -4.26 C
3054 12-03-2004 11:01:00 4.5 C 53 % -4.23 C
3055 12-03-2004 11:13:00 4.3 C 52 % -4.67 C
3056 12-03-2004 11:25:59 4.5 C 54 % -3.98 C
3057 12-03-2004 11:37:57 4.7 C 52 % -4.3 C
3058 12-03-2004 11:49:01 5.4 C 51 % -3.91 C
3059 12-03-2004 12:01:01 5.9 C 48 % -4.25 C
3060 12-03-2004 12:13:01 5.9 C 48 % -4.25 C
3061 12-03-2004 12:25:01 6 C 46 % -4.72 C
3062 12-03-2004 12:37:01 6 C 44 % -5.31 C
3063 12-03-2004 12:49:00 6.7 C 43 % -4.97 C
3064 12-03-2004 13:01:00 6.5 C 43 % -5.16 C
3065 12-03-2004 13:13:00 6.2 C 43 % -5.43 C
3066 12-03-2004 13:25:58 6 C 44 % -5.31 C
3067 12-03-2004 13:37:57 6.2 C 45 % -4.83 C
3068 12-03-2004 13:49:01 6.3 C 43 % -5.34 C
3069 12-03-2004 14:01:01 6.5 C 42 % -5.46 C
3070 12-03-2004 14:13:01 6.6 C 43 % -5.07 C
3071 12-03-2004 14:25:01 6.3 C 43 % -5.34 C
3072 12-03-2004 14:37:01 6.3 C 43 % -5.34 C
3073 12-03-2004 14:49:02 6.6 C 44 % -4.76 C
3074 12-03-2004 15:01:01 6.5 C 45 % -4.56 C
3075 12-03-2004 15:13:01 6.4 C 45 % -4.65 C
Sensor: Nr:Datum:Temp:Feuchte:Taupunkt:
Aussen-T/F 3076 12-03-2004 15:25:01 6.5 C 44 % -4.85 C
3077 12-03-2004 15:37:02 6.5 C 43 % -5.16 C
3078 12-03-2004 15:49:01 6.4 C 42 % -5.56 C
3079 12-03-2004 16:01:01 6.2 C 42 % -5.74 C
3080 12-03-2004 16:13:01 6.2 C 42 % -5.74 C
3081 12-03-2004 16:25:01 6.2 C 41 % -6.05 C
3082 12-03-2004 16:37:01 6.2 C 41 % -6.05 C
3083 12-03-2004 16:49:00 6.2 C 43 % -5.43 C
3084 12-03-2004 17:01:00 5.9 C 47 % -4.53 C
3085 12-03-2004 17:13:00 5.8 C 48 % -4.34 C
3086 12-03-2004 17:25:59 5.7 C 49 % -4.16 C
3087 12-03-2004 17:37:58 5.9 C 49 % -3.98 C
3088 12-03-2004 17:49:01 5.9 C 49 % -3.98 C
3089 12-03-2004 18:01:01 5.9 C 50 % -3.71 C
3090 12-03-2004 18:13:01 5.9 C 51 % -3.44 C
3091 12-03-2004 18:25:01 5.9 C 52 % -3.19 C
3092 12-03-2004 18:37:00 5.9 C 54 % -2.68 C
3093 12-03-2004 18:49:01 5.9 C 55 % -2.43 C
3094 12-03-2004 19:01:01 5.7 C 59 % -1.67 C
3095 12-03-2004 19:13:01 5.6 C 62 % -1.09 C
3096 12-03-2004 19:25:01 5.6 C 62 % -1.09 C
3097 12-03-2004 19:37:01 5.8 C 62 % -0.9 C
3098 12-03-2004 19:49:01 5.8 C 62 % -0.9 C
3099 12-03-2004 20:01:02 5.5 C 66 % -0.33 C
3100 12-03-2004 20:13:02 5.5 C 67 % -0.13 C
Sensor: Nr:Datum:Temp:Feuchte:Taupunkt:
Aussen-T/F 3101 12-03-2004 20:25:02 5.7 C 68 % 0.27 C
3102 12-03-2004 20:37:01 5.7 C 69 % 0.47 C
3103 12-03-2004 20:49:02 5.8 C 69 % 0.56 C
3104 12-03-2004 21:01:01 5.9 C 68 % 0.46 C
3105 12-03-2004 21:13:01 6 C 67 % 0.35 C
3106 12-03-2004 21:25:02 6 C 67 % 0.35 C
3107 12-03-2004 21:37:02 6.1 C 67 % 0.44 C
3108 12-03-2004 21:49:01 6.1 C 67 % 0.44 C
3109 12-03-2004 22:01:00 6.2 C 67 % 0.54 C
3110 12-03-2004 22:13:00 6.2 C 67 % 0.54 C
3111 12-03-2004 22:25:00 6.2 C 68 % 0.75 C
3112 12-03-2004 22:37:58 6.1 C 68 % 0.65 C
3113 12-03-2004 22:49:01 6 C 69 % 0.76 C
3114 12-03-2004 23:01:01 6.1 C 69 % 0.85 C
3115 12-03-2004 23:13:01 6.2 C 69 % 0.95 C
3116 12-03-2004 23:25:01 6.1 C 69 % 0.85 C
3117 12-03-2004 23:37:01 6.1 C 70 % 1.05 C
3118 12-03-2004 23:49:00 6 C 70 % 0.95 C
3119 13-03-2004 00:01:00 6.4 C 70 % 1.34 C
3120 13-03-2004 00:13:00 6.3 C 70 % 1.24 C
3121 13-03-2004 00:25:59 6.4 C 71 % 1.54 C
3122 13-03-2004 00:37:57 6.3 C 71 % 1.44 C
3123 13-03-2004 00:49:01 6.2 C 72 % 1.54 C
3124 13-03-2004 01:01:01 6.3 C 72 % 1.63 C
3125 13-03-2004 01:13:01 6.3 C 72 % 1.63 C
Sensor: Nr:Datum:Temp:Feuchte:Taupunkt:
Aussen-T/F 3126 13-03-2004 01:25:01 6.3 C 72 % 1.63 C
3127 13-03-2004 01:37:01 6.4 C 72 % 1.73 C
3128 13-03-2004 01:49:01 6.4 C 73 % 1.92 C
3129 13-03-2004 02:01:01 6.4 C 72 % 1.73 C
3130 13-03-2004 02:13:01 6.4 C 73 % 1.92 C
3131 13-03-2004 02:25:01 6.6 C 72 % 1.92 C
3132 13-03-2004 02:37:01 6.7 C 72 % 2.02 C
3133 13-03-2004 02:50:01 6.8 C 72 % 2.12 C
3134 13-03-2004 03:02:01 6.8 C 72 % 2.12 C
3135 13-03-2004 03:14:00 7 C 70 % 1.91 C
3136 13-03-2004 03:26:00 7 C 70 % 1.91 C
3137 13-03-2004 03:38:01 6.9 C 72 % 2.21 C
3138 13-03-2004 03:50:01 7 C 71 % 2.11 C
3139 13-03-2004 04:02:01 7.1 C 70 % 2.01 C
3140 13-03-2004 04:14:01 7.2 C 70 % 2.11 C
3141 13-03-2004 04:26:00 7.3 C 70 % 2.2 C
3142 13-03-2004 04:38:00 7.4 C 69 % 2.1 C
3143 13-03-2004 04:50:01 7.4 C 69 % 2.1 C
3144 13-03-2004 05:02:01 7.6 C 69 % 2.29 C
3145 13-03-2004 05:14:01 7.5 C 69 % 2.19 C
3146 13-03-2004 05:26:01 7.6 C 69 % 2.29 C
3147 13-03-2004 05:38:01 7.6 C 70 % 2.49 C
3148 13-03-2004 05:50:00 7.6 C 70 % 2.49 C
3149 13-03-2004 06:02:59 7.5 C 71 % 2.59 C
3150 13-03-2004 06:14:58 7.3 C 72 % 2.6 C
Sensor: Nr:Datum:Temp:Feuchte:Taupunkt:
Aussen-T/F 3151 13-03-2004 06:26:58 7.2 C 73 % 2.69 C
3152 13-03-2004 06:38:57 7.2 C 74 % 2.89 C
3153 13-03-2004 06:50:01 7.2 C 74 % 2.89 C
3154 13-03-2004 07:02:01 7.3 C 74 % 2.98 C
3155 13-03-2004 07:14:01 7.4 C 74 % 3.08 C
3156 13-03-2004 07:26:01 7.5 C 73 % 2.98 C
3157 13-03-2004 07:38:00 7.5 C 73 % 2.98 C
3158 13-03-2004 07:50:01 7.8 C 73 % 3.27 C
3159 13-03-2004 08:02:01 7.9 C 72 % 3.17 C
3160 13-03-2004 08:14:01 8.1 C 71 % 3.17 C
3161 13-03-2004 08:26:01 8.4 C 70 % 3.26 C
3162 13-03-2004 08:38:01 8.9 C 68 % 3.32 C
3163 13-03-2004 08:50:01 9 C 66 % 3 C
3164 13-03-2004 09:02:03 9.3 C 66 % 3.28 C
3165 13-03-2004 09:14:03 9.5 C 66 % 3.47 C
3166 13-03-2004 09:26:58 9.7 C 65 % 3.45 C
3167 13-03-2004 09:38:58 9.8 C 65 % 3.54 C
3168 13-03-2004 09:50:01 10 C 63 % 3.29 C
3169 13-03-2004 10:02:01 10.1 C 63 % 3.39 C
3170 13-03-2004 10:14:01 10.1 C 62 % 3.16 C
3171 13-03-2004 10:26:02 10.1 C 61 % 2.93 C
3172 13-03-2004 10:38:03 10.2 C 61 % 3.03 C
3173 13-03-2004 10:50:01 10.4 C 60 % 2.98 C
3174 13-03-2004 11:02:01 10.5 C 59 % 2.84 C
3175 13-03-2004 11:14:01 10.8 C 58 % 2.88 C
Sensor: Nr:Datum:Temp:Feuchte:Taupunkt:
Aussen-T/F 3176 13-03-2004 11:26:01 11.1 C 55 % 2.41 C
3177 13-03-2004 11:38:01 11.3 C 54 % 2.34 C
3178 13-03-2004 11:50:01 11.4 C 52 % 1.91 C
3179 13-03-2004 12:02:00 11.6 C 50 % 1.54 C
3180 13-03-2004 12:14:00 11.7 C 49 % 1.36 C
3181 13-03-2004 12:26:59 11.8 C 48 % 1.16 C
3182 13-03-2004 12:38:58 11.9 C 48 % 1.25 C
3183 13-03-2004 12:50:01 12.1 C 45 % 0.54 C
3184 13-03-2004 13:02:01 12.5 C 45 % 0.91 C
3185 13-03-2004 13:14:01 12.5 C 43 % 0.28 C
3186 13-03-2004 13:26:00 12.7 C 43 % 0.46 C
3187 13-03-2004 13:38:00 13 C 41 % 0.07 C
3188 13-03-2004 13:50:01 12.7 C 41 % -0.2 C
3189 13-03-2004 14:02:01 12.6 C 40 % -0.62 C
3190 13-03-2004 14:14:01 12.5 C 41 % -0.38 C
3191 13-03-2004 14:26:01 12.4 C 42 % -0.14 C
3192 13-03-2004 14:38:01 12.6 C 42 % 0.04 C
3193 13-03-2004 14:50:01 12.5 C 46 % 1.21 C
3194 13-03-2004 15:02:01 12.9 C 47 % 1.87 C
3195 13-03-2004 15:14:01 12.7 C 47 % 1.69 C
3196 13-03-2004 15:26:00 12.9 C 46 % 1.57 C
3197 13-03-2004 15:38:00 12.6 C 45 % 1 C
3198 13-03-2004 15:50:01 12.5 C 45 % 0.91 C
3199 13-03-2004 16:02:01 12.7 C 45 % 1.09 C
3200 13-03-2004 16:14:01 12.7 C 44 % 0.78 C
Sensor: Nr:Datum:Temp:Feuchte:Taupunkt:
Aussen-T/F 3201 13-03-2004 16:26:01 12.9 C 43 % 0.64 C
3202 13-03-2004 16:38:08 12.8 C 42 % 0.22 C
3203 13-03-2004 16:50:02 12.9 C 40 % -0.36 C
3204 13-03-2004 17:02:01 12.6 C 40 % -0.62 C
3205 13-03-2004 17:14:01 12.4 C 40 % -0.8 C
3206 13-03-2004 17:26:02 12.4 C 41 % -0.47 C
3207 13-03-2004 17:38:02 12.7 C 39 % -0.88 C
3208 13-03-2004 17:50:01 12.2 C 40 % -0.98 C
3209 13-03-2004 18:02:01 11.9 C 40 % -1.25 C
3210 13-03-2004 18:14:01 11.5 C 41 % -1.28 C
3211 13-03-2004 18:26:01 11.2 C 45 % -0.28 C
3212 13-03-2004 18:38:01 10.7 C 47 % -0.14 C
3213 13-03-2004 18:50:01 10.4 C 48 % -0.12 C
3214 13-03-2004 19:02:01 10.1 C 50 % 0.16 C
3215 13-03-2004 19:14:01 9.8 C 50 % -0.11 C
3216 13-03-2004 19:26:00 9.7 C 51 % 0.07 C
3217 13-03-2004 19:38:00 9.2 C 52 % -0.13 C
3218 13-03-2004 19:50:02 9.1 C 54 % 0.3 C
3219 13-03-2004 20:02:02 8.8 C 56 % 0.52 C
3220 13-03-2004 20:14:02 8.6 C 57 % 0.58 C
3221 13-03-2004 20:26:01 8.4 C 58 % 0.63 C
3222 13-03-2004 20:38:01 8.3 C 58 % 0.54 C
3223 13-03-2004 20:50:00 8.3 C 57 % 0.3 C
3224 13-03-2004 21:13:59 8.2 C 57 % 0.2 C
3225 13-03-2004 21:14:58 8 C 58 % 0.25 C
Sensor: Nr:Datum:Temp:Feuchte:Taupunkt:
Aussen-T/F 3226 13-03-2004 21:26:58 7.9 C 60 % 0.63 C
3227 13-03-2004 21:38:57 7.8 C 60 % 0.53 C
3228 13-03-2004 21:50:01 7.7 C 60 % 0.44 C
3229 13-03-2004 22:02:01 7.7 C 59 % 0.21 C
3230 13-03-2004 22:14:01 7.7 C 58 % -0.03 C
3231 13-03-2004 22:26:01 7.7 C 58 % -0.03 C
3232 13-03-2004 22:38:01 7.5 C 58 % -0.21 C
3233 13-03-2004 22:50:00 7.4 C 58 % -0.31 C
3234 13-03-2004 23:02:58 7.4 C 58 % -0.31 C
3235 13-03-2004 23:14:57 7.1 C 61 % 0.1 C
3236 13-03-2004 23:26:57 7.3 C 59 % -0.17 C
3237 13-03-2004 23:38:57 7.2 C 60 % -0.03 C
3238 13-03-2004 23:50:01 7.2 C 59 % -0.26 C
3239 14-03-2004 00:02:01 7.1 C 59 % -0.36 C
3240 14-03-2004 00:14:01 7.1 C 60 % -0.13 C
3241 14-03-2004 00:26:01 7.1 C 60 % -0.13 C
3242 14-03-2004 00:38:01 7 C 60 % -0.22 C
3243 14-03-2004 00:50:01 6.9 C 61 % -0.09 C
3244 14-03-2004 01:02:01 6.8 C 62 % 0.04 C
3245 14-03-2004 01:14:01 6.7 C 63 % 0.17 C
3246 14-03-2004 01:26:01 6.6 C 64 % 0.29 C
3247 14-03-2004 01:38:01 6.5 C 65 % 0.41 C
3248 14-03-2004 01:50:01 6.4 C 65 % 0.31 C
3249 14-03-2004 02:02:01 6.3 C 65 % 0.22 C
3250 14-03-2004 02:14:01 6.2 C 65 % 0.12 C
Sensor: Nr:Datum:Temp:Feuchte:Taupunkt:
Aussen-T/F 3251 14-03-2004 02:26:01 6 C 66 % 0.14 C
3252 14-03-2004 02:38:00 5.9 C 68 % 0.46 C
3253 14-03-2004 02:51:03 5.7 C 69 % 0.47 C
3254 14-03-2004 03:03:03 5.5 C 69 % 0.28 C
3255 14-03-2004 03:15:02 5.3 C 71 % 0.48 C
3256 14-03-2004 03:27:02 5.1 C 71 % 0.29 C
3257 14-03-2004 03:39:00 4.8 C 72 % 0.19 C
3258 14-03-2004 03:51:00 4.7 C 73 % 0.28 C
3259 14-03-2004 04:03:00 4.7 C 73 % 0.28 C
3260 14-03-2004 04:15:59 4.7 C 73 % 0.28 C
3261 14-03-2004 04:27:59 4.9 C 74 % 0.67 C
3262 14-03-2004 04:39:58 4.7 C 74 % 0.47 C
3263 14-03-2004 04:51:01 5.2 C 74 % 0.95 C
3264 14-03-2004 05:03:00 5.5 C 73 % 1.06 C
3265 14-03-2004 05:15:00 5.5 C 72 % 0.86 C
3266 14-03-2004 05:27:00 5.5 C 72 % 0.86 C
3267 14-03-2004 05:39:00 5.5 C 72 % 0.86 C
3268 14-03-2004 05:51:01 5.4 C 72 % 0.77 C
3269 14-03-2004 06:03:01 5.4 C 72 % 0.77 C
3270 14-03-2004 06:15:01 5.6 C 72 % 0.96 C
3271 14-03-2004 06:27:01 5.8 C 73 % 1.34 C
3272 14-03-2004 06:39:00 5.8 C 72 % 1.15 C
3273 14-03-2004 06:51:01 5.9 C 73 % 1.44 C
3274 14-03-2004 07:03:01 6 C 72 % 1.35 C
3275 14-03-2004 07:15:01 6.2 C 72 % 1.54 C
Sensor: Nr:Datum:Temp:Feuchte:Taupunkt:
Aussen-T/F 3276 14-03-2004 07:27:01 6.8 C 73 % 2.31 C
3277 14-03-2004 07:39:01 7 C 68 % 1.51 C
3278 14-03-2004 07:51:00 6.9 C 68 % 1.41 C
3279 14-03-2004 08:03:00 7.2 C 69 % 1.9 C
3280 14-03-2004 08:15:58 7.5 C 68 % 1.99 C
3281 14-03-2004 08:27:58 7.5 C 68 % 1.99 C
3282 14-03-2004 08:39:57 7.7 C 67 % 1.97 C
3283 14-03-2004 08:51:01 7.8 C 67 % 2.07 C
3284 14-03-2004 09:03:01 8 C 65 % 1.83 C
3285 14-03-2004 09:15:01 8.2 C 64 % 1.81 C
3286 14-03-2004 09:27:01 8.4 C 63 % 1.78 C
3287 14-03-2004 09:39:02 8.6 C 62 % 1.74 C
3288 14-03-2004 09:51:02 8.8 C 61 % 1.71 C
3289 14-03-2004 10:03:01 9.1 C 59 % 1.52 C
3290 14-03-2004 10:15:01 9.2 C 58 % 1.38 C
3291 14-03-2004 10:27:01 9.1 C 58 % 1.29 C
3292 14-03-2004 10:39:01 9.4 C 57 % 1.33 C
3293 14-03-2004 10:51:00 9.6 C 56 % 1.27 C
3294 14-03-2004 11:03:00 9.6 C 55 % 1.02 C
3295 14-03-2004 11:15:59 10.1 C 52 % 0.7 C
3296 14-03-2004 11:27:59 10.2 C 51 % 0.53 C
3297 14-03-2004 11:39:57 10.7 C 50 % 0.72 C
3298 14-03-2004 11:51:01 10.8 C 48 % 0.24 C
3299 14-03-2004 12:03:01 10.8 C 47 % -0.04 C
3300 14-03-2004 12:15:01 11.6 C 45 % 0.09 C
Sensor: Nr:Datum:Temp:Feuchte:Taupunkt:
Aussen-T/F 3301 14-03-2004 12:27:01 12.3 C 41 % -0.56 C
3302 14-03-2004 12:39:01 12.3 C 40 % -0.89 C
3303 14-03-2004 12:51:00 12.4 C 39 % -1.15 C
3304 14-03-2004 13:03:00 12.8 C 36 % -1.88 C
3305 14-03-2004 13:15:58 13.3 C 35 % -1.82 C
3306 14-03-2004 13:27:58 13.4 C 34 % -2.12 C
3307 14-03-2004 13:39:57 13.9 C 33 % -2.08 C
3308 14-03-2004 13:51:01 14.2 C 32 % -2.24 C
3309 14-03-2004 14:03:01 14.1 C 35 % -1.11 C
3310 14-03-2004 14:15:01 14.2 C 33 % -1.82 C
3311 14-03-2004 14:27:01 14.3 C 35 % -0.93 C
3312 14-03-2004 14:39:01 14.6 C 32 % -1.89 C
3313 14-03-2004 14:51:00 15 C 28 % -3.34 C
3314 14-03-2004 15:03:00 14.6 C 29 % -3.21 C
3315 14-03-2004 15:15:58 14.2 C 29 % -3.56 C
3316 14-03-2004 15:27:58 14.7 C 28 % -3.59 C
3317 14-03-2004 15:39:57 14.5 C 28 % -3.77 C
3318 14-03-2004 15:51:01 15.1 C 26 % -4.24 C
3319 14-03-2004 16:03:01 14.9 C 28 % -3.42 C
3320 14-03-2004 16:15:01 15.1 C 27 % -3.74 C
3321 14-03-2004 16:27:01 15.1 C 27 % -3.74 C
3322 14-03-2004 16:39:01 14.5 C 28 % -3.77 C
3323 14-03-2004 16:51:00 14 C 29 % -3.73 C
3324 14-03-2004 17:03:59 13.7 C 30 % -3.54 C
3325 14-03-2004 17:15:58 13.5 C 30 % -3.71 C
Sensor: Nr:Datum:Temp:Feuchte:Taupunkt:
Aussen-T/F 3326 14-03-2004 17:27:58 13.5 C 30 % -3.71 C
3327 14-03-2004 17:39:57 13.4 C 33 % -2.52 C
3328 14-03-2004 17:51:01 13.2 C 31 % -3.54 C
3329 14-03-2004 18:03:01 13 C 32 % -3.29 C
3330 14-03-2004 18:15:01 12.7 C 36 % -1.97 C
3331 14-03-2004 18:27:01 12.3 C 40 % -0.89 C
3332 14-03-2004 18:39:01 12.2 C 40 % -0.98 C
3333 14-03-2004 18:51:01 12.1 C 41 % -0.74 C
3334 14-03-2004 19:03:00 11.9 C 43 % -0.27 C
3335 14-03-2004 19:15:58 11.9 C 44 % 0.05 C
3336 14-03-2004 19:27:58 11.7 C 46 % 0.48 C
3337 14-03-2004 19:39:57 11.8 C 45 % 0.27 C
3338 14-03-2004 19:51:01 11.6 C 46 % 0.39 C
3339 14-03-2004 20:03:01 11.6 C 47 % 0.69 C
3340 14-03-2004 20:15:01 11.4 C 47 % 0.5 C
3341 14-03-2004 20:27:01 11.4 C 47 % 0.5 C
3342 14-03-2004 20:39:01 11.3 C 48 % 0.7 C
3343 14-03-2004 20:50:59 11.1 C 50 % 1.08 C
3344 14-03-2004 21:03:59 10.9 C 52 % 1.44 C
3345 14-03-2004 21:15:58 10.9 C 52 % 1.44 C
3346 14-03-2004 21:27:58 10.6 C 53 % 1.43 C
3347 14-03-2004 21:39:57 10.5 C 52 % 1.07 C
3348 14-03-2004 21:51:01 10.3 C 53 % 1.15 C
3349 14-03-2004 22:03:01 10.2 C 54 % 1.32 C
3350 14-03-2004 22:15:01 10.1 C 54 % 1.23 C
Sensor: Nr:Datum:Temp:Feuchte:Taupunkt:
Aussen-T/F 3351 14-03-2004 22:27:01 10.1 C 54 % 1.23 C
3352 14-03-2004 22:39:00 10 C 55 % 1.39 C
3353 14-03-2004 22:51:01 9.9 C 56 % 1.55 C
3354 14-03-2004 23:03:02 10.3 C 56 % 1.92 C
3355 14-03-2004 23:15:01 9.9 C 55 % 1.3 C
3356 14-03-2004 23:27:01 10.2 C 54 % 1.32 C
3357 14-03-2004 23:39:01 10.2 C 53 % 1.06 C
3358 14-03-2004 23:51:00 10.2 C 54 % 1.32 C
3359 15-03-2004 00:03:00 10.4 C 52 % 0.98 C
3360 15-03-2004 00:15:59 10.8 C 50 % 0.81 C
3361 15-03-2004 00:27:59 10.6 C 50 % 0.62 C
3362 15-03-2004 00:39:58 10.8 C 48 % 0.24 C
3363 15-03-2004 00:51:01 11.3 C 45 % -0.19 C
3364 15-03-2004 01:03:01 11.4 C 43 % -0.72 C
3365 15-03-2004 01:15:01 11.5 C 43 % -0.63 C
3366 15-03-2004 01:27:01 11.4 C 43 % -0.72 C
3367 15-03-2004 01:39:01 11.3 C 43 % -0.81 C
3368 15-03-2004 01:51:00 11.2 C 43 % -0.9 C
3369 15-03-2004 02:03:00 11 C 43 % -1.08 C
3370 15-03-2004 02:15:59 11.1 C 43 % -0.99 C
3371 15-03-2004 02:27:59 11 C 44 % -0.77 C
3372 15-03-2004 02:39:57 11.1 C 43 % -0.99 C
3373 15-03-2004 02:52:03 10.8 C 45 % -0.64 C
3374 15-03-2004 03:04:03 10.7 C 46 % -0.43 C
3375 15-03-2004 03:16:02 10.3 C 48 % -0.21 C
Sensor: Nr:Datum:Temp:Feuchte:Taupunkt:
Aussen-T/F 3376 15-03-2004 03:28:02 10.2 C 48 % -0.31 C
3377 15-03-2004 03:40:00 10.5 C 46 % -0.61 C
3378 15-03-2004 03:52:00 10.6 C 46 % -0.52 C
3379 15-03-2004 04:04:00 10.6 C 46 % -0.52 C
3380 15-03-2004 04:16:59 10.5 C 46 % -0.61 C
3381 15-03-2004 04:28:59 10.5 C 46 % -0.61 C
3382 15-03-2004 04:40:58 10.4 C 47 % -0.41 C
3383 15-03-2004 04:52:01 10.2 C 47 % -0.59 C
3384 15-03-2004 05:04:01 10.3 C 47 % -0.5 C
3385 15-03-2004 05:16:01 10.2 C 47 % -0.59 C
3386 15-03-2004 05:28:01 10.3 C 47 % -0.5 C
3387 15-03-2004 05:40:01 10.4 C 46 % -0.7 C
3388 15-03-2004 05:52:00 10.6 C 46 % -0.52 C
3389 15-03-2004 06:04:00 10.6 C 46 % -0.52 C
3390 15-03-2004 06:16:59 10.5 C 46 % -0.61 C
3391 15-03-2004 06:28:59 10.7 C 46 % -0.43 C
3392 15-03-2004 06:40:58 10.8 C 46 % -0.34 C
3393 15-03-2004 06:52:01 10.8 C 46 % -0.34 C
3394 15-03-2004 07:04:01 10.8 C 46 % -0.34 C
3395 15-03-2004 07:16:01 10.8 C 46 % -0.34 C
3396 15-03-2004 07:28:01 10.9 C 46 % -0.25 C
3397 15-03-2004 07:40:02 10.8 C 46 % -0.34 C
3398 15-03-2004 07:52:00 10.8 C 48 % 0.24 C
3399 15-03-2004 08:04:00 10.7 C 49 % 0.44 C
3400 15-03-2004 08:16:59 10.8 C 49 % 0.53 C
Sensor: Nr:Datum:Temp:Feuchte:Taupunkt:
Aussen-T/F 3401 15-03-2004 08:28:59 10.8 C 50 % 0.81 C
3402 15-03-2004 08:40:58 11 C 49 % 0.71 C
3403 15-03-2004 08:52:01 11.1 C 49 % 0.8 C
3404 15-03-2004 09:04:01 11.5 C 48 % 0.89 C
3405 15-03-2004 09:16:00 11.5 C 48 % 0.89 C
3406 15-03-2004 09:28:00 11.5 C 48 % 0.89 C
3407 15-03-2004 09:40:00 11.6 C 48 % 0.98 C
3408 15-03-2004 09:52:01 11.7 C 48 % 1.07 C
3409 15-03-2004 10:04:01 11.8 C 47 % 0.87 C
3410 15-03-2004 10:16:01 12 C 47 % 1.05 C
3411 15-03-2004 10:28:01 12 C 48 % 1.34 C
3412 15-03-2004 10:40:01 11.9 C 49 % 1.54 C
3413 15-03-2004 10:52:00 11.9 C 49 % 1.54 C
3414 15-03-2004 11:04:59 12 C 48 % 1.34 C
3415 15-03-2004 11:16:58 12.9 C 48 % 2.17 C
3416 15-03-2004 11:28:58 12.3 C 48 % 1.62 C
3417 15-03-2004 11:40:57 12.7 C 48 % 1.99 C
3418 15-03-2004 11:52:01 12.6 C 48 % 1.89 C
3419 15-03-2004 12:04:01 12.8 C 49 % 2.37 C
3420 15-03-2004 12:16:01 12.7 C 50 % 2.56 C
3421 15-03-2004 12:28:01 12.8 C 50 % 2.65 C
3422 15-03-2004 12:40:01 13.2 C 48 % 2.44 C
3423 15-03-2004 12:52:01 13.7 C 46 % 2.3 C
3424 15-03-2004 13:04:01 13.8 C 46 % 2.4 C
3425 15-03-2004 13:16:01 13.8 C 47 % 2.7 C
Sensor: Nr:Datum:Temp:Feuchte:Taupunkt:
Aussen-T/F 3426 15-03-2004 13:28:01 13.5 C 47 % 2.42 C
3427 15-03-2004 13:40:01 13.4 C 47 % 2.33 C
3428 15-03-2004 13:52:00 13.7 C 46 % 2.3 C
3429 15-03-2004 14:04:00 13.4 C 46 % 2.03 C
3430 15-03-2004 14:16:58 13.4 C 46 % 2.03 C
3431 15-03-2004 14:28:58 13.6 C 45 % 1.91 C
3432 15-03-2004 14:40:57 13.5 C 46 % 2.12 C
3433 15-03-2004 14:52:01 13.5 C 46 % 2.12 C
3434 15-03-2004 15:04:01 13.6 C 46 % 2.21 C
3435 15-03-2004 15:16:01 13.9 C 45 % 2.18 C
3436 15-03-2004 15:28:01 13.9 C 45 % 2.18 C
3437 15-03-2004 15:40:01 14.2 C 45 % 2.45 C
3438 15-03-2004 15:52:00 14.2 C 44 % 2.14 C
3439 15-03-2004 16:04:59 14.2 C 44 % 2.14 C
3440 15-03-2004 16:16:58 14.3 C 44 % 2.23 C
3441 15-03-2004 16:28:58 14.2 C 44 % 2.14 C
3442 15-03-2004 16:40:57 14.4 C 44 % 2.32 C
3443 15-03-2004 16:52:01 14.4 C 44 % 2.32 C
3444 15-03-2004 17:04:01 14.3 C 45 % 2.54 C
3445 15-03-2004 17:16:01 14.3 C 45 % 2.54 C
3446 15-03-2004 17:28:01 14.2 C 45 % 2.45 C
3447 15-03-2004 17:40:01 14.1 C 45 % 2.36 C
3448 15-03-2004 17:52:00 14.1 C 46 % 2.67 C
3449 15-03-2004 18:04:00 14 C 46 % 2.58 C
3450 15-03-2004 18:16:59 14 C 46 % 2.58 C
Sensor: Nr:Datum:Temp:Feuchte:Taupunkt:
Aussen-T/F 3451 15-03-2004 18:28:59 13.9 C 47 % 2.79 C
3452 15-03-2004 18:40:58 13.8 C 48 % 2.99 C
3453 15-03-2004 18:52:01 13.7 C 48 % 2.9 C
3454 15-03-2004 19:04:01 13.4 C 49 % 2.92 C
3455 15-03-2004 19:16:01 12.9 C 52 % 3.29 C
3456 15-03-2004 19:28:01 12.2 C 54 % 3.18 C
3457 15-03-2004 19:40:02 12 C 55 % 3.25 C
3458 15-03-2004 19:52:00 11.5 C 58 % 3.54 C
3459 15-03-2004 20:04:00 11.1 C 59 % 3.4 C
3460 15-03-2004 20:16:59 10.9 C 61 % 3.69 C
3461 15-03-2004 20:28:59 10.5 C 62 % 3.54 C
3462 15-03-2004 20:40:58 10.2 C 63 % 3.48 C
3463 15-03-2004 20:52:01 10.1 C 64 % 3.61 C
3464 15-03-2004 21:04:01 9.8 C 65 % 3.54 C
3465 15-03-2004 21:16:00 9.6 C 65 % 3.35 C
3466 15-03-2004 21:28:00 9.5 C 67 % 3.69 C
3467 15-03-2004 21:40:01 9.5 C 67 % 3.69 C
3468 15-03-2004 21:52:01 9.4 C 67 % 3.59 C
3469 15-03-2004 22:04:01 9.2 C 67 % 3.4 C
3470 15-03-2004 22:16:01 8.8 C 68 % 3.23 C
3471 15-03-2004 22:28:01 8.6 C 69 % 3.24 C
3472 15-03-2004 22:40:01 8.6 C 70 % 3.45 C
3473 15-03-2004 22:52:00 8.8 C 70 % 3.64 C
3474 15-03-2004 23:04:00 8.9 C 69 % 3.53 C
3475 15-03-2004 23:16:58 8.9 C 69 % 3.53 C
Sensor: Nr:Datum:Temp:Feuchte:Taupunkt:
Aussen-T/F 3476 15-03-2004 23:28:58 8.9 C 70 % 3.74 C
3477 15-03-2004 23:40:57 8.8 C 70 % 3.64 C
3478 15-03-2004 23:52:01 8.6 C 69 % 3.24 C
3479 16-03-2004 00:04:01 8.6 C 71 % 3.65 C
3480 16-03-2004 00:16:01 8.6 C 71 % 3.65 C
3481 16-03-2004 00:28:01 8.3 C 70 % 3.16 C
3482 16-03-2004 00:40:01 8.3 C 71 % 3.36 C
3483 16-03-2004 00:52:00 8.5 C 72 % 3.75 C
3484 16-03-2004 01:04:59 8.6 C 71 % 3.65 C
3485 16-03-2004 01:16:58 8.6 C 71 % 3.65 C
3486 16-03-2004 01:28:58 8.7 C 70 % 3.54 C
3487 16-03-2004 01:40:57 8.8 C 70 % 3.64 C
3488 16-03-2004 01:52:01 8.7 C 70 % 3.54 C
3489 16-03-2004 02:04:01 8.5 C 70 % 3.35 C
3490 16-03-2004 02:16:01 8.7 C 70 % 3.54 C
3491 16-03-2004 02:28:01 8.6 C 71 % 3.65 C
3492 16-03-2004 02:40:01 8.8 C 71 % 3.84 C
3493 16-03-2004 02:53:02 9 C 71 % 4.03 C
3494 16-03-2004 03:05:02 9.2 C 71 % 4.22 C
3495 16-03-2004 03:17:02 9.2 C 69 % 3.82 C
3496 16-03-2004 03:29:02 9.3 C 70 % 4.12 C
3497 16-03-2004 03:41:00 9.5 C 71 % 4.51 C
3498 16-03-2004 03:53:00 9.6 C 70 % 4.41 C
3499 16-03-2004 04:05:00 9.6 C 70 % 4.41 C
3500 16-03-2004 04:17:58 9.6 C 70 % 4.41 C
Sensor: Nr:Datum:Temp:Feuchte:Taupunkt:
Aussen-T/F 3501 16-03-2004 04:29:58 9.5 C 70 % 4.31 C
3502 16-03-2004 04:41:57 9.6 C 71 % 4.61 C
3503 16-03-2004 04:53:01 9.4 C 70 % 4.21 C
3504 16-03-2004 05:05:01 9.2 C 71 % 4.22 C
3505 16-03-2004 05:17:01 8.8 C 72 % 4.04 C
3506 16-03-2004 05:29:01 8.7 C 74 % 4.33 C
3507 16-03-2004 05:41:01 8.5 C 74 % 4.14 C
3508 16-03-2004 05:53:01 8.9 C 74 % 4.53 C
3509 16-03-2004 06:05:01 9.6 C 71 % 4.61 C
3510 16-03-2004 06:17:01 9.9 C 69 % 4.49 C
3511 16-03-2004 06:29:01 9.7 C 69 % 4.3 C
3512 16-03-2004 06:41:01 9 C 70 % 3.83 C
3513 16-03-2004 06:53:00 8.6 C 72 % 3.85 C
3514 16-03-2004 07:05:00 8.5 C 73 % 3.95 C
3515 16-03-2004 07:17:59 8.8 C 75 % 4.62 C
3516 16-03-2004 07:29:59 8.8 C 74 % 4.43 C
3517 16-03-2004 07:41:57 8.4 C 73 % 3.85 C
3518 16-03-2004 07:53:01 8.2 C 73 % 3.66 C
3519 16-03-2004 08:05:01 8.1 C 73 % 3.56 C
3520 16-03-2004 08:17:01 8 C 74 % 3.66 C
3521 16-03-2004 08:29:01 8 C 74 % 3.66 C
3522 16-03-2004 08:41:01 8.1 C 75 % 3.94 C
3523 16-03-2004 08:53:01 8.4 C 75 % 4.23 C
3524 16-03-2004 09:05:00 9.7 C 72 % 4.9 C
3525 16-03-2004 09:17:58 11.5 C 63 % 4.71 C
Sensor: Nr:Datum:Temp:Feuchte:Taupunkt:
Aussen-T/F 3526 16-03-2004 09:29:58 12.4 C 57 % 4.13 C
3527 16-03-2004 09:41:57 12.9 C 55 % 4.09 C
3528 16-03-2004 09:53:01 13 C 53 % 3.66 C
3529 16-03-2004 10:05:01 13.1 C 52 % 3.48 C
3530 16-03-2004 10:17:01 13.3 C 52 % 3.66 C
3531 16-03-2004 10:29:01 13.5 C 52 % 3.85 C
3532 16-03-2004 10:41:01 13.9 C 51 % 3.94 C
3533 16-03-2004 10:53:01 14.1 C 49 % 3.56 C
3534 16-03-2004 11:05:02 14.2 C 49 % 3.65 C
3535 16-03-2004 11:17:01 14.5 C 49 % 3.93 C
3536 16-03-2004 11:29:01 14.7 C 48 % 3.82 C
3537 16-03-2004 11:41:01 14.9 C 48 % 4 C
3538 16-03-2004 11:53:01 14.9 C 47 % 3.7 C
3539 16-03-2004 12:05:00 15.3 C 46 % 3.76 C
3540 16-03-2004 12:17:59 15.6 C 45 % 3.72 C
3541 16-03-2004 12:29:59 15.9 C 45 % 4 C
3542 16-03-2004 12:41:57 16.4 C 43 % 3.8 C
3543 16-03-2004 12:53:01 16.9 C 42 % 3.92 C
3544 16-03-2004 13:05:01 17.5 C 40 % 3.77 C
3545 16-03-2004 13:17:01 17.7 C 40 % 3.95 C
3546 16-03-2004 13:29:01 17.8 C 40 % 4.03 C
3547 16-03-2004 13:41:01 18.5 C 39 % 4.3 C
3548 16-03-2004 13:53:00 18.8 C 38 % 4.2 C
3549 16-03-2004 14:05:00 18.5 C 38 % 3.93 C
3550 16-03-2004 14:17:58 18.5 C 38 % 3.93 C
Sensor: Nr:Datum:Temp:Feuchte:Taupunkt:
Aussen-T/F 3551 16-03-2004 14:29:58 18.9 C 38 % 4.29 C
3552 16-03-2004 14:41:57 19.4 C 36 % 3.96 C
3553 16-03-2004 14:53:01 19.3 C 36 % 3.87 C
3554 16-03-2004 15:05:01 19.8 C 36 % 4.31 C
3555 16-03-2004 15:17:01 20 C 36 % 4.49 C
3556 16-03-2004 15:29:01 19.8 C 36 % 4.31 C
3557 16-03-2004 15:41:01 20 C 36 % 4.49 C
3558 16-03-2004 15:53:01 19.9 C 36 % 4.4 C
3559 16-03-2004 16:05:01 20.4 C 37 % 5.24 C
3560 16-03-2004 16:17:01 20.4 C 37 % 5.24 C
3561 16-03-2004 16:29:01 20.2 C 37 % 5.06 C
3562 16-03-2004 16:41:01 20 C 37 % 4.88 C
3563 16-03-2004 16:53:00 19.8 C 37 % 4.7 C
3564 16-03-2004 17:05:00 19.8 C 37 % 4.7 C
3565 16-03-2004 17:17:58 20 C 37 % 4.88 C
3566 16-03-2004 17:29:58 19.7 C 37 % 4.62 C
3567 16-03-2004 17:41:58 19.7 C 38 % 5 C
3568 16-03-2004 17:53:01 19 C 40 % 5.11 C
3569 16-03-2004 18:05:01 18.2 C 43 % 5.43 C
3570 16-03-2004 18:17:01 17.3 C 45 % 5.27 C
3571 16-03-2004 18:29:01 16.4 C 48 % 5.37 C
3572 16-03-2004 18:41:01 15.8 C 50 % 5.41 C
3573 16-03-2004 18:53:00 15.5 C 52 % 5.7 C
3574 16-03-2004 19:05:00 15 C 53 % 5.51 C
3575 16-03-2004 19:17:58 14.7 C 55 % 5.76 C
Sensor: Nr:Datum:Temp:Feuchte:Taupunkt:
Aussen-T/F 3576 16-03-2004 19:29:58 14.4 C 55 % 5.49 C
3577 16-03-2004 19:41:57 14.2 C 56 % 5.56 C
3578 16-03-2004 19:53:01 14 C 57 % 5.63 C
3579 16-03-2004 20:05:01 13.6 C 58 % 5.5 C
3580 16-03-2004 20:17:01 13.4 C 59 % 5.56 C
3581 16-03-2004 20:29:01 13.3 C 60 % 5.71 C
3582 16-03-2004 20:41:01 13 C 60 % 5.43 C
3583 16-03-2004 20:53:01 12.8 C 62 % 5.71 C
3584 16-03-2004 21:05:00 12.6 C 62 % 5.52 C
3585 16-03-2004 21:17:59 12.2 C 62 % 5.14 C
3586 16-03-2004 21:29:59 12 C 63 % 5.18 C
3587 16-03-2004 21:41:57 11.6 C 64 % 5.03 C
3588 16-03-2004 21:53:01 11.4 C 65 % 5.06 C
3589 16-03-2004 22:05:01 11.2 C 65 % 4.87 C
3590 16-03-2004 22:17:01 10.8 C 66 % 4.71 C
3591 16-03-2004 22:29:01 10.5 C 67 % 4.64 C
3592 16-03-2004 22:41:01 10.2 C 67 % 4.36 C
3593 16-03-2004 22:53:00 9.9 C 69 % 4.49 C
3594 16-03-2004 23:05:00 9.6 C 69 % 4.2 C
3595 16-03-2004 23:17:58 9.5 C 70 % 4.31 C
3596 16-03-2004 23:29:58 9.4 C 70 % 4.21 C
3597 16-03-2004 23:41:57 9.1 C 71 % 4.13 C
3598 16-03-2004 23:53:01 9 C 72 % 4.23 C
3599 17-03-2004 00:05:01 8.9 C 73 % 4.33 C
3600 17-03-2004 00:17:01 8.8 C 72 % 4.04 C
Sensor: Nr:Datum:Temp:Feuchte:Taupunkt:
Aussen-T/F 3601 17-03-2004 00:29:01 8.4 C 73 % 3.85 C
3602 17-03-2004 00:41:01 8.3 C 74 % 3.95 C
3603 17-03-2004 00:53:00 8.2 C 75 % 4.04 C
3604 17-03-2004 01:05:59 8.1 C 75 % 3.94 C
3605 17-03-2004 01:17:58 7.8 C 75 % 3.65 C
3606 17-03-2004 01:29:58 7.6 C 76 % 3.65 C
3607 17-03-2004 01:41:57 7.3 C 76 % 3.36 C
3608 17-03-2004 01:53:01 7.2 C 76 % 3.26 C
3609 17-03-2004 02:05:01 7.1 C 77 % 3.35 C
3610 17-03-2004 02:17:01 6.8 C 77 % 3.06 C
3611 17-03-2004 02:29:01 6.7 C 77 % 2.96 C
3612 17-03-2004 02:41:00 6.3 C 78 % 2.75 C
3613 17-03-2004 02:54:03 6.2 C 79 % 2.84 C
3614 17-03-2004 03:06:03 6.1 C 80 % 2.92 C
3615 17-03-2004 03:18:02 6.1 C 80 % 2.92 C
3616 17-03-2004 03:30:02 5.8 C 81 % 2.8 C
3617 17-03-2004 03:42:00 5.8 C 82 % 2.97 C
3618 17-03-2004 03:54:00 5.6 C 82 % 2.78 C
3619 17-03-2004 04:06:00 5.5 C 82 % 2.68 C
3620 17-03-2004 04:18:59 5.1 C 81 % 2.12 C
3621 17-03-2004 04:30:58 5.2 C 81 % 2.21 C
3622 17-03-2004 04:42:58 5.2 C 81 % 2.21 C
3623 17-03-2004 04:54:01 5 C 81 % 2.02 C
3624 17-03-2004 05:06:00 4.9 C 83 % 2.26 C
3625 17-03-2004 05:18:00 4.7 C 83 % 2.07 C
Sensor: Nr:Datum:Temp:Feuchte:Taupunkt:
Aussen-T/F 3626 17-03-2004 05:30:00 4.6 C 82 % 1.8 C
3627 17-03-2004 05:42:00 4.5 C 82 % 1.7 C
3628 17-03-2004 05:54:01 4.5 C 83 % 1.87 C
3629 17-03-2004 06:06:01 4.4 C 84 % 1.94 C
3630 17-03-2004 06:18:01 4.4 C 84 % 1.94 C
3631 17-03-2004 06:30:01 4.2 C 83 % 1.58 C
3632 17-03-2004 06:42:01 4 C 83 % 1.38 C
3633 17-03-2004 06:54:01 3.9 C 84 % 1.45 C
3634 17-03-2004 07:06:01 4 C 83 % 1.38 C
3635 17-03-2004 07:18:01 4 C 83 % 1.38 C
3636 17-03-2004 07:30:01 4 C 83 % 1.38 C
3637 17-03-2004 07:42:01 3.8 C 84 % 1.35 C
3638 17-03-2004 07:54:00 3.6 C 85 % 1.32 C
3639 17-03-2004 08:06:00 4.1 C 86 % 1.97 C
3640 17-03-2004 08:18:59 4.5 C 85 % 2.2 C
3641 17-03-2004 08:30:58 4.8 C 84 % 2.33 C
3642 17-03-2004 08:42:58 4.9 C 83 % 2.26 C
3643 17-03-2004 08:54:01 4.9 C 83 % 2.26 C
3644 17-03-2004 09:06:01 5 C 83 % 2.36 C
3645 17-03-2004 09:18:01 5.3 C 83 % 2.65 C
3646 17-03-2004 09:30:01 5.9 C 84 % 3.41 C
3647 17-03-2004 09:42:01 6.3 C 82 % 3.46 C
3648 17-03-2004 09:54:00 6.9 C 80 % 3.7 C
3649 17-03-2004 10:06:00 7.3 C 78 % 3.73 C
3650 17-03-2004 10:18:59 8 C 76 % 4.04 C
Sensor: Nr:Datum:Temp:Feuchte:Taupunkt:
Aussen-T/F 3651 17-03-2004 10:30:57 8.7 C 75 % 4.52 C
3652 17-03-2004 10:42:57 9.5 C 72 % 4.71 C
3653 17-03-2004 10:54:01 10.5 C 69 % 5.06 C
3654 17-03-2004 11:06:01 11.3 C 67 % 5.4 C
3655 17-03-2004 11:18:01 12.6 C 64 % 5.98 C
3656 17-03-2004 11:30:01 13.5 C 60 % 5.9 C
3657 17-03-2004 11:42:01 14.2 C 58 % 6.06 C
3658 17-03-2004 11:54:00 14.9 C 55 % 5.95 C
3659 17-03-2004 12:06:59 15.9 C 52 % 6.07 C
3660 17-03-2004 12:18:58 16.7 C 50 % 6.24 C
3661 17-03-2004 12:30:57 17.5 C 46 % 5.76 C
3662 17-03-2004 12:42:57 18.3 C 45 % 6.17 C
3663 17-03-2004 12:54:01 19 C 40 % 5.11 C
3664 17-03-2004 13:06:01 19.7 C 42 % 6.44 C
3665 17-03-2004 13:18:01 20.6 C 40 % 6.54 C
3666 17-03-2004 13:30:01 21.3 C 35 % 5.23 C
3667 17-03-2004 13:42:01 22 C 34 % 5.43 C
3668 17-03-2004 13:54:01 22.8 C 33 % 5.7 C
3669 17-03-2004 14:06:01 23.4 C 33 % 6.22 C
3670 17-03-2004 14:18:01 23.3 C 27 % 3.27 C
3671 17-03-2004 14:30:01 23.5 C 29 % 4.45 C
3672 17-03-2004 14:42:01 23.9 C 27 % 3.78 C
3673 17-03-2004 14:54:00 24 C 25 % 2.78 C
3674 17-03-2004 15:06:00 24 C 26 % 3.33 C
3675 17-03-2004 15:18:58 23.9 C 25 % 2.69 C
Sensor: Nr:Datum:Temp:Feuchte:Taupunkt:
Aussen-T/F 3676 17-03-2004 15:30:57 23.9 C 25 % 2.69 C
3677 17-03-2004 15:42:57 24 C 24 % 2.21 C
3678 17-03-2004 15:54:01 24.3 C 25 % 3.03 C
3679 17-03-2004 16:06:01 24.5 C 24 % 2.63 C
3680 17-03-2004 16:18:01 24.2 C 24 % 2.37 C
3681 17-03-2004 16:30:01 24.1 C 25 % 2.86 C
3682 17-03-2004 16:42:01 23.9 C 24 % 2.12 C
3683 17-03-2004 16:54:00 23.8 C 22 % 0.83 C
3684 17-03-2004 17:06:59 23.7 C 20 % -0.57 C
3685 17-03-2004 17:18:58 23.4 C 22 % 0.49 C
3686 17-03-2004 17:30:57 23.1 C 25 % 2.02 C
3687 17-03-2004 17:42:57 22.1 C 28 % 2.76 C
3688 17-03-2004 17:54:01 21.1 C 31 % 3.33 C
3689 17-03-2004 18:06:01 20.6 C 35 % 4.62 C
3690 17-03-2004 18:18:01 19.9 C 38 % 5.18 C
3691 17-03-2004 18:30:01 19.6 C 39 % 5.28 C
3692 17-03-2004 18:42:01 19.4 C 39 % 5.1 C
3693 17-03-2004 18:54:00 18.9 C 41 % 5.37 C
3694 17-03-2004 19:06:59 18 C 45 % 5.9 C
3695 17-03-2004 19:18:58 17.2 C 47 % 5.8 C
3696 17-03-2004 19:30:58 16.8 C 50 % 6.33 C
3697 17-03-2004 19:42:58 16.3 C 50 % 5.87 C
3698 17-03-2004 19:54:01 15.9 C 51 % 5.79 C
3699 17-03-2004 20:06:01 15.5 C 51 % 5.42 C
3700 17-03-2004 20:18:01 15.2 C 51 % 5.14 C
Sensor: Nr:Datum:Temp:Feuchte:Taupunkt:
Aussen-T/F 3701 17-03-2004 20:30:01 15.2 C 50 % 4.86 C
3702 17-03-2004 20:42:01 14.8 C 51 % 4.77 C
3703 17-03-2004 20:54:01 14.5 C 52 % 4.77 C
3704 17-03-2004 21:06:01 14.4 C 51 % 4.4 C
3705 17-03-2004 21:18:01 14.2 C 51 % 4.22 C
3706 17-03-2004 21:30:01 14.1 C 51 % 4.13 C
3707 17-03-2004 21:42:01 13.8 C 52 % 4.13 C
3708 17-03-2004 21:54:00 13.7 C 53 % 4.31 C
3709 17-03-2004 22:06:00 13.4 C 55 % 4.55 C
3710 17-03-2004 22:18:59 13 C 56 % 4.44 C
3711 17-03-2004 22:30:57 12.7 C 59 % 4.9 C
3712 17-03-2004 22:42:57 12.1 C 61 % 4.82 C
3713 17-03-2004 22:54:01 11.8 C 62 % 4.77 C
3714 17-03-2004 23:06:01 11.8 C 63 % 5 C
3715 17-03-2004 23:18:01 11.7 C 63 % 4.9 C
3716 17-03-2004 23:30:01 11.5 C 63 % 4.71 C
3717 17-03-2004 23:42:01 11.3 C 64 % 4.75 C
3718 17-03-2004 23:54:00 11.1 C 65 % 4.78 C
3719 18-03-2004 00:06:00 11 C 66 % 4.9 C
3720 18-03-2004 00:18:59 10.8 C 66 % 4.71 C
3721 18-03-2004 00:30:57 10.7 C 67 % 4.83 C
3722 18-03-2004 00:42:57 10.8 C 67 % 4.93 C
3723 18-03-2004 00:54:01 10.8 C 67 % 4.93 C
3724 18-03-2004 01:06:01 10.5 C 67 % 4.64 C
3725 18-03-2004 01:18:01 10.2 C 68 % 4.57 C
Sensor: Nr:Datum:Temp:Feuchte:Taupunkt:
Aussen-T/F 3726 18-03-2004 01:30:01 9.8 C 71 % 4.8 C
3727 18-03-2004 01:42:01 9.8 C 72 % 5 C
3728 18-03-2004 01:54:01 9.8 C 71 % 4.8 C
3729 18-03-2004 02:06:01 9.7 C 71 % 4.7 C
3730 18-03-2004 02:18:01 9.7 C 72 % 4.9 C
3731 18-03-2004 02:30:01 9.7 C 72 % 4.9 C
3732 18-03-2004 02:42:01 9.6 C 72 % 4.81 C
3733 18-03-2004 02:55:01 9.5 C 73 % 4.91 C
3734 18-03-2004 03:07:01 9.4 C 73 % 4.81 C
3735 18-03-2004 03:19:00 9.2 C 73 % 4.62 C
3736 18-03-2004 03:31:01 9.1 C 73 % 4.52 C
3737 18-03-2004 03:43:01 9 C 74 % 4.62 C
3738 18-03-2004 03:55:01 8.9 C 75 % 4.72 C
3739 18-03-2004 04:07:01 8.7 C 75 % 4.52 C
3740 18-03-2004 04:19:00 8.6 C 76 % 4.62 C
3741 18-03-2004 04:31:00 8.4 C 76 % 4.42 C
3742 18-03-2004 04:43:00 8.3 C 77 % 4.51 C
3743 18-03-2004 04:55:01 8.1 C 77 % 4.32 C
3744 18-03-2004 05:07:01 8.2 C 78 % 4.6 C
3745 18-03-2004 05:19:01 8.1 C 77 % 4.32 C
3746 18-03-2004 05:31:01 8 C 77 % 4.22 C
3747 18-03-2004 05:43:01 7.9 C 79 % 4.49 C
3748 18-03-2004 05:55:02 7.6 C 79 % 4.2 C
3749 18-03-2004 06:07:01 7.4 C 79 % 4 C
3750 18-03-2004 06:19:01 7.5 C 80 % 4.28 C
Sensor: Nr:Datum:Temp:Feuchte:Taupunkt:
Aussen-T/F 3751 18-03-2004 06:31:01 7.4 C 81 % 4.36 C
3752 18-03-2004 06:43:01 7.4 C 80 % 4.18 C
3753 18-03-2004 06:55:01 7.4 C 80 % 4.18 C
3754 18-03-2004 07:07:00 7.4 C 80 % 4.18 C
3755 18-03-2004 07:19:59 7.5 C 80 % 4.28 C
3756 18-03-2004 07:31:57 7.8 C 80 % 4.57 C
3757 18-03-2004 07:43:57 8.1 C 78 % 4.5 C
3758 18-03-2004 07:55:01 8.2 C 78 % 4.6 C
3759 18-03-2004 08:07:01 8.5 C 77 % 4.71 C
3760 18-03-2004 08:19:01 8.5 C 76 % 4.52 C
3761 18-03-2004 08:31:01 8.8 C 75 % 4.62 C
3762 18-03-2004 08:43:01 9.2 C 73 % 4.62 C
3763 18-03-2004 08:55:00 9.5 C 72 % 4.71 C
3764 18-03-2004 09:07:00 9.5 C 71 % 4.51 C
3765 18-03-2004 09:19:58 9.9 C 71 % 4.9 C
3766 18-03-2004 09:31:57 10.5 C 69 % 5.06 C
3767 18-03-2004 09:43:57 11 C 67 % 5.12 C
3768 18-03-2004 09:55:01 11.4 C 65 % 5.06 C
3769 18-03-2004 10:07:01 11.7 C 65 % 5.35 C
3770 18-03-2004 10:19:01 12.5 C 62 % 5.43 C
3771 18-03-2004 10:31:01 13.1 C 59 % 5.28 C
3772 18-03-2004 10:43:01 13.8 C 59 % 5.94 C
3773 18-03-2004 10:55:01 14.1 C 57 % 5.72 C
3774 18-03-2004 11:07:00 14.8 C 58 % 6.63 C
3775 18-03-2004 11:19:59 15.5 C 54 % 6.24 C
Sensor: Nr:Datum:Temp:Feuchte:Taupunkt:
Aussen-T/F 3776 18-03-2004 11:31:58 15.4 C 53 % 5.88 C
3777 18-03-2004 11:43:58 16.3 C 52 % 6.44 C
3778 18-03-2004 11:55:01 17.1 C 51 % 6.89 C
3779 18-03-2004 12:07:01 17.7 C 48 % 6.56 C
3780 18-03-2004 12:19:01 18.6 C 48 % 7.39 C
3781 18-03-2004 12:31:01 19.2 C 44 % 6.66 C
3782 18-03-2004 12:43:01 19.9 C 45 % 7.63 C
3783 18-03-2004 12:55:00 20.6 C 43 % 7.59 C
3784 18-03-2004 13:07:00 20.7 C 41 % 6.99 C
3785 18-03-2004 13:19:58 21.2 C 42 % 7.79 C
3786 18-03-2004 13:31:57 22 C 37 % 6.65 C
3787 18-03-2004 13:43:57 22.6 C 37 % 7.18 C
3788 18-03-2004 13:55:01 22.9 C 34 % 6.22 C
3789 18-03-2004 14:07:01 23.3 C 34 % 6.57 C
3790 18-03-2004 14:19:01 23 C 31 % 4.98 C
3791 18-03-2004 14:31:01 22.9 C 31 % 4.89 C
3792 18-03-2004 14:43:01 21.9 C 33 % 4.92 C
3793 18-03-2004 14:55:01 22.5 C 32 % 5 C
3794 18-03-2004 15:07:01 22.5 C 31 % 4.54 C
3795 18-03-2004 15:19:01 22.1 C 31 % 4.2 C
3796 18-03-2004 15:31:01 22.2 C 31 % 4.28 C
3797 18-03-2004 15:43:01 22 C 33 % 5 C
3798 18-03-2004 15:55:00 21.1 C 36 % 5.46 C
3799 18-03-2004 16:07:00 20.8 C 37 % 5.59 C
3800 18-03-2004 16:19:59 20.6 C 40 % 6.54 C
Sensor: Nr:Datum:Temp:Feuchte:Taupunkt:
Aussen-T/F 3801 18-03-2004 16:31:58 20.3 C 40 % 6.27 C
3802 18-03-2004 16:43:58 20.1 C 42 % 6.8 C
3803 18-03-2004 16:55:01 20 C 38 % 5.26 C
3804 18-03-2004 17:07:00 20 C 39 % 5.64 C
3805 18-03-2004 17:19:00 19.7 C 39 % 5.37 C
3806 18-03-2004 17:31:00 19.5 C 40 % 5.56 C
3807 18-03-2004 17:43:00 19.3 C 41 % 5.73 C
3808 18-03-2004 17:55:01 18.8 C 45 % 6.63 C
3809 18-03-2004 18:07:01 18.6 C 45 % 6.45 C
3810 18-03-2004 18:19:01 18.4 C 45 % 6.26 C
3811 18-03-2004 18:31:00 17.9 C 48 % 6.75 C
3812 18-03-2004 18:43:00 17.6 C 47 % 6.17 C
3813 18-03-2004 18:55:01 17.3 C 48 % 6.2 C
3814 18-03-2004 19:07:01 17.1 C 49 % 6.31 C
3815 18-03-2004 19:19:01 16.9 C 50 % 6.42 C
3816 18-03-2004 19:31:01 16.8 C 50 % 6.33 C
3817 18-03-2004 19:43:01 16.7 C 50 % 6.24 C
3818 18-03-2004 19:55:00 16.5 C 51 % 6.34 C
3819 18-03-2004 20:07:00 16.2 C 52 % 6.34 C
3820 18-03-2004 20:19:59 16 C 53 % 6.44 C
3821 18-03-2004 20:31:57 15.8 C 55 % 6.79 C
3822 18-03-2004 20:43:57 15.7 C 55 % 6.69 C
3823 18-03-2004 20:55:01 15.5 C 56 % 6.77 C
3824 18-03-2004 21:07:01 15.6 C 54 % 6.34 C
3825 18-03-2004 21:19:01 15.5 C 55 % 6.51 C
Sensor: Nr:Datum:Temp:Feuchte:Taupunkt:
Aussen-T/F 3826 18-03-2004 21:31:01 15.3 C 56 % 6.58 C
3827 18-03-2004 21:43:01 15.4 C 56 % 6.68 C
3828 18-03-2004 21:55:00 15 C 57 % 6.56 C
3829 18-03-2004 22:07:00 15 C 58 % 6.81 C
3830 18-03-2004 22:19:59 14.4 C 59 % 6.5 C
3831 18-03-2004 22:31:58 14.8 C 59 % 6.87 C
3832 18-03-2004 22:43:58 14.7 C 59 % 6.78 C
3833 18-03-2004 22:55:01 14.7 C 59 % 6.78 C
3834 18-03-2004 23:07:01 14.6 C 60 % 6.93 C
3835 18-03-2004 23:19:01 14.6 C 60 % 6.93 C
3836 18-03-2004 23:31:01 14.5 C 60 % 6.84 C
3837 18-03-2004 23:43:01 14.7 C 59 % 6.78 C
3838 18-03-2004 23:55:00 14.7 C 59 % 6.78 C
3839 19-03-2004 00:07:00 14.6 C 60 % 6.93 C
3840 19-03-2004 00:19:59 14.5 C 61 % 7.08 C
3841 19-03-2004 00:31:57 14.4 C 61 % 6.98 C
3842 19-03-2004 00:43:57 14.1 C 65 % 7.63 C
3843 19-03-2004 00:55:01 13.6 C 67 % 7.6 C
3844 19-03-2004 01:07:01 13.2 C 68 % 7.43 C
3845 19-03-2004 01:19:01 13.1 C 69 % 7.55 C
3846 19-03-2004 01:31:01 13.2 C 69 % 7.64 C
3847 19-03-2004 01:43:01 13.1 C 68 % 7.34 C
3848 19-03-2004 01:55:00 13 C 69 % 7.45 C
3849 19-03-2004 02:07:59 12.7 C 70 % 7.38 C
3850 19-03-2004 02:19:58 12.6 C 71 % 7.49 C
Sensor: Nr:Datum:Temp:Feuchte:Taupunkt:
Aussen-T/F 3851 19-03-2004 02:31:57 12.6 C 71 % 7.49 C
3852 19-03-2004 02:43:57 12.5 C 71 % 7.39 C
3853 19-03-2004 02:56:02 12.4 C 71 % 7.3 C
3854 19-03-2004 03:08:02 12.5 C 69 % 6.97 C
3855 19-03-2004 03:20:02 12.6 C 66 % 6.42 C
3856 19-03-2004 03:32:00 12.4 C 66 % 6.23 C
3857 19-03-2004 03:44:00 12.6 C 61 % 5.29 C
3858 19-03-2004 03:56:00 12.5 C 59 % 4.72 C
3859 19-03-2004 04:08:00 12.4 C 61 % 5.1 C
3860 19-03-2004 04:20:59 12.2 C 62 % 5.14 C
3861 19-03-2004 04:32:57 11.9 C 64 % 5.32 C
3862 19-03-2004 04:44:01 11.7 C 64 % 5.13 C
3863 19-03-2004 04:56:01 11.7 C 65 % 5.35 C
3864 19-03-2004 05:08:01 11.7 C 65 % 5.35 C
3865 19-03-2004 05:20:01 11.6 C 66 % 5.47 C
3866 19-03-2004 05:32:01 11.8 C 66 % 5.66 C
3867 19-03-2004 05:44:01 11.9 C 66 % 5.76 C
3868 19-03-2004 05:56:00 12 C 64 % 5.41 C
3869 19-03-2004 06:08:00 12 C 64 % 5.41 C
3870 19-03-2004 06:20:58 11.9 C 65 % 5.54 C
3871 19-03-2004 06:32:57 11.8 C 65 % 5.44 C
3872 19-03-2004 06:44:01 11.8 C 65 % 5.44 C
3873 19-03-2004 06:56:01 11.8 C 65 % 5.44 C
3874 19-03-2004 07:08:01 11.8 C 65 % 5.44 C
3875 19-03-2004 07:20:01 11.9 C 65 % 5.54 C
Sensor: Nr:Datum:Temp:Feuchte:Taupunkt:
Aussen-T/F 3876 19-03-2004 07:32:01 11.8 C 64 % 5.22 C
3877 19-03-2004 07:44:01 11.7 C 64 % 5.13 C
3878 19-03-2004 07:56:00 11.8 C 63 % 5 C
3879 19-03-2004 08:08:00 11.8 C 63 % 5 C
3880 19-03-2004 08:20:58 11.7 C 63 % 4.9 C
3881 19-03-2004 08:32:57 11.9 C 63 % 5.09 C
3882 19-03-2004 08:44:01 12 C 62 % 4.96 C
3883 19-03-2004 08:56:01 12 C 62 % 4.96 C
3884 19-03-2004 09:08:01 12.1 C 61 % 4.82 C
3885 19-03-2004 09:20:01 12.2 C 60 % 4.67 C
3886 19-03-2004 09:32:01 12.1 C 59 % 4.34 C
3887 19-03-2004 09:44:01 12.2 C 58 % 4.19 C
3888 19-03-2004 09:56:01 12 C 57 % 3.76 C <